Time,TemperatureF,DewpointF,PressureIn,WindDirection,WindDirectionDegrees,WindSpeedMPH,WindSpeedGustMPH,Humidity,HourlyPrecipIn,Conditions,Clouds,dailyrainin,SoftwareType,DateUTC
2013-02-24 00:00:00,3.6,1.0,28.73,ENE,68,0.0,0.0,89,0.00,,---,0.00,VWS V14.01,2013-02-24 06:00:00,
2013-02-24 00:01:00,3.2,0.7,28.76,ENE,68,0.0,0.0,89,0.00,,---,0.00,VWS V14.01,2013-02-24 06:01:00,
2013-02-24 00:02:00,3.4,0.9,28.76,ENE,68,0.0,0.0,89,0.00,,---,0.00,VWS V14.01,2013-02-24 06:02:00,
2013-02-24 00:03:00,3.2,0.7,28.76,ENE,68,0.0,0.0,89,0.00,,---,0.00,VWS V14.01,2013-02-24 06:03:00,
2013-02-24 00:04:00,3.2,0.7,28.76,ENE,68,0.0,0.0,89,0.00,,---,0.00,VWS V14.01,2013-02-24 06:04:00,
2013-02-24 00:05:00,3.2,0.7,28.76,ENE,68,0.0,0.0,89,0.00,,---,0.00,VWS V14.01,2013-02-24 06:05:00,
2013-02-24 00:06:00,2.8,0.3,28.76,ENE,68,0.0,0.0,89,0.00,,---,0.00,VWS V14.01,2013-02-24 06:06:00,
2013-02-24 00:07:00,2.8,0.3,28.76,ENE,68,0.0,0.0,89,0.00,,---,0.00,VWS V14.01,2013-02-24 06:07:00,
2013-02-24 00:08:00,2.8,0.3,28.76,ENE,68,0.0,0.0,89,0.00,,---,0.00,VWS V14.01,2013-02-24 06:08:00,
2013-02-24 00:09:00,2.8,0.3,28.76,ENE,68,0.0,0.0,89,0.00,,---,0.00,VWS V14.01,2013-02-24 06:09:00,
2013-02-24 00:10:00,2.7,0.2,28.76,WSW,248,0.0,0.0,89,0.00,,---,0.00,VWS V14.01,2013-02-24 06:10:00,
2013-02-24 00:11:00,2.5,0.0,28.76,WSW,248,1.3,1.3,89,0.00,,---,0.00,VWS V14.01,2013-02-24 06:11:00,
2013-02-24 00:12:00,2.5,0.0,28.76,WSW,248,0.0,0.0,89,0.00,,---,0.00,VWS V14.01,2013-02-24 06:12:00,
2013-02-24 00:13:00,2.5,0.0,28.76,WSW,248,0.0,0.0,89,0.00,,---,0.00,VWS V14.01,2013-02-24 06:13:00,
2013-02-24 00:14:00,2.5,0.0,28.76,WSW,248,1.1,1.1,89,0.00,,---,0.00,VWS V14.01,2013-02-24 06:14:00,
2013-02-24 00:15:00,2.5,0.0,28.76,West,270,0.9,1.3,89,0.00,,---,0.00,VWS V14.01,2013-02-24 06:15:00,
2013-02-24 00:16:00,2.5,0.0,28.76,West,270,0.0,0.0,89,0.00,,---,0.00,VWS V14.01,2013-02-24 06:16:00,
2013-02-24 00:17:00,2.5,0.0,28.76,West,270,0.0,0.9,89,0.00,,---,0.00,VWS V14.01,2013-02-24 06:17:00,
2013-02-24 00:18:00,2.5,0.0,28.76,West,270,0.0,0.0,89,0.00,,---,0.00,VWS V14.01,2013-02-24 06:18:00,
2013-02-24 00:19:00,2.5,0.0,28.76,West,270,0.0,0.0,89,0.00,,---,0.00,VWS V14.01,2013-02-24 06:19:00,
2013-02-24 00:20:00,2.5,0.0,28.76,West,270,0.0,0.0,89,0.00,,---,0.00,VWS V14.01,2013-02-24 06:20:00,
2013-02-24 00:21:00,2.5,0.0,28.76,West,270,0.0,0.0,89,0.00,,---,0.00,VWS V14.01,2013-02-24 06:21:00,
2013-02-24 00:22:00,2.5,0.0,28.76,West,270,0.0,0.0,89,0.00,,---,0.00,VWS V14.01,2013-02-24 06:22:00,
2013-02-24 00:23:00,2.5,0.0,28.76,West,270,0.0,0.0,89,0.00,,---,0.00,VWS V14.01,2013-02-24 06:23:00,
2013-02-24 00:24:00,2.5,0.0,28.76,West,270,0.0,0.0,89,0.00,,---,0.00,VWS V14.01,2013-02-24 06:24:00,
2013-02-24 00:25:00,2.5,0.0,28.76,West,270,0.0,0.0,89,0.00,,---,0.00,VWS V14.01,2013-02-24 06:25:00,
2013-02-24 00:26:00,2.5,0.0,28.76,West,270,0.0,0.0,89,0.00,,---,0.00,VWS V14.01,2013-02-24 06:26:00,
2013-02-24 00:27:00,2.5,0.0,28.76,West,270,0.0,0.0,89,0.00,,---,0.00,VWS V14.01,2013-02-24 06:27:00,
2013-02-24 00:28:00,2.5,0.0,28.76,West,270,0.0,0.0,89,0.00,,---,0.00,VWS V14.01,2013-02-24 06:28:00,
2013-02-24 00:29:00,2.5,0.0,28.76,West,270,0.0,0.0,89,0.00,,---,0.00,VWS V14.01,2013-02-24 06:29:00,
2013-02-24 00:30:00,2.5,0.0,28.76,West,270,0.0,0.0,89,0.00,,---,0.00,VWS V14.01,2013-02-24 06:30:00,
2013-02-24 00:31:00,2.5,0.0,28.76,West,270,0.0,0.0,89,0.00,,---,0.00,VWS V14.01,2013-02-24 06:31:00,
2013-02-24 00:32:00,2.5,0.0,28.76,West,270,0.0,0.0,89,0.00,,---,0.00,VWS V14.01,2013-02-24 06:32:00,
2013-02-24 00:33:00,2.5,0.0,28.76,West,270,0.0,0.0,89,0.00,,---,0.00,VWS V14.01,2013-02-24 06:33:00,
2013-02-24 00:34:00,2.5,0.0,28.76,West,270,0.0,0.0,89,0.00,,---,0.00,VWS V14.01,2013-02-24 06:34:00,
2013-02-24 00:35:00,2.5,0.0,28.76,West,270,0.0,0.0,89,0.00,,---,0.00,VWS V14.01,2013-02-24 06:35:00,
2013-02-24 00:36:00,2.5,0.0,28.76,West,270,0.0,0.0,89,0.00,,---,0.00,VWS V14.01,2013-02-24 06:36:00,
2013-02-24 00:37:00,2.3,-0.2,28.79,NE,45,0.0,0.0,89,0.00,,---,0.00,VWS V14.01,2013-02-24 06:37:00,
2013-02-24 00:38:00,2.5,0.0,28.76,West,270,0.0,0.0,89,0.00,,---,0.00,VWS V14.01,2013-02-24 06:38:00,
2013-02-24 00:39:00,2.5,0.0,28.76,West,270,0.0,0.0,89,0.00,,---,0.00,VWS V14.01,2013-02-24 06:39:00,
2013-02-24 00:40:00,2.5,0.0,28.76,West,270,0.0,0.9,89,0.00,,---,0.00,VWS V14.01,2013-02-24 06:40:00,
2013-02-24 00:41:00,2.5,0.0,28.76,ENE,68,0.0,0.0,89,0.00,,---,0.00,VWS V14.01,2013-02-24 06:41:00,
2013-02-24 00:42:00,2.5,0.0,28.76,ENE,68,0.0,0.0,89,0.00,,---,0.00,VWS V14.01,2013-02-24 06:42:00,
2013-02-24 00:43:00,2.5,0.0,28.76,ENE,68,0.0,0.0,89,0.00,,---,0.00,VWS V14.01,2013-02-24 06:43:00,
2013-02-24 00:44:00,2.5,0.0,28.76,ENE,68,0.0,0.0,89,0.00,,---,0.00,VWS V14.01,2013-02-24 06:44:00,
2013-02-24 00:45:00,2.5,0.0,28.76,ENE,68,0.0,0.0,89,0.00,,---,0.00,VWS V14.01,2013-02-24 06:45:00,
2013-02-24 00:46:00,2.5,0.0,28.76,ENE,68,0.0,0.0,89,0.00,,---,0.00,VWS V14.01,2013-02-24 06:46:00,
2013-02-24 00:47:00,2.5,0.0,28.76,ENE,68,0.0,0.0,89,0.00,,---,0.00,VWS V14.01,2013-02-24 06:47:00,
2013-02-24 00:48:00,2.5,0.0,28.76,ENE,68,0.0,0.0,89,0.00,,---,0.00,VWS V14.01,2013-02-24 06:48:00,
2013-02-24 00:49:00,2.5,0.0,28.76,ENE,68,0.0,0.0,89,0.00,,---,0.00,VWS V14.01,2013-02-24 06:49:00,
2013-02-24 00:50:00,2.5,0.0,28.76,ENE,68,0.0,0.0,89,0.00,,---,0.00,VWS V14.01,2013-02-24 06:50:00,
2013-02-24 00:51:00,2.1,-0.4,28.76,SW,225,0.0,0.0,89,0.00,,---,0.00,VWS V14.01,2013-02-24 06:51:00,
2013-02-24 00:52:00,2.3,-0.2,28.76,ENE,68,0.0,0.0,89,0.00,,---,0.00,VWS V14.01,2013-02-24 06:52:00,
2013-02-24 00:53:00,2.1,-0.4,28.76,SSW,202,0.0,0.0,89,0.00,,---,0.00,VWS V14.01,2013-02-24 06:53:00,
2013-02-24 00:54:00,2.5,0.0,28.79,NE,45,0.0,0.0,89,0.00,,---,0.00,VWS V14.01,2013-02-24 06:54:00,
2013-02-24 00:55:00,2.1,-0.4,28.76,SW,225,0.0,0.0,89,0.00,,---,0.00,VWS V14.01,2013-02-24 06:55:00,
2013-02-24 00:56:00,1.9,-0.6,28.76,WSW,248,0.0,0.0,89,0.00,,---,0.00,VWS V14.01,2013-02-24 06:56:00,
2013-02-24 00:57:00,1.9,-0.6,28.76,WSW,248,0.0,0.0,89,0.00,,---,0.00,VWS V14.01,2013-02-24 06:57:00,
2013-02-24 00:58:00,1.9,-0.6,28.76,WSW,248,0.0,0.0,89,0.00,,---,0.00,VWS V14.01,2013-02-24 06:58:00,
2013-02-24 00:59:00,1.9,-0.6,28.76,WSW,248,0.0,0.0,89,0.00,,---,0.00,VWS V14.01,2013-02-24 06:59:00,
2013-02-24 01:00:00,1.8,-0.7,28.76,WSW,248,0.0,0.0,89,0.00,,---,0.00,VWS V14.01,2013-02-24 07:00:00,
2013-02-24 01:01:00,1.8,-0.7,28.79,WSW,248,0.0,0.0,89,0.00,,---,0.00,VWS V14.01,2013-02-24 07:01:00,
2013-02-24 01:02:00,1.8,-0.7,28.79,WSW,248,0.0,0.0,89,0.00,,---,0.00,VWS V14.01,2013-02-24 07:02:00,
2013-02-24 01:03:00,1.8,-0.7,28.79,WSW,248,0.0,0.0,89,0.00,,---,0.00,VWS V14.01,2013-02-24 07:03:00,
2013-02-24 01:04:00,1.8,-0.7,28.79,WSW,248,0.0,0.0,89,0.00,,---,0.00,VWS V14.01,2013-02-24 07:04:00,
2013-02-24 01:05:00,1.6,-0.9,28.79,WSW,248,0.0,0.0,89,0.00,,---,0.00,VWS V14.01,2013-02-24 07:05:00,
2013-02-24 01:06:00,1.6,-0.9,28.79,WSW,248,0.0,0.0,89,0.00,,---,0.00,VWS V14.01,2013-02-24 07:06:00,
2013-02-24 01:07:00,1.6,-0.9,28.79,WSW,248,0.0,0.0,89,0.00,,---,0.00,VWS V14.01,2013-02-24 07:07:00,
2013-02-24 01:08:00,1.6,-0.9,28.79,WSW,248,0.0,0.0,89,0.00,,---,0.00,VWS V14.01,2013-02-24 07:08:00,
2013-02-24 01:09:00,1.6,-0.9,28.79,WSW,248,0.0,0.0,89,0.00,,---,0.00,VWS V14.01,2013-02-24 07:09:00,
2013-02-24 01:10:00,1.6,-0.9,28.79,WSW,248,0.0,0.0,89,0.00,,---,0.00,VWS V14.01,2013-02-24 07:10:00,
2013-02-24 01:11:00,1.6,-0.9,28.79,WSW,248,0.0,0.0,89,0.00,,---,0.00,VWS V14.01,2013-02-24 07:11:00,
2013-02-24 01:12:00,1.6,-0.9,28.79,WSW,248,0.0,0.0,89,0.00,,---,0.00,VWS V14.01,2013-02-24 07:12:00,
2013-02-24 01:13:00,1.6,-0.9,28.79,WSW,248,0.0,0.0,89,0.00,,---,0.00,VWS V14.01,2013-02-24 07:13:00,
2013-02-24 01:14:00,1.6,-0.9,28.79,WSW,248,0.0,0.0,89,0.00,,---,0.00,VWS V14.01,2013-02-24 07:14:00,
2013-02-24 01:15:00,1.6,-0.9,28.79,WSW,248,0.0,0.0,89,0.00,,---,0.00,VWS V14.01,2013-02-24 07:15:00,
2013-02-24 01:16:00,1.8,-0.7,28.79,WSW,248,0.0,0.0,89,0.00,,---,0.00,VWS V14.01,2013-02-24 07:16:00,
2013-02-24 01:17:00,1.8,-0.7,28.79,WSW,248,0.0,0.0,89,0.00,,---,0.00,VWS V14.01,2013-02-24 07:17:00,
2013-02-24 01:18:00,1.8,-0.7,28.79,WSW,248,0.0,0.0,89,0.00,,---,0.00,VWS V14.01,2013-02-24 07:18:00,
2013-02-24 01:19:00,1.8,-0.7,28.79,WSW,248,0.0,0.0,89,0.00,,---,0.00,VWS V14.01,2013-02-24 07:19:00,
2013-02-24 01:20:00,1.9,-0.6,28.79,WSW,248,0.0,0.0,89,0.00,,---,0.00,VWS V14.01,2013-02-24 07:20:00,
2013-02-24 01:21:00,1.9,-0.6,28.79,SSW,202,0.0,0.0,89,0.00,,---,0.00,VWS V14.01,2013-02-24 07:21:00,
2013-02-24 01:22:00,1.9,-0.6,28.79,SSW,202,0.0,0.0,89,0.00,,---,0.00,VWS V14.01,2013-02-24 07:22:00,
2013-02-24 01:23:00,1.9,-0.6,28.79,SSW,202,0.0,0.0,89,0.00,,---,0.00,VWS V14.01,2013-02-24 07:23:00,
2013-02-24 01:24:00,1.9,-0.6,28.79,SSW,202,0.0,0.0,89,0.00,,---,0.00,VWS V14.01,2013-02-24 07:24:00,
2013-02-24 01:25:00,1.9,-0.6,28.79,SSW,202,0.0,0.0,89,0.00,,---,0.00,VWS V14.01,2013-02-24 07:25:00,
2013-02-24 01:26:00,2.1,-0.4,28.79,SSW,202,0.0,0.0,89,0.00,,---,0.00,VWS V14.01,2013-02-24 07:26:00,
2013-02-24 01:27:00,1.9,-0.6,28.79,SSW,202,0.0,0.0,89,0.00,,---,0.00,VWS V14.01,2013-02-24 07:27:00,
2013-02-24 01:28:00,1.9,-0.6,28.79,SSW,202,0.0,0.0,89,0.00,,---,0.00,VWS V14.01,2013-02-24 07:28:00,
2013-02-24 01:29:00,2.1,-0.4,28.79,SSW,202,0.0,0.0,89,0.00,,---,0.00,VWS V14.01,2013-02-24 07:29:00,
2013-02-24 01:30:00,2.1,-0.4,28.79,SSW,202,0.0,0.0,89,0.00,,---,0.00,VWS V14.01,2013-02-24 07:30:00,
2013-02-24 01:31:00,2.1,-0.4,28.79,SSW,202,0.0,0.0,89,0.00,,---,0.00,VWS V14.01,2013-02-24 07:31:00,
2013-02-24 01:32:00,2.1,-0.4,28.79,SSW,202,0.0,0.0,89,0.00,,---,0.00,VWS V14.01,2013-02-24 07:32:00,
2013-02-24 01:33:00,2.1,-0.4,28.79,SSW,202,0.0,0.0,89,0.00,,---,0.00,VWS V14.01,2013-02-24 07:33:00,
2013-02-24 01:34:00,2.1,-0.4,28.79,SSW,202,0.0,0.0,89,0.00,,---,0.00,VWS V14.01,2013-02-24 07:34:00,
2013-02-24 01:35:00,2.3,-0.2,28.79,SSW,202,0.0,0.0,89,0.00,,---,0.00,VWS V14.01,2013-02-24 07:35:00,
2013-02-24 01:36:00,2.3,-0.2,28.79,NE,45,0.0,0.0,89,0.00,,---,0.00,VWS V14.01,2013-02-24 07:36:00,
2013-02-24 01:37:00,2.3,-0.2,28.79,NE,45,0.0,0.0,89,0.00,,---,0.00,VWS V14.01,2013-02-24 07:37:00,
2013-02-24 01:38:00,2.3,-0.2,28.79,NE,45,0.0,0.0,89,0.00,,---,0.00,VWS V14.01,2013-02-24 07:38:00,
2013-02-24 01:39:00,2.3,-0.2,28.79,NE,45,0.0,0.0,89,0.00,,---,0.00,VWS V14.01,2013-02-24 07:39:00,
2013-02-24 01:40:00,2.3,-0.2,28.79,NE,45,0.0,0.0,89,0.00,,---,0.00,VWS V14.01,2013-02-24 07:40:00,
2013-02-24 01:41:00,2.5,0.0,28.79,NE,45,0.0,0.0,89,0.00,,---,0.00,VWS V14.01,2013-02-24 07:41:00,
2013-02-24 01:42:00,2.5,0.0,28.79,NE,45,0.0,0.0,89,0.00,,---,0.00,VWS V14.01,2013-02-24 07:42:00,
2013-02-24 01:43:00,2.5,0.0,28.79,NE,45,0.0,0.0,89,0.00,,---,0.00,VWS V14.01,2013-02-24 07:43:00,
2013-02-24 01:44:00,2.5,0.0,28.79,NE,45,0.0,0.0,89,0.00,,---,0.00,VWS V14.01,2013-02-24 07:44:00,
2013-02-24 01:45:00,2.5,0.0,28.79,NE,45,0.0,0.0,89,0.00,,---,0.00,VWS V14.01,2013-02-24 07:45:00,
2013-02-24 01:46:00,2.5,0.0,28.79,NE,45,0.0,0.0,89,0.00,,---,0.00,VWS V14.01,2013-02-24 07:46:00,
2013-02-24 01:47:00,2.5,0.0,28.79,NE,45,0.0,0.0,89,0.00,,---,0.00,VWS V14.01,2013-02-24 07:47:00,
2013-02-24 01:48:00,2.5,0.0,28.79,NE,45,0.0,0.0,89,0.00,,---,0.00,VWS V14.01,2013-02-24 07:48:00,
2013-02-24 01:49:00,2.5,0.0,28.79,NE,45,0.0,0.0,89,0.00,,---,0.00,VWS V14.01,2013-02-24 07:49:00,
2013-02-24 01:50:00,2.5,0.0,28.79,NE,45,0.0,0.0,89,0.00,,---,0.00,VWS V14.01,2013-02-24 07:50:00,
2013-02-24 01:51:00,2.5,0.0,28.79,NE,45,0.0,0.0,89,0.00,,---,0.00,VWS V14.01,2013-02-24 07:51:00,
2013-02-24 01:52:00,2.5,0.0,28.79,NE,45,0.0,0.0,89,0.00,,---,0.00,VWS V14.01,2013-02-24 07:52:00,
2013-02-24 01:53:00,2.5,0.0,28.79,NE,45,0.0,0.0,89,0.00,,---,0.00,VWS V14.01,2013-02-24 07:53:00,
2013-02-24 01:54:00,2.5,0.0,28.79,NE,45,0.0,0.0,89,0.00,,---,0.00,VWS V14.01,2013-02-24 07:54:00,
2013-02-24 01:55:00,2.5,0.0,28.79,NE,45,0.0,0.0,89,0.00,,---,0.00,VWS V14.01,2013-02-24 07:55:00,
2013-02-24 01:56:00,2.7,0.2,28.79,NE,45,0.0,0.0,89,0.00,,---,0.00,VWS V14.01,2013-02-24 07:56:00,
2013-02-24 01:57:00,2.7,0.2,28.79,NE,45,0.0,0.0,89,0.00,,---,0.00,VWS V14.01,2013-02-24 07:57:00,
2013-02-24 01:58:00,2.7,0.2,28.79,NE,45,0.0,0.0,89,0.00,,---,0.00,VWS V14.01,2013-02-24 07:58:00,
2013-02-24 01:59:00,2.7,0.2,28.79,NE,45,0.0,0.0,89,0.00,,---,0.00,VWS V14.01,2013-02-24 07:59:00,
2013-02-24 02:00:00,2.7,0.2,28.79,NE,45,0.0,0.0,89,0.00,,---,0.00,VWS V14.01,2013-02-24 08:00:00,
2013-02-24 02:01:00,2.7,0.2,28.79,NE,45,0.0,0.0,89,0.00,,---,0.00,VWS V14.01,2013-02-24 08:01:00,
2013-02-24 02:02:00,2.7,0.2,28.79,NE,45,0.0,0.0,89,0.00,,---,0.00,VWS V14.01,2013-02-24 08:02:00,
2013-02-24 02:03:00,2.7,0.2,28.79,NE,45,0.0,0.0,89,0.00,,---,0.00,VWS V14.01,2013-02-24 08:03:00,
2013-02-24 02:04:00,2.7,0.2,28.79,NE,45,0.0,0.0,89,0.00,,---,0.00,VWS V14.01,2013-02-24 08:04:00,
2013-02-24 02:05:00,2.7,0.2,28.79,NE,45,0.0,0.0,89,0.00,,---,0.00,VWS V14.01,2013-02-24 08:05:00,
2013-02-24 02:06:00,2.7,0.2,28.79,NE,45,0.0,0.0,89,0.00,,---,0.00,VWS V14.01,2013-02-24 08:06:00,
2013-02-24 02:07:00,2.7,0.2,28.79,NE,45,0.0,0.0,89,0.00,,---,0.00,VWS V14.01,2013-02-24 08:07:00,
2013-02-24 02:08:00,2.7,0.2,28.79,NE,45,0.0,0.0,89,0.00,,---,0.00,VWS V14.01,2013-02-24 08:08:00,
2013-02-24 02:09:00,2.7,0.2,28.79,NE,45,0.0,0.0,89,0.00,,---,0.00,VWS V14.01,2013-02-24 08:09:00,
2013-02-24 02:10:00,2.7,0.2,28.79,NE,45,0.0,0.0,89,0.00,,---,0.00,VWS V14.01,2013-02-24 08:10:00,
2013-02-24 02:11:00,2.5,0.0,28.79,ENE,68,0.0,0.0,89,0.00,,---,0.00,VWS V14.01,2013-02-24 08:11:00,
2013-02-24 02:12:00,2.7,0.2,28.79,ENE,68,0.0,0.0,89,0.00,,---,0.00,VWS V14.01,2013-02-24 08:12:00,
2013-02-24 02:13:00,2.5,0.0,28.79,ENE,68,0.0,0.0,89,0.00,,---,0.00,VWS V14.01,2013-02-24 08:13:00,
2013-02-24 02:14:00,2.5,0.0,28.79,ENE,68,0.0,0.0,89,0.00,,---,0.00,VWS V14.01,2013-02-24 08:14:00,
2013-02-24 02:15:00,2.5,0.0,28.79,ENE,68,0.0,0.0,89,0.00,,---,0.00,VWS V14.01,2013-02-24 08:15:00,
2013-02-24 02:16:00,2.5,0.0,28.79,ENE,68,0.0,0.0,89,0.00,,---,0.00,VWS V14.01,2013-02-24 08:16:00,
2013-02-24 02:17:00,2.5,0.0,28.79,ENE,68,0.0,0.0,89,0.00,,---,0.00,VWS V14.01,2013-02-24 08:17:00,
2013-02-24 02:18:00,2.5,0.0,28.79,ENE,68,0.0,0.0,89,0.00,,---,0.00,VWS V14.01,2013-02-24 08:18:00,
2013-02-24 02:19:00,2.5,0.0,28.79,ENE,68,0.0,0.0,89,0.00,,---,0.00,VWS V14.01,2013-02-24 08:19:00,
2013-02-24 02:20:00,2.5,0.0,28.79,ENE,68,0.0,0.0,89,0.00,,---,0.00,VWS V14.01,2013-02-24 08:20:00,
2013-02-24 02:21:00,2.5,0.0,28.79,ENE,68,0.0,0.0,89,0.00,,---,0.00,VWS V14.01,2013-02-24 08:21:00,
2013-02-24 02:22:00,2.5,0.0,28.79,ENE,68,0.0,0.0,89,0.00,,---,0.00,VWS V14.01,2013-02-24 08:22:00,
2013-02-24 02:23:00,2.5,0.0,28.79,ENE,68,0.0,0.0,89,0.00,,---,0.00,VWS V14.01,2013-02-24 08:23:00,
2013-02-24 02:24:00,2.5,0.0,28.79,ENE,68,0.0,0.0,89,0.00,,---,0.00,VWS V14.01,2013-02-24 08:24:00,
2013-02-24 02:25:00,2.5,0.0,28.79,ENE,68,0.0,0.0,89,0.00,,---,0.00,VWS V14.01,2013-02-24 08:25:00,
2013-02-24 02:26:00,2.3,-0.2,28.79,NNW,338,0.9,1.1,89,0.00,,---,0.00,VWS V14.01,2013-02-24 08:26:00,
2013-02-24 02:27:00,2.5,0.0,28.79,ENE,68,0.0,0.0,89,0.00,,---,0.00,VWS V14.01,2013-02-24 08:27:00,
2013-02-24 02:28:00,2.5,0.0,28.79,ENE,68,0.0,0.0,89,0.00,,---,0.00,VWS V14.01,2013-02-24 08:28:00,
2013-02-24 02:29:00,2.3,-0.2,28.79,NNW,338,1.1,1.1,89,0.00,,---,0.00,VWS V14.01,2013-02-24 08:29:00,
2013-02-24 02:30:00,2.3,-0.2,28.79,NNW,338,0.0,1.1,89,0.00,,---,0.00,VWS V14.01,2013-02-24 08:30:00,
2013-02-24 02:31:00,2.1,-0.4,28.79,NNW,338,0.0,0.0,89,0.00,,---,0.00,VWS V14.01,2013-02-24 08:31:00,
2013-02-24 02:32:00,2.3,-0.2,28.79,NNW,338,0.0,0.0,89,0.00,,---,0.00,VWS V14.01,2013-02-24 08:32:00,
2013-02-24 02:33:00,2.1,-0.4,28.79,NNW,338,0.0,0.0,89,0.00,,---,0.00,VWS V14.01,2013-02-24 08:33:00,
2013-02-24 02:34:00,2.1,-0.4,28.79,NNW,338,0.0,0.0,89,0.00,,---,0.00,VWS V14.01,2013-02-24 08:34:00,
2013-02-24 02:35:00,2.1,-0.4,28.79,NNW,338,0.0,0.0,89,0.00,,---,0.00,VWS V14.01,2013-02-24 08:35:00,
2013-02-24 02:36:00,1.9,-0.6,28.79,NNW,338,0.0,0.0,89,0.00,,---,0.00,VWS V14.01,2013-02-24 08:36:00,
2013-02-24 02:37:00,2.1,-0.4,28.79,NNW,338,0.0,0.0,89,0.00,,---,0.00,VWS V14.01,2013-02-24 08:37:00,
2013-02-24 02:38:00,1.9,-0.6,28.79,NNW,338,0.0,0.0,89,0.00,,---,0.00,VWS V14.01,2013-02-24 08:38:00,
2013-02-24 02:39:00,1.9,-0.6,28.79,NNW,338,0.0,0.0,89,0.00,,---,0.00,VWS V14.01,2013-02-24 08:39:00,
2013-02-24 02:40:00,1.9,-0.6,28.79,NNW,338,0.0,0.0,89,0.00,,---,0.00,VWS V14.01,2013-02-24 08:40:00,
2013-02-24 02:41:00,1.9,-0.6,28.79,NNW,338,0.0,0.0,89,0.00,,---,0.00,VWS V14.01,2013-02-24 08:41:00,
2013-02-24 02:42:00,1.9,-0.6,28.79,NNW,338,0.0,0.0,89,0.00,,---,0.00,VWS V14.01,2013-02-24 08:42:00,
2013-02-24 02:43:00,1.9,-0.6,28.79,NNW,338,0.0,0.0,89,0.00,,---,0.00,VWS V14.01,2013-02-24 08:43:00,
2013-02-24 02:44:00,1.9,-0.6,28.79,NNW,338,0.0,0.0,89,0.00,,---,0.00,VWS V14.01,2013-02-24 08:44:00,
2013-02-24 02:45:00,1.9,-0.6,28.79,NNW,338,0.0,0.0,89,0.00,,---,0.00,VWS V14.01,2013-02-24 08:45:00,
2013-02-24 02:46:00,1.9,-0.6,28.79,NNW,338,0.0,0.0,89,0.00,,---,0.00,VWS V14.01,2013-02-24 08:46:00,
2013-02-24 02:47:00,1.9,-0.6,28.79,NNW,338,0.0,0.0,89,0.00,,---,0.00,VWS V14.01,2013-02-24 08:47:00,
2013-02-24 02:48:00,1.2,-1.3,28.79,ENE,68,0.0,0.0,89,0.00,,---,0.00,VWS V14.01,2013-02-24 08:48:00,
2013-02-24 02:49:00,1.9,-0.6,28.79,NNW,338,0.0,0.0,89,0.00,,---,0.00,VWS V14.01,2013-02-24 08:49:00,
2013-02-24 02:50:00,1.9,-0.6,28.79,NNE,22,0.0,0.0,89,0.00,,---,0.00,VWS V14.01,2013-02-24 08:50:00,
2013-02-24 02:51:00,1.9,-0.6,28.79,NE,45,0.0,0.0,89,0.00,,---,0.00,VWS V14.01,2013-02-24 08:51:00,
2013-02-24 02:52:00,1.9,-0.6,28.79,NE,45,0.0,0.0,89,0.00,,---,0.00,VWS V14.01,2013-02-24 08:52:00,
2013-02-24 02:53:00,1.9,-0.6,28.79,NE,45,0.0,0.0,89,0.00,,---,0.00,VWS V14.01,2013-02-24 08:53:00,
2013-02-24 02:54:00,1.9,-0.6,28.79,NE,45,0.0,0.0,89,0.00,,---,0.00,VWS V14.01,2013-02-24 08:54:00,
2013-02-24 02:55:00,1.9,-0.6,28.79,NE,45,0.0,0.0,89,0.00,,---,0.00,VWS V14.01,2013-02-24 08:55:00,
2013-02-24 02:56:00,1.8,-0.7,28.79,NE,45,0.0,0.0,89,0.00,,---,0.00,VWS V14.01,2013-02-24 08:56:00,
2013-02-24 02:57:00,1.2,-1.3,28.79,ENE,68,0.0,0.0,89,0.00,,---,0.00,VWS V14.01,2013-02-24 08:57:00,
2013-02-24 02:58:00,1.9,-0.6,28.79,ENE,68,0.0,0.0,89,0.00,,---,0.00,VWS V14.01,2013-02-24 08:58:00,
2013-02-24 02:59:00,1.8,-0.7,28.79,NE,45,0.0,0.0,89,0.00,,---,0.00,VWS V14.01,2013-02-24 08:59:00,
2013-02-24 03:00:00,1.8,-0.7,28.79,NE,45,0.0,0.0,89,0.00,,---,0.00,VWS V14.01,2013-02-24 09:00:00,
2013-02-24 03:01:00,1.6,-0.9,28.79,ENE,68,0.0,0.0,89,0.00,,---,0.00,VWS V14.01,2013-02-24 09:01:00,
2013-02-24 03:02:00,1.6,-0.9,28.79,ENE,68,0.0,0.0,89,0.00,,---,0.00,VWS V14.01,2013-02-24 09:02:00,
2013-02-24 03:03:00,1.6,-0.9,28.79,ENE,68,0.0,0.0,89,0.00,,---,0.00,VWS V14.01,2013-02-24 09:03:00,
2013-02-24 03:04:00,1.6,-0.9,28.79,ENE,68,0.0,0.0,89,0.00,,---,0.00,VWS V14.01,2013-02-24 09:04:00,
2013-02-24 03:05:00,1.6,-0.9,28.79,ENE,68,0.0,0.0,89,0.00,,---,0.00,VWS V14.01,2013-02-24 09:05:00,
2013-02-24 03:06:00,1.6,-0.9,28.79,NE,45,1.1,1.1,89,0.00,,---,0.00,VWS V14.01,2013-02-24 09:06:00,
2013-02-24 03:07:00,1.6,-0.9,28.79,ENE,68,0.0,0.0,89,0.00,,---,0.00,VWS V14.01,2013-02-24 09:07:00,
2013-02-24 03:08:00,1.6,-0.9,28.79,ENE,68,0.0,0.0,89,0.00,,---,0.00,VWS V14.01,2013-02-24 09:08:00,
2013-02-24 03:09:00,1.6,-0.9,28.79,ENE,68,0.0,0.0,89,0.00,,---,0.00,VWS V14.01,2013-02-24 09:09:00,
2013-02-24 03:10:00,1.6,-0.9,28.79,NE,45,1.1,1.1,89,0.00,,---,0.00,VWS V14.01,2013-02-24 09:10:00,
2013-02-24 03:11:00,1.4,-1.1,28.79,ENE,68,0.0,0.0,89,0.00,,---,0.00,VWS V14.01,2013-02-24 09:11:00,
2013-02-24 03:12:00,1.6,-0.9,28.79,ENE,68,0.0,0.0,89,0.00,,---,0.00,VWS V14.01,2013-02-24 09:12:00,
2013-02-24 03:13:00,1.4,-1.1,28.79,ENE,68,0.0,0.0,89,0.00,,---,0.00,VWS V14.01,2013-02-24 09:13:00,
2013-02-24 03:14:00,1.4,-1.1,28.79,ENE,68,0.0,0.0,89,0.00,,---,0.00,VWS V14.01,2013-02-24 09:14:00,
2013-02-24 03:15:00,1.4,-1.1,28.79,ENE,68,0.0,0.0,89,0.00,,---,0.00,VWS V14.01,2013-02-24 09:15:00,
2013-02-24 03:16:00,1.4,-1.1,28.76,ENE,68,0.0,0.0,89,0.00,,---,0.00,VWS V14.01,2013-02-24 09:16:00,
2013-02-24 03:17:00,1.4,-1.1,28.76,ENE,68,0.0,0.0,89,0.00,,---,0.00,VWS V14.01,2013-02-24 09:17:00,
2013-02-24 03:18:00,1.4,-1.1,28.76,ENE,68,0.0,0.0,89,0.00,,---,0.00,VWS V14.01,2013-02-24 09:18:00,
2013-02-24 03:19:00,1.4,-1.1,28.76,ENE,68,0.0,0.0,89,0.00,,---,0.00,VWS V14.01,2013-02-24 09:19:00,
2013-02-24 03:20:00,1.4,-1.1,28.76,ENE,68,0.0,0.0,89,0.00,,---,0.00,VWS V14.01,2013-02-24 09:20:00,
2013-02-24 03:21:00,1.2,-1.3,28.76,ENE,68,0.0,0.0,89,0.00,,---,0.00,VWS V14.01,2013-02-24 09:21:00,
2013-02-24 03:22:00,1.2,-1.3,28.76,ENE,68,0.0,0.0,89,0.00,,---,0.00,VWS V14.01,2013-02-24 09:22:00,
2013-02-24 03:23:00,1.2,-1.3,28.76,ENE,68,0.0,0.0,89,0.00,,---,0.00,VWS V14.01,2013-02-24 09:23:00,
2013-02-24 03:24:00,1.2,-1.3,28.76,ENE,68,0.0,0.0,89,0.00,,---,0.00,VWS V14.01,2013-02-24 09:24:00,
2013-02-24 03:25:00,1.2,-1.3,28.76,ENE,68,0.0,0.0,89,0.00,,---,0.00,VWS V14.01,2013-02-24 09:25:00,
2013-02-24 03:26:00,1.2,-1.3,28.76,ENE,68,0.0,0.0,89,0.00,,---,0.00,VWS V14.01,2013-02-24 09:26:00,
2013-02-24 03:27:00,1.2,-1.3,28.76,ENE,68,0.0,0.0,89,0.00,,---,0.00,VWS V14.01,2013-02-24 09:27:00,
2013-02-24 03:28:00,1.2,-1.3,28.76,NE,45,0.0,0.0,89,0.00,,---,0.00,VWS V14.01,2013-02-24 09:28:00,
2013-02-24 03:29:00,1.2,-1.3,28.76,ENE,68,0.0,0.0,89,0.00,,---,0.00,VWS V14.01,2013-02-24 09:29:00,
2013-02-24 03:30:00,1.2,-1.3,28.76,ENE,68,0.0,0.0,89,0.00,,---,0.00,VWS V14.01,2013-02-24 09:30:00,
2013-02-24 03:31:00,1.2,-1.3,28.76,ENE,68,0.0,0.0,89,0.00,,---,0.00,VWS V14.01,2013-02-24 09:31:00,
2013-02-24 03:32:00,1.2,-1.3,28.76,ENE,68,0.0,0.0,89,0.00,,---,0.00,VWS V14.01,2013-02-24 09:32:00,
2013-02-24 03:33:00,1.2,-1.3,28.76,ENE,68,0.0,0.0,89,0.00,,---,0.00,VWS V14.01,2013-02-24 09:33:00,
2013-02-24 03:34:00,1.2,-1.3,28.76,ENE,68,0.0,0.0,89,0.00,,---,0.00,VWS V14.01,2013-02-24 09:34:00,
2013-02-24 03:35:00,1.2,-1.3,28.76,ENE,68,0.0,0.0,89,0.00,,---,0.00,VWS V14.01,2013-02-24 09:35:00,
2013-02-24 03:36:00,1.2,-1.3,28.76,ENE,68,0.0,0.0,89,0.00,,---,0.00,VWS V14.01,2013-02-24 09:36:00,
2013-02-24 03:37:00,1.2,-1.3,28.76,ENE,68,0.0,0.0,89,0.00,,---,0.00,VWS V14.01,2013-02-24 09:37:00,
2013-02-24 03:38:00,1.2,-1.3,28.76,ENE,68,0.0,0.0,89,0.00,,---,0.00,VWS V14.01,2013-02-24 09:38:00,
2013-02-24 03:39:00,1.2,-1.3,28.76,ENE,68,0.0,0.0,89,0.00,,---,0.00,VWS V14.01,2013-02-24 09:39:00,
2013-02-24 03:40:00,1.2,-1.3,28.76,ENE,68,0.0,0.0,89,0.00,,---,0.00,VWS V14.01,2013-02-24 09:40:00,
2013-02-24 03:41:00,1.2,-1.3,28.76,ENE,68,0.0,0.0,89,0.00,,---,0.00,VWS V14.01,2013-02-24 09:41:00,
2013-02-24 03:42:00,1.2,-1.3,28.76,ENE,68,0.0,0.0,89,0.00,,---,0.00,VWS V14.01,2013-02-24 09:42:00,
2013-02-24 03:43:00,1.2,-1.3,28.76,ENE,68,0.0,0.0,89,0.00,,---,0.00,VWS V14.01,2013-02-24 09:43:00,
2013-02-24 03:44:00,1.2,-1.3,28.76,ENE,68,0.0,0.0,89,0.00,,---,0.00,VWS V14.01,2013-02-24 09:44:00,
2013-02-24 03:45:00,1.2,-1.3,28.76,ENE,68,0.0,0.0,89,0.00,,---,0.00,VWS V14.01,2013-02-24 09:45:00,
2013-02-24 03:46:00,1.2,-1.3,28.79,ENE,68,0.0,0.0,89,0.00,,---,0.00,VWS V14.01,2013-02-24 09:46:00,
2013-02-24 03:47:00,1.2,-1.3,28.79,ENE,68,0.0,0.0,89,0.00,,---,0.00,VWS V14.01,2013-02-24 09:47:00,
2013-02-24 03:48:00,1.2,-1.3,28.79,ENE,68,0.0,0.0,89,0.00,,---,0.00,VWS V14.01,2013-02-24 09:48:00,
2013-02-24 03:49:00,1.2,-1.3,28.79,ENE,68,0.0,0.0,89,0.00,,---,0.00,VWS V14.01,2013-02-24 09:49:00,
2013-02-24 03:50:00,1.2,-1.3,28.79,ENE,68,0.0,0.0,89,0.00,,---,0.00,VWS V14.01,2013-02-24 09:50:00,
2013-02-24 03:51:00,1.2,-1.3,28.79,ENE,68,0.0,0.0,89,0.00,,---,0.00,VWS V14.01,2013-02-24 09:51:00,
2013-02-24 03:52:00,1.2,-1.3,28.79,ENE,68,0.0,0.0,89,0.00,,---,0.00,VWS V14.01,2013-02-24 09:52:00,
2013-02-24 03:53:00,1.2,-1.3,28.79,ENE,68,0.0,0.0,89,0.00,,---,0.00,VWS V14.01,2013-02-24 09:53:00,
2013-02-24 03:54:00,1.2,-1.3,28.79,ENE,68,0.0,0.0,89,0.00,,---,0.00,VWS V14.01,2013-02-24 09:54:00,
2013-02-24 03:55:00,1.2,-1.3,28.79,ENE,68,0.0,0.0,89,0.00,,---,0.00,VWS V14.01,2013-02-24 09:55:00,
2013-02-24 03:56:00,1.2,-1.3,28.79,ENE,68,0.0,0.0,89,0.00,,---,0.00,VWS V14.01,2013-02-24 09:56:00,
2013-02-24 03:57:00,1.2,-1.3,28.79,ENE,68,0.0,0.0,89,0.00,,---,0.00,VWS V14.01,2013-02-24 09:57:00,
2013-02-24 03:58:00,1.2,-1.3,28.79,ENE,68,0.0,0.0,89,0.00,,---,0.00,VWS V14.01,2013-02-24 09:58:00,
2013-02-24 03:59:00,1.2,-1.3,28.79,ENE,68,0.0,0.0,89,0.00,,---,0.00,VWS V14.01,2013-02-24 09:59:00,
2013-02-24 04:00:00,1.2,-1.3,28.79,ENE,68,0.0,0.0,89,0.00,,---,0.00,VWS V14.01,2013-02-24 10:00:00,
2013-02-24 04:01:00,1.0,-1.4,28.79,ENE,68,0.0,0.0,89,0.00,,---,0.00,VWS V14.01,2013-02-24 10:01:00,
2013-02-24 04:02:00,1.2,-1.3,28.79,ENE,68,0.0,0.0,89,0.00,,---,0.00,VWS V14.01,2013-02-24 10:02:00,
2013-02-24 04:03:00,0.3,-2.2,28.79,ENE,68,0.0,0.0,89,0.00,,---,0.00,VWS V14.01,2013-02-24 10:03:00,
2013-02-24 04:04:00,1.2,-1.3,28.79,ENE,68,0.0,0.0,89,0.00,,---,0.00,VWS V14.01,2013-02-24 10:04:00,
2013-02-24 04:05:00,1.0,-1.4,28.79,ENE,68,0.0,0.0,89,0.00,,---,0.00,VWS V14.01,2013-02-24 10:05:00,
2013-02-24 04:06:00,1.0,-1.4,28.79,ENE,68,0.0,0.0,89,0.00,,---,0.00,VWS V14.01,2013-02-24 10:06:00,
2013-02-24 04:07:00,1.0,-1.4,28.79,ENE,68,0.0,0.0,89,0.00,,---,0.00,VWS V14.01,2013-02-24 10:07:00,
2013-02-24 04:08:00,1.0,-1.4,28.79,ENE,68,0.0,0.0,89,0.00,,---,0.00,VWS V14.01,2013-02-24 10:08:00,
2013-02-24 04:09:00,1.0,-1.4,28.79,ENE,68,0.0,0.0,89,0.00,,---,0.00,VWS V14.01,2013-02-24 10:09:00,
2013-02-24 04:10:00,1.0,-1.4,28.79,ENE,68,0.0,0.0,89,0.00,,---,0.00,VWS V14.01,2013-02-24 10:10:00,
2013-02-24 04:11:00,0.7,-1.8,28.79,ENE,68,0.0,0.0,89,0.00,,---,0.00,VWS V14.01,2013-02-24 10:11:00,
2013-02-24 04:12:00,0.9,-1.6,28.79,ENE,68,0.0,0.0,89,0.00,,---,0.00,VWS V14.01,2013-02-24 10:12:00,
2013-02-24 04:13:00,0.9,-1.6,28.79,ENE,68,0.0,0.0,89,0.00,,---,0.00,VWS V14.01,2013-02-24 10:13:00,
2013-02-24 04:14:00,0.9,-1.6,28.79,ENE,68,0.0,0.0,89,0.00,,---,0.00,VWS V14.01,2013-02-24 10:14:00,
2013-02-24 04:15:00,0.7,-1.8,28.79,ENE,68,0.0,0.0,89,0.00,,---,0.00,VWS V14.01,2013-02-24 10:15:00,
2013-02-24 04:16:00,0.7,-1.8,28.79,ENE,68,0.0,0.0,89,0.00,,---,0.00,VWS V14.01,2013-02-24 10:16:00,
2013-02-24 04:17:00,0.7,-1.8,28.79,ENE,68,0.0,0.0,89,0.00,,---,0.00,VWS V14.01,2013-02-24 10:17:00,
2013-02-24 04:18:00,0.7,-1.8,28.79,ENE,68,0.0,0.0,89,0.00,,---,0.00,VWS V14.01,2013-02-24 10:18:00,
2013-02-24 04:19:00,0.7,-1.8,28.79,ENE,68,0.0,0.0,89,0.00,,---,0.00,VWS V14.01,2013-02-24 10:19:00,
2013-02-24 04:20:00,0.7,-1.8,28.79,ENE,68,0.0,0.0,89,0.00,,---,0.00,VWS V14.01,2013-02-24 10:20:00,
2013-02-24 04:21:00,0.7,-1.8,28.79,ENE,68,0.0,0.0,89,0.00,,---,0.00,VWS V14.01,2013-02-24 10:21:00,
2013-02-24 04:22:00,0.3,-2.2,28.82,NE,45,0.0,0.0,89,0.00,,---,0.00,VWS V14.01,2013-02-24 10:22:00,
2013-02-24 04:23:00,0.7,-1.8,28.79,ENE,68,0.0,0.0,89,0.00,,---,0.00,VWS V14.01,2013-02-24 10:23:00,
2013-02-24 04:24:00,0.7,-1.8,28.79,ENE,68,0.0,0.0,89,0.00,,---,0.00,VWS V14.01,2013-02-24 10:24:00,
2013-02-24 04:25:00,0.7,-1.8,28.79,ENE,68,0.0,0.0,89,0.00,,---,0.00,VWS V14.01,2013-02-24 10:25:00,
2013-02-24 04:26:00,0.7,-1.8,28.79,ENE,68,0.0,0.0,89,0.00,,---,0.00,VWS V14.01,2013-02-24 10:26:00,
2013-02-24 04:27:00,0.7,-1.8,28.79,ENE,68,0.0,0.0,89,0.00,,---,0.00,VWS V14.01,2013-02-24 10:27:00,
2013-02-24 04:28:00,0.7,-1.8,28.79,ENE,68,0.0,0.0,89,0.00,,---,0.00,VWS V14.01,2013-02-24 10:28:00,
2013-02-24 04:29:00,0.7,-1.8,28.79,ENE,68,0.0,0.0,89,0.00,,---,0.00,VWS V14.01,2013-02-24 10:29:00,
2013-02-24 04:30:00,0.7,-1.8,28.79,ENE,68,0.0,0.0,89,0.00,,---,0.00,VWS V14.01,2013-02-24 10:30:00,
2013-02-24 04:31:00,0.7,-1.8,28.79,ENE,68,0.0,0.0,89,0.00,,---,0.00,VWS V14.01,2013-02-24 10:31:00,
2013-02-24 04:32:00,0.7,-1.8,28.79,ENE,68,0.0,0.0,89,0.00,,---,0.00,VWS V14.01,2013-02-24 10:32:00,
2013-02-24 04:33:00,0.7,-1.8,28.79,ENE,68,0.0,0.0,89,0.00,,---,0.00,VWS V14.01,2013-02-24 10:33:00,
2013-02-24 04:34:00,0.7,-1.8,28.79,ENE,68,0.0,0.0,89,0.00,,---,0.00,VWS V14.01,2013-02-24 10:34:00,
2013-02-24 04:35:00,0.7,-1.8,28.79,ENE,68,0.0,0.0,89,0.00,,---,0.00,VWS V14.01,2013-02-24 10:35:00,
2013-02-24 04:36:00,0.7,-1.8,28.79,ENE,68,0.0,0.0,89,0.00,,---,0.00,VWS V14.01,2013-02-24 10:36:00,
2013-02-24 04:37:00,0.7,-1.8,28.79,ENE,68,0.0,0.0,89,0.00,,---,0.00,VWS V14.01,2013-02-24 10:37:00,
2013-02-24 04:38:00,0.7,-1.8,28.79,ENE,68,0.0,0.0,89,0.00,,---,0.00,VWS V14.01,2013-02-24 10:38:00,
2013-02-24 04:39:00,0.7,-1.8,28.79,ENE,68,0.0,0.0,89,0.00,,---,0.00,VWS V14.01,2013-02-24 10:39:00,
2013-02-24 04:40:00,0.7,-1.8,28.79,ENE,68,0.0,0.0,89,0.00,,---,0.00,VWS V14.01,2013-02-24 10:40:00,
2013-02-24 04:41:00,0.5,-2.0,28.79,ENE,68,0.0,0.0,89,0.00,,---,0.00,VWS V14.01,2013-02-24 10:41:00,
2013-02-24 04:42:00,0.5,-2.0,28.79,ENE,68,0.0,0.0,89,0.00,,---,0.00,VWS V14.01,2013-02-24 10:42:00,
2013-02-24 04:43:00,0.5,-2.0,28.79,ENE,68,0.0,0.0,89,0.00,,---,0.00,VWS V14.01,2013-02-24 10:43:00,
2013-02-24 04:44:00,0.5,-2.0,28.79,ENE,68,0.0,0.0,89,0.00,,---,0.00,VWS V14.01,2013-02-24 10:44:00,
2013-02-24 04:45:00,0.5,-2.0,28.79,ENE,68,0.0,0.0,89,0.00,,---,0.00,VWS V14.01,2013-02-24 10:45:00,
2013-02-24 04:46:00,0.5,-2.0,28.79,ENE,68,0.0,0.0,89,0.00,,---,0.00,VWS V14.01,2013-02-24 10:46:00,
2013-02-24 04:47:00,0.5,-2.0,28.79,ENE,68,0.0,0.0,89,0.00,,---,0.00,VWS V14.01,2013-02-24 10:47:00,
2013-02-24 04:48:00,0.5,-2.0,28.79,ENE,68,0.0,0.0,89,0.00,,---,0.00,VWS V14.01,2013-02-24 10:48:00,
2013-02-24 04:49:00,0.5,-2.0,28.79,ENE,68,0.0,0.0,89,0.00,,---,0.00,VWS V14.01,2013-02-24 10:49:00,
2013-02-24 04:50:00,0.5,-2.0,28.79,ENE,68,0.0,0.0,89,0.00,,---,0.00,VWS V14.01,2013-02-24 10:50:00,
2013-02-24 04:51:00,0.3,-2.2,28.79,ENE,68,0.0,0.0,89,0.00,,---,0.00,VWS V14.01,2013-02-24 10:51:00,
2013-02-24 04:52:00,0.5,-2.0,28.79,ENE,68,0.0,0.0,89,0.00,,---,0.00,VWS V14.01,2013-02-24 10:52:00,
2013-02-24 04:53:00,0.5,-2.0,28.79,ENE,68,0.0,0.0,89,0.00,,---,0.00,VWS V14.01,2013-02-24 10:53:00,
2013-02-24 04:54:00,0.5,-2.0,28.79,ENE,68,0.0,0.0,89,0.00,,---,0.00,VWS V14.01,2013-02-24 10:54:00,
2013-02-24 04:55:00,0.3,-2.2,28.79,ENE,68,0.0,0.0,89,0.00,,---,0.00,VWS V14.01,2013-02-24 10:55:00,
2013-02-24 04:56:00,0.3,-2.2,28.79,ENE,68,0.0,0.0,89,0.00,,---,0.00,VWS V14.01,2013-02-24 10:56:00,
2013-02-24 04:57:00,0.3,-2.2,28.79,ENE,68,0.0,1.1,89,0.00,,---,0.00,VWS V14.01,2013-02-24 10:57:00,
2013-02-24 04:58:00,0.3,-2.2,28.79,ENE,68,0.0,0.0,89,0.00,,---,0.00,VWS V14.01,2013-02-24 10:58:00,
2013-02-24 04:59:00,0.3,-2.2,28.79,ENE,68,0.0,0.0,89,0.00,,---,0.00,VWS V14.01,2013-02-24 10:59:00,
2013-02-24 05:00:00,0.3,-2.2,28.79,ENE,68,0.0,1.1,89,0.00,,---,0.00,VWS V14.01,2013-02-24 11:00:00,
2013-02-24 05:01:00,0.3,-2.2,28.79,ENE,68,0.0,0.0,89,0.00,,---,0.00,VWS V14.01,2013-02-24 11:01:00,
2013-02-24 05:02:00,0.5,-2.0,28.79,ENE,68,0.0,0.0,89,0.00,,---,0.00,VWS V14.01,2013-02-24 11:02:00,
2013-02-24 05:03:00,0.3,-2.2,28.79,ENE,68,0.0,0.0,89,0.00,,---,0.00,VWS V14.01,2013-02-24 11:03:00,
2013-02-24 05:04:00,0.5,-2.0,28.79,ENE,68,0.0,0.0,89,0.00,,---,0.00,VWS V14.01,2013-02-24 11:04:00,
2013-02-24 05:05:00,0.5,-2.0,28.79,ENE,68,0.0,0.0,89,0.00,,---,0.00,VWS V14.01,2013-02-24 11:05:00,
2013-02-24 05:06:00,0.5,-2.0,28.79,ENE,68,0.0,0.0,89,0.00,,---,0.00,VWS V14.01,2013-02-24 11:06:00,
2013-02-24 05:07:00,0.5,-2.0,28.79,ENE,68,0.0,0.0,89,0.00,,---,0.00,VWS V14.01,2013-02-24 11:07:00,
2013-02-24 05:08:00,0.5,-2.0,28.79,ENE,68,0.0,0.0,89,0.00,,---,0.00,VWS V14.01,2013-02-24 11:08:00,
2013-02-24 05:09:00,0.5,-2.0,28.79,ENE,68,0.0,0.0,89,0.00,,---,0.00,VWS V14.01,2013-02-24 11:09:00,
2013-02-24 05:10:00,0.5,-2.0,28.79,ENE,68,0.0,0.0,89,0.00,,---,0.00,VWS V14.01,2013-02-24 11:10:00,
2013-02-24 05:11:00,0.5,-2.0,28.79,ENE,68,0.0,0.0,89,0.00,,---,0.00,VWS V14.01,2013-02-24 11:11:00,
2013-02-24 05:12:00,0.5,-2.0,28.79,ENE,68,0.0,0.0,89,0.00,,---,0.00,VWS V14.01,2013-02-24 11:12:00,
2013-02-24 05:13:00,0.5,-2.0,28.79,ENE,68,0.0,0.0,89,0.00,,---,0.00,VWS V14.01,2013-02-24 11:13:00,
2013-02-24 05:14:00,0.5,-2.0,28.79,ENE,68,0.0,0.0,89,0.00,,---,0.00,VWS V14.01,2013-02-24 11:14:00,
2013-02-24 05:15:00,0.5,-2.0,28.79,ENE,68,0.0,0.0,89,0.00,,---,0.00,VWS V14.01,2013-02-24 11:15:00,
2013-02-24 05:16:00,0.3,-2.2,28.82,NE,45,0.0,0.0,89,0.00,,---,0.00,VWS V14.01,2013-02-24 11:16:00,
2013-02-24 05:17:00,0.3,-2.2,28.79,ENE,68,0.0,0.0,89,0.00,,---,0.00,VWS V14.01,2013-02-24 11:17:00,
2013-02-24 05:18:00,0.3,-2.2,28.82,ENE,68,0.0,0.0,89,0.00,,---,0.00,VWS V14.01,2013-02-24 11:18:00,
2013-02-24 05:19:00,0.3,-2.2,28.82,ENE,68,0.0,0.0,89,0.00,,---,0.00,VWS V14.01,2013-02-24 11:19:00,
2013-02-24 05:20:00,0.3,-2.2,28.82,NE,45,0.0,0.0,89,0.00,,---,0.00,VWS V14.01,2013-02-24 11:20:00,
2013-02-24 05:21:00,0.3,-2.2,28.82,NE,45,0.0,0.0,89,0.00,,---,0.00,VWS V14.01,2013-02-24 11:21:00,
2013-02-24 05:22:00,0.3,-2.2,28.82,NE,45,0.0,0.0,89,0.00,,---,0.00,VWS V14.01,2013-02-24 11:22:00,
2013-02-24 05:23:00,0.3,-2.2,28.82,NE,45,0.0,0.0,89,0.00,,---,0.00,VWS V14.01,2013-02-24 11:23:00,
2013-02-24 05:24:00,0.3,-2.2,28.82,NE,45,0.0,0.0,89,0.00,,---,0.00,VWS V14.01,2013-02-24 11:24:00,
2013-02-24 05:25:00,0.3,-2.2,28.82,NE,45,0.0,0.0,89,0.00,,---,0.00,VWS V14.01,2013-02-24 11:25:00,
2013-02-24 05:26:00,0.5,-2.0,28.82,NE,45,0.0,0.0,89,0.00,,---,0.00,VWS V14.01,2013-02-24 11:26:00,
2013-02-24 05:27:00,0.5,-2.0,28.82,NE,45,0.0,0.0,89,0.00,,---,0.00,VWS V14.01,2013-02-24 11:27:00,
2013-02-24 05:28:00,0.5,-2.0,28.82,NE,45,0.0,0.0,89,0.00,,---,0.00,VWS V14.01,2013-02-24 11:28:00,
2013-02-24 05:29:00,0.5,-2.0,28.82,NE,45,0.0,0.0,89,0.00,,---,0.00,VWS V14.01,2013-02-24 11:29:00,
2013-02-24 05:30:00,0.5,-2.0,28.82,NE,45,0.0,0.0,89,0.00,,---,0.00,VWS V14.01,2013-02-24 11:30:00,
2013-02-24 05:31:00,0.1,-2.3,28.82,NE,45,0.0,0.0,89,0.00,,---,0.00,VWS V14.01,2013-02-24 11:31:00,
2013-02-24 05:32:00,0.7,-1.8,28.82,NE,45,0.0,0.0,89,0.00,,---,0.00,VWS V14.01,2013-02-24 11:32:00,
2013-02-24 05:33:00,0.7,-1.8,28.82,NE,45,0.0,0.0,89,0.00,,---,0.00,VWS V14.01,2013-02-24 11:33:00,
2013-02-24 05:34:00,0.7,-1.8,28.82,NE,45,0.0,0.0,89,0.00,,---,0.00,VWS V14.01,2013-02-24 11:34:00,
2013-02-24 05:35:00,0.7,-1.8,28.82,NE,45,0.0,0.0,89,0.00,,---,0.00,VWS V14.01,2013-02-24 11:35:00,
2013-02-24 05:36:00,0.7,-1.8,28.82,NE,45,0.0,0.0,89,0.00,,---,0.00,VWS V14.01,2013-02-24 11:36:00,
2013-02-24 05:37:00,0.5,-2.0,28.82,NE,45,0.0,0.0,89,0.00,,---,0.00,VWS V14.01,2013-02-24 11:37:00,
2013-02-24 05:38:00,0.7,-1.8,28.82,NE,45,0.0,0.0,89,0.00,,---,0.00,VWS V14.01,2013-02-24 11:38:00,
2013-02-24 05:39:00,0.5,-2.0,28.82,NE,45,0.0,0.0,89,0.00,,---,0.00,VWS V14.01,2013-02-24 11:39:00,
2013-02-24 05:40:00,0.5,-2.0,28.82,NE,45,0.0,0.0,89,0.00,,---,0.00,VWS V14.01,2013-02-24 11:40:00,
2013-02-24 05:41:00,0.5,-2.0,28.82,NE,45,0.0,0.0,89,0.00,,---,0.00,VWS V14.01,2013-02-24 11:41:00,
2013-02-24 05:42:00,0.5,-2.0,28.82,NE,45,0.0,0.0,89,0.00,,---,0.00,VWS V14.01,2013-02-24 11:42:00,
2013-02-24 05:43:00,0.5,-2.0,28.82,NE,45,0.0,0.0,89,0.00,,---,0.00,VWS V14.01,2013-02-24 11:43:00,
2013-02-24 05:44:00,0.5,-2.0,28.82,NE,45,0.0,0.0,89,0.00,,---,0.00,VWS V14.01,2013-02-24 11:44:00,
2013-02-24 05:45:00,0.5,-2.0,28.82,NE,45,0.0,0.0,89,0.00,,---,0.00,VWS V14.01,2013-02-24 11:45:00,
2013-02-24 05:46:00,0.5,-2.0,28.82,NE,45,0.0,0.0,89,0.00,,---,0.00,VWS V14.01,2013-02-24 11:46:00,
2013-02-24 05:47:00,0.5,-2.0,28.82,NE,45,0.0,0.0,89,0.00,,---,0.00,VWS V14.01,2013-02-24 11:47:00,
2013-02-24 05:48:00,0.5,-2.0,28.82,NE,45,0.0,0.0,89,0.00,,---,0.00,VWS V14.01,2013-02-24 11:48:00,
2013-02-24 05:49:00,0.5,-2.0,28.82,NE,45,0.0,0.0,89,0.00,,---,0.00,VWS V14.01,2013-02-24 11:49:00,
2013-02-24 05:50:00,0.5,-2.0,28.82,NE,45,0.0,0.0,89,0.00,,---,0.00,VWS V14.01,2013-02-24 11:50:00,
2013-02-24 05:51:00,0.5,-2.0,28.82,NE,45,0.0,0.0,89,0.00,,---,0.00,VWS V14.01,2013-02-24 11:51:00,
2013-02-24 05:52:00,0.3,-2.2,28.82,NE,45,0.0,0.0,89,0.00,,---,0.00,VWS V14.01,2013-02-24 11:52:00,
2013-02-24 05:53:00,0.3,-2.2,28.82,NE,45,0.0,0.0,89,0.00,,---,0.00,VWS V14.01,2013-02-24 11:53:00,
2013-02-24 05:54:00,0.3,-2.2,28.82,NE,45,0.0,0.0,89,0.00,,---,0.00,VWS V14.01,2013-02-24 11:54:00,
2013-02-24 05:55:00,0.3,-2.2,28.82,NE,45,0.0,0.0,89,0.00,,---,0.00,VWS V14.01,2013-02-24 11:55:00,
2013-02-24 05:56:00,0.5,-2.0,28.82,NE,45,0.0,0.0,89,0.00,,---,0.00,VWS V14.01,2013-02-24 11:56:00,
2013-02-24 05:57:00,0.3,-2.2,28.82,NE,45,0.0,0.0,89,0.00,,---,0.00,VWS V14.01,2013-02-24 11:57:00,
2013-02-24 05:58:00,0.3,-2.2,28.82,NE,45,0.0,0.0,89,0.00,,---,0.00,VWS V14.01,2013-02-24 11:58:00,
2013-02-24 05:59:00,0.3,-2.2,28.82,NE,45,0.0,0.0,89,0.00,,---,0.00,VWS V14.01,2013-02-24 11:59:00,
2013-02-24 06:00:00,0.3,-2.2,28.82,NE,45,0.0,0.0,89,0.00,,---,0.00,VWS V14.01,2013-02-24 12:00:00,
2013-02-24 06:01:00,0.3,-2.2,28.82,NE,45,0.0,0.0,89,0.00,,---,0.00,VWS V14.01,2013-02-24 12:01:00,
2013-02-24 06:02:00,0.3,-2.2,28.82,NE,45,0.0,0.0,89,0.00,,---,0.00,VWS V14.01,2013-02-24 12:02:00,
2013-02-24 06:03:00,0.3,-2.2,28.82,NE,45,0.0,0.0,89,0.00,,---,0.00,VWS V14.01,2013-02-24 12:03:00,
2013-02-24 06:04:00,0.3,-2.2,28.82,NE,45,0.0,0.0,89,0.00,,---,0.00,VWS V14.01,2013-02-24 12:04:00,
2013-02-24 06:05:00,0.3,-2.2,28.82,NE,45,0.0,0.0,89,0.00,,---,0.00,VWS V14.01,2013-02-24 12:05:00,
2013-02-24 06:06:00,0.3,-2.2,28.82,NE,45,0.0,0.0,89,0.00,,---,0.00,VWS V14.01,2013-02-24 12:06:00,
2013-02-24 06:07:00,0.1,-2.3,28.82,NE,45,0.0,0.0,89,0.00,,---,0.00,VWS V14.01,2013-02-24 12:07:00,
2013-02-24 06:08:00,0.1,-2.3,28.82,NE,45,0.0,0.0,89,0.00,,---,0.00,VWS V14.01,2013-02-24 12:08:00,
2013-02-24 06:09:00,0.1,-2.3,28.82,NE,45,0.0,0.0,89,0.00,,---,0.00,VWS V14.01,2013-02-24 12:09:00,
2013-02-24 06:10:00,0.1,-2.3,28.82,NE,45,0.0,0.0,89,0.00,,---,0.00,VWS V14.01,2013-02-24 12:10:00,
2013-02-24 06:11:00,0.1,-2.3,28.82,NE,45,0.0,0.0,89,0.00,,---,0.00,VWS V14.01,2013-02-24 12:11:00,
2013-02-24 06:12:00,0.3,-2.2,28.82,NE,45,0.0,0.0,89,0.00,,---,0.00,VWS V14.01,2013-02-24 12:12:00,
2013-02-24 06:13:00,0.3,-2.2,28.82,NE,45,0.0,0.0,89,0.00,,---,0.00,VWS V14.01,2013-02-24 12:13:00,
2013-02-24 06:14:00,0.3,-2.2,28.82,NE,45,0.0,0.0,89,0.00,,---,0.00,VWS V14.01,2013-02-24 12:14:00,
2013-02-24 06:15:00,0.3,-2.2,28.82,NE,45,0.0,0.0,89,0.00,,---,0.00,VWS V14.01,2013-02-24 12:15:00,
2013-02-24 06:16:00,0.1,-2.3,28.82,NE,45,0.0,0.0,89,0.00,,---,0.00,VWS V14.01,2013-02-24 12:16:00,
2013-02-24 06:17:00,0.1,-2.3,28.82,NE,45,0.0,0.0,89,0.00,,---,0.00,VWS V14.01,2013-02-24 12:17:00,
2013-02-24 06:18:00,0.1,-2.3,28.82,NE,45,0.0,0.0,89,0.00,,---,0.00,VWS V14.01,2013-02-24 12:18:00,
2013-02-24 06:19:00,0.1,-2.3,28.82,NE,45,0.0,0.0,89,0.00,,---,0.00,VWS V14.01,2013-02-24 12:19:00,
2013-02-24 06:20:00,0.1,-2.3,28.82,NE,45,0.0,0.0,89,0.00,,---,0.00,VWS V14.01,2013-02-24 12:20:00,
2013-02-24 06:21:00,0.1,-2.3,28.82,NE,45,0.0,0.0,89,0.00,,---,0.00,VWS V14.01,2013-02-24 12:21:00,
2013-02-24 06:22:00,0.1,-2.3,28.82,NE,45,0.0,0.0,89,0.00,,---,0.00,VWS V14.01,2013-02-24 12:22:00,
2013-02-24 06:23:00,0.1,-2.3,28.82,NE,45,0.0,0.0,89,0.00,,---,0.00,VWS V14.01,2013-02-24 12:23:00,
2013-02-24 06:24:00,0.1,-2.3,28.82,NE,45,0.0,0.0,89,0.00,,---,0.00,VWS V14.01,2013-02-24 12:24:00,
2013-02-24 06:25:00,0.1,-2.3,28.82,NE,45,0.0,0.0,89,0.00,,---,0.00,VWS V14.01,2013-02-24 12:25:00,
2013-02-24 06:26:00,0.1,-2.3,28.82,NE,45,0.0,0.0,89,0.00,,---,0.00,VWS V14.01,2013-02-24 12:26:00,
2013-02-24 06:27:00,0.1,-2.3,28.82,NE,45,0.0,0.0,89,0.00,,---,0.00,VWS V14.01,2013-02-24 12:27:00,
2013-02-24 06:28:00,0.1,-2.3,28.82,NE,45,0.0,0.0,89,0.00,,---,0.00,VWS V14.01,2013-02-24 12:28:00,
2013-02-24 06:29:00,0.1,-2.3,28.82,NE,45,0.0,0.0,89,0.00,,---,0.00,VWS V14.01,2013-02-24 12:29:00,
2013-02-24 06:30:00,0.1,-2.3,28.82,NE,45,0.0,0.0,89,0.00,,---,0.00,VWS V14.01,2013-02-24 12:30:00,
2013-02-24 06:31:00,0.1,-2.3,28.82,NE,45,0.0,0.0,89,0.00,,---,0.00,VWS V14.01,2013-02-24 12:31:00,
2013-02-24 06:32:00,0.3,-2.2,28.82,NE,45,0.0,0.0,89,0.00,,---,0.00,VWS V14.01,2013-02-24 12:32:00,
2013-02-24 06:33:00,0.1,-2.3,28.82,NE,45,0.0,0.0,89,0.00,,---,0.00,VWS V14.01,2013-02-24 12:33:00,
2013-02-24 06:34:00,0.3,-2.2,28.82,NE,45,0.0,0.0,89,0.00,,---,0.00,VWS V14.01,2013-02-24 12:34:00,
2013-02-24 06:35:00,0.3,-2.2,28.82,NE,45,0.0,0.0,89,0.00,,---,0.00,VWS V14.01,2013-02-24 12:35:00,
2013-02-24 06:36:00,0.3,-2.2,28.82,NE,45,0.0,0.0,89,0.00,,---,0.00,VWS V14.01,2013-02-24 12:36:00,
2013-02-24 06:37:00,0.1,-2.3,28.82,NE,45,0.0,0.0,89,0.00,,---,0.00,VWS V14.01,2013-02-24 12:37:00,
2013-02-24 06:38:00,0.3,-2.2,28.82,NE,45,0.0,0.0,89,0.00,,---,0.00,VWS V14.01,2013-02-24 12:38:00,
2013-02-24 06:39:00,0.3,-2.2,28.82,NE,45,0.0,0.0,89,0.00,,---,0.00,VWS V14.01,2013-02-24 12:39:00,
2013-02-24 06:40:00,0.1,-2.3,28.82,NE,45,0.0,0.0,89,0.00,,---,0.00,VWS V14.01,2013-02-24 12:40:00,
2013-02-24 06:41:00,0.1,-2.3,28.82,NE,45,0.0,0.0,89,0.00,,---,0.00,VWS V14.01,2013-02-24 12:41:00,
2013-02-24 06:42:00,0.1,-2.3,28.82,NE,45,0.0,0.0,89,0.00,,---,0.00,VWS V14.01,2013-02-24 12:42:00,
2013-02-24 06:43:00,0.1,-2.3,28.82,NE,45,0.0,0.0,89,0.00,,---,0.00,VWS V14.01,2013-02-24 12:43:00,
2013-02-24 06:44:00,0.1,-2.3,28.82,NE,45,0.0,0.0,89,0.00,,---,0.00,VWS V14.01,2013-02-24 12:44:00,
2013-02-24 06:45:00,0.1,-2.3,28.82,NE,45,0.0,0.0,89,0.00,,---,0.00,VWS V14.01,2013-02-24 12:45:00,
2013-02-24 06:46:00,0.1,-2.3,28.82,NE,45,0.0,0.0,89,0.00,,---,0.00,VWS V14.01,2013-02-24 12:46:00,
2013-02-24 06:47:00,0.1,-2.3,28.82,NE,45,0.0,0.0,89,0.00,,---,0.00,VWS V14.01,2013-02-24 12:47:00,
2013-02-24 06:48:00,0.1,-2.3,28.82,NE,45,0.0,0.0,89,0.00,,---,0.00,VWS V14.01,2013-02-24 12:48:00,
2013-02-24 06:49:00,2.7,0.2,28.82,ENE,68,0.0,0.0,89,0.00,,---,0.00,VWS V14.01,2013-02-24 12:49:00,
2013-02-24 06:50:00,0.1,-2.3,28.82,NE,45,0.0,0.0,89,0.00,,---,0.00,VWS V14.01,2013-02-24 12:50:00,
2013-02-24 06:51:00,0.1,-2.3,28.82,NE,45,0.0,0.0,89,0.00,,---,0.00,VWS V14.01,2013-02-24 12:51:00,
2013-02-24 06:52:00,0.1,-2.3,28.82,ENE,68,0.9,1.1,89,0.00,,---,0.00,VWS V14.01,2013-02-24 12:52:00,
2013-02-24 06:53:00,0.1,-2.3,28.82,NE,45,0.9,0.9,89,0.00,,---,0.00,VWS V14.01,2013-02-24 12:53:00,
2013-02-24 06:54:00,0.1,-2.3,28.82,ENE,68,1.1,1.1,89,0.00,,---,0.00,VWS V14.01,2013-02-24 12:54:00,
2013-02-24 06:55:00,0.1,-2.3,28.82,ENE,68,0.9,1.1,89,0.00,,---,0.00,VWS V14.01,2013-02-24 12:55:00,
2013-02-24 06:56:00,0.1,-2.3,28.82,ENE,68,0.9,1.1,89,0.00,,---,0.00,VWS V14.01,2013-02-24 12:56:00,
2013-02-24 06:57:00,0.1,-2.3,28.82,East,90,1.1,1.1,89,0.00,,---,0.00,VWS V14.01,2013-02-24 12:57:00,
2013-02-24 06:58:00,0.1,-2.3,28.82,East,90,1.1,1.1,89,0.00,,---,0.00,VWS V14.01,2013-02-24 12:58:00,
2013-02-24 06:59:00,0.1,-2.3,28.82,East,90,1.1,1.1,89,0.00,,---,0.00,VWS V14.01,2013-02-24 12:59:00,
2013-02-24 07:00:00,0.1,-2.3,28.82,East,90,1.1,1.1,89,0.00,,---,0.00,VWS V14.01,2013-02-24 13:00:00,
2013-02-24 07:01:00,0.3,-2.2,28.82,ENE,68,0.0,1.1,89,0.00,,---,0.00,VWS V14.01,2013-02-24 13:01:00,
2013-02-24 07:02:00,0.3,-2.2,28.82,East,90,0.0,0.0,89,0.00,,---,0.00,VWS V14.01,2013-02-24 13:02:00,
2013-02-24 07:03:00,0.3,-2.2,28.82,ENE,68,0.9,0.9,89,0.00,,---,0.00,VWS V14.01,2013-02-24 13:03:00,
2013-02-24 07:04:00,0.3,-2.2,28.82,East,90,1.1,1.1,89,0.00,,---,0.00,VWS V14.01,2013-02-24 13:04:00,
2013-02-24 07:05:00,0.3,-2.2,28.82,East,90,0.0,1.1,89,0.00,,---,0.00,VWS V14.01,2013-02-24 13:05:00,
2013-02-24 07:06:00,0.3,-2.2,28.82,ENE,68,0.0,0.0,89,0.00,,---,0.00,VWS V14.01,2013-02-24 13:06:00,
2013-02-24 07:07:00,0.7,-1.8,28.82,ENE,68,0.0,0.0,89,0.00,,---,0.00,VWS V14.01,2013-02-24 13:07:00,
2013-02-24 07:08:00,0.5,-2.0,28.82,ENE,68,0.0,0.0,89,0.00,,---,0.00,VWS V14.01,2013-02-24 13:08:00,
2013-02-24 07:09:00,0.5,-2.0,28.82,ENE,68,0.0,0.0,89,0.00,,---,0.00,VWS V14.01,2013-02-24 13:09:00,
2013-02-24 07:10:00,0.7,-1.8,28.82,ENE,68,0.0,0.0,89,0.00,,---,0.00,VWS V14.01,2013-02-24 13:10:00,
2013-02-24 07:11:00,0.7,-1.8,28.82,ENE,68,0.0,0.0,89,0.00,,---,0.00,VWS V14.01,2013-02-24 13:11:00,
2013-02-24 07:12:00,0.7,-1.8,28.82,ENE,68,0.0,0.0,89,0.00,,---,0.00,VWS V14.01,2013-02-24 13:12:00,
2013-02-24 07:13:00,0.7,-1.8,28.82,ENE,68,0.0,0.0,89,0.00,,---,0.00,VWS V14.01,2013-02-24 13:13:00,
2013-02-24 07:14:00,0.7,-1.8,28.82,ENE,68,0.0,0.0,89,0.00,,---,0.00,VWS V14.01,2013-02-24 13:14:00,
2013-02-24 07:15:00,0.7,-1.8,28.82,ENE,68,0.0,0.0,89,0.00,,---,0.00,VWS V14.01,2013-02-24 13:15:00,
2013-02-24 07:16:00,0.7,-1.8,28.82,ENE,68,0.0,0.0,89,0.00,,---,0.00,VWS V14.01,2013-02-24 13:16:00,
2013-02-24 07:17:00,0.9,-1.6,28.82,ENE,68,0.0,0.0,89,0.00,,---,0.00,VWS V14.01,2013-02-24 13:17:00,
2013-02-24 07:18:00,0.9,-1.6,28.82,ENE,68,0.0,0.0,89,0.00,,---,0.00,VWS V14.01,2013-02-24 13:18:00,
2013-02-24 07:19:00,0.9,-1.6,28.82,ENE,68,0.0,0.0,89,0.00,,---,0.00,VWS V14.01,2013-02-24 13:19:00,
2013-02-24 07:20:00,0.9,-1.6,28.82,ENE,68,0.0,0.0,89,0.00,,---,0.00,VWS V14.01,2013-02-24 13:20:00,
2013-02-24 07:21:00,1.0,-1.4,28.82,ENE,68,0.0,0.0,89,0.00,,---,0.00,VWS V14.01,2013-02-24 13:21:00,
2013-02-24 07:22:00,1.2,-1.3,28.82,ENE,68,0.0,0.0,89,0.00,,---,0.00,VWS V14.01,2013-02-24 13:22:00,
2013-02-24 07:23:00,1.0,-1.4,28.82,ENE,68,0.0,0.0,89,0.00,,---,0.00,VWS V14.01,2013-02-24 13:23:00,
2013-02-24 07:24:00,1.2,-1.3,28.82,ENE,68,0.0,0.0,89,0.00,,---,0.00,VWS V14.01,2013-02-24 13:24:00,
2013-02-24 07:25:00,1.2,-1.3,28.82,ENE,68,0.0,0.0,89,0.00,,---,0.00,VWS V14.01,2013-02-24 13:25:00,
2013-02-24 07:26:00,1.2,-1.3,28.82,ENE,68,0.0,0.0,89,0.00,,---,0.00,VWS V14.01,2013-02-24 13:26:00,
2013-02-24 07:27:00,1.6,-0.9,28.82,ENE,68,0.0,0.0,89,0.00,,---,0.00,VWS V14.01,2013-02-24 13:27:00,
2013-02-24 07:28:00,1.4,-1.1,28.82,ENE,68,0.0,0.0,89,0.00,,---,0.00,VWS V14.01,2013-02-24 13:28:00,
2013-02-24 07:29:00,1.4,-1.1,28.82,ENE,68,0.0,0.0,89,0.00,,---,0.00,VWS V14.01,2013-02-24 13:29:00,
2013-02-24 07:30:00,1.6,-0.9,28.82,ENE,68,0.0,0.0,89,0.00,,---,0.00,VWS V14.01,2013-02-24 13:30:00,
2013-02-24 07:31:00,1.6,-0.9,28.82,ENE,68,0.0,0.0,89,0.00,,---,0.00,VWS V14.01,2013-02-24 13:31:00,
2013-02-24 07:32:00,1.6,-0.9,28.82,ENE,68,0.0,0.0,89,0.00,,---,0.00,VWS V14.01,2013-02-24 13:32:00,
2013-02-24 07:33:00,6.3,3.7,28.85,WNW,292,0.0,0.0,89,0.00,,---,0.00,VWS V14.01,2013-02-24 13:33:00,
2013-02-24 07:34:00,1.6,-0.9,28.82,ENE,68,0.0,0.0,89,0.00,,---,0.00,VWS V14.01,2013-02-24 13:34:00,
2013-02-24 07:35:00,1.6,-0.9,28.82,ENE,68,0.0,0.0,89,0.00,,---,0.00,VWS V14.01,2013-02-24 13:35:00,
2013-02-24 07:36:00,1.9,-0.6,28.82,ENE,68,0.0,0.0,89,0.00,,---,0.00,VWS V14.01,2013-02-24 13:36:00,
2013-02-24 07:37:00,2.3,-0.2,28.82,ENE,68,0.0,0.0,89,0.00,,---,0.00,VWS V14.01,2013-02-24 13:37:00,
2013-02-24 07:38:00,1.9,-0.6,28.82,ENE,68,0.0,0.0,89,0.00,,---,0.00,VWS V14.01,2013-02-24 13:38:00,
2013-02-24 07:39:00,1.9,-0.6,28.82,ENE,68,0.0,0.0,89,0.00,,---,0.00,VWS V14.01,2013-02-24 13:39:00,
2013-02-24 07:40:00,2.3,-0.2,28.82,ENE,68,0.0,0.0,89,0.00,,---,0.00,VWS V14.01,2013-02-24 13:40:00,
2013-02-24 07:41:00,7.2,4.6,28.85,East,90,0.0,1.1,89,0.00,,---,0.00,VWS V14.01,2013-02-24 13:41:00,
2013-02-24 07:42:00,2.7,0.2,28.82,ENE,68,0.0,0.0,89,0.00,,---,0.00,VWS V14.01,2013-02-24 13:42:00,
2013-02-24 07:43:00,2.5,0.0,28.82,ENE,68,0.0,0.0,89,0.00,,---,0.00,VWS V14.01,2013-02-24 13:43:00,
2013-02-24 07:44:00,2.5,0.0,28.82,ENE,68,0.0,0.0,89,0.00,,---,0.00,VWS V14.01,2013-02-24 13:44:00,
2013-02-24 07:45:00,2.7,0.2,28.82,ENE,68,0.0,0.0,89,0.00,,---,0.00,VWS V14.01,2013-02-24 13:45:00,
2013-02-24 07:46:00,2.7,0.2,28.82,ENE,68,0.0,0.0,89,0.00,,---,0.00,VWS V14.01,2013-02-24 13:46:00,
2013-02-24 07:47:00,3.0,0.5,28.82,ENE,68,0.0,0.0,89,0.00,,---,0.00,VWS V14.01,2013-02-24 13:47:00,
2013-02-24 07:48:00,7.9,5.3,28.85,ENE,68,0.0,0.0,89,0.00,,---,0.00,VWS V14.01,2013-02-24 13:48:00,
2013-02-24 07:49:00,2.7,0.2,28.82,ENE,68,0.0,0.0,89,0.00,,---,0.00,VWS V14.01,2013-02-24 13:49:00,
2013-02-24 07:50:00,3.0,0.5,28.82,ENE,68,0.0,0.0,89,0.00,,---,0.00,VWS V14.01,2013-02-24 13:50:00,
2013-02-24 07:51:00,3.0,0.5,28.82,ENE,68,0.0,0.0,89,0.00,,---,0.00,VWS V14.01,2013-02-24 13:51:00,
2013-02-24 07:52:00,3.2,0.7,28.82,NE,45,0.0,0.0,89,0.00,,---,0.00,VWS V14.01,2013-02-24 13:52:00,
2013-02-24 07:53:00,3.2,0.7,28.82,ENE,68,0.0,0.0,89,0.00,,---,0.00,VWS V14.01,2013-02-24 13:53:00,
2013-02-24 07:54:00,3.2,0.7,28.82,ENE,68,0.0,0.0,89,0.00,,---,0.00,VWS V14.01,2013-02-24 13:54:00,
2013-02-24 07:55:00,3.2,0.7,28.82,NE,45,0.0,0.0,89,0.00,,---,0.00,VWS V14.01,2013-02-24 13:55:00,
2013-02-24 07:56:00,3.2,0.7,28.82,NNW,338,0.0,0.0,89,0.00,,---,0.00,VWS V14.01,2013-02-24 13:56:00,
2013-02-24 07:57:00,3.7,1.2,28.82,NNW,338,0.0,0.0,89,0.00,,---,0.00,VWS V14.01,2013-02-24 13:57:00,
2013-02-24 07:58:00,8.4,5.8,28.85,ENE,68,0.0,0.0,89,0.00,,---,0.00,VWS V14.01,2013-02-24 13:58:00,
2013-02-24 07:59:00,3.7,1.2,28.82,NNW,338,0.0,0.0,89,0.00,,---,0.00,VWS V14.01,2013-02-24 13:59:00,
2013-02-24 08:00:00,3.7,1.2,28.82,NNW,338,0.0,0.0,89,0.00,,---,0.00,VWS V14.01,2013-02-24 14:00:00,
2013-02-24 08:01:00,3.7,1.2,28.82,NNW,338,0.0,0.0,89,0.00,,---,0.00,VWS V14.01,2013-02-24 14:01:00,
2013-02-24 08:02:00,4.1,1.6,28.82,WNW,292,0.0,0.0,89,0.00,,---,0.00,VWS V14.01,2013-02-24 14:02:00,
2013-02-24 08:03:00,8.4,5.8,28.85,ENE,68,0.0,0.0,89,0.00,,---,0.00,VWS V14.01,2013-02-24 14:03:00,
2013-02-24 08:04:00,3.7,1.2,28.82,NNW,338,0.0,0.0,89,0.00,,---,0.00,VWS V14.01,2013-02-24 14:04:00,
2013-02-24 08:05:00,4.1,1.6,28.82,WNW,292,0.0,0.0,89,0.00,,---,0.00,VWS V14.01,2013-02-24 14:05:00,
2013-02-24 08:06:00,4.1,1.6,28.82,WNW,292,0.0,0.0,89,0.00,,---,0.00,VWS V14.01,2013-02-24 14:06:00,
2013-02-24 08:07:00,4.1,1.6,28.82,WNW,292,0.0,0.0,89,0.00,,---,0.00,VWS V14.01,2013-02-24 14:07:00,
2013-02-24 08:08:00,4.1,1.6,28.82,WNW,292,0.0,0.0,89,0.00,,---,0.00,VWS V14.01,2013-02-24 14:08:00,
2013-02-24 08:09:00,4.1,1.6,28.82,WNW,292,0.0,0.0,89,0.00,,---,0.00,VWS V14.01,2013-02-24 14:09:00,
2013-02-24 08:10:00,4.1,1.6,28.82,WNW,292,0.0,0.0,89,0.00,,---,0.00,VWS V14.01,2013-02-24 14:10:00,
2013-02-24 08:11:00,4.1,1.6,28.82,WNW,292,0.0,0.0,89,0.00,,---,0.00,VWS V14.01,2013-02-24 14:11:00,
2013-02-24 08:12:00,4.8,2.3,28.82,WNW,292,0.0,0.0,89,0.00,,---,0.00,VWS V14.01,2013-02-24 14:12:00,
2013-02-24 08:13:00,4.1,1.6,28.82,WNW,292,0.0,0.0,89,0.00,,---,0.00,VWS V14.01,2013-02-24 14:13:00,
2013-02-24 08:14:00,4.5,1.9,28.82,WNW,292,0.0,0.0,89,0.00,,---,0.00,VWS V14.01,2013-02-24 14:14:00,
2013-02-24 08:15:00,4.8,2.3,28.82,WNW,292,0.0,0.0,89,0.00,,---,0.00,VWS V14.01,2013-02-24 14:15:00,
2013-02-24 08:16:00,9.1,6.6,28.85,ENE,68,0.0,0.0,89,0.00,,---,0.00,VWS V14.01,2013-02-24 14:16:00,
2013-02-24 08:17:00,5.0,2.5,28.85,WNW,292,0.0,0.0,89,0.00,,---,0.00,VWS V14.01,2013-02-24 14:17:00,
2013-02-24 08:18:00,5.0,2.5,28.85,WNW,292,0.0,0.0,89,0.00,,---,0.00,VWS V14.01,2013-02-24 14:18:00,
2013-02-24 08:19:00,5.0,2.5,28.85,WNW,292,0.0,0.0,89,0.00,,---,0.00,VWS V14.01,2013-02-24 14:19:00,
2013-02-24 08:20:00,9.5,6.9,28.82,ENE,68,0.0,0.0,89,0.00,,---,0.00,VWS V14.01,2013-02-24 14:20:00,
2013-02-24 08:21:00,5.0,2.5,28.85,WNW,292,0.0,0.0,89,0.00,,---,0.00,VWS V14.01,2013-02-24 14:21:00,
2013-02-24 08:22:00,5.4,2.8,28.85,WNW,292,0.0,0.0,89,0.00,,---,0.00,VWS V14.01,2013-02-24 14:22:00,
2013-02-24 08:23:00,5.4,2.8,28.85,WNW,292,0.0,0.0,89,0.00,,---,0.00,VWS V14.01,2013-02-24 14:23:00,
2013-02-24 08:24:00,5.4,2.8,28.85,WNW,292,0.0,0.0,89,0.00,,---,0.00,VWS V14.01,2013-02-24 14:24:00,
2013-02-24 08:25:00,5.4,2.8,28.85,WNW,292,0.0,0.0,89,0.00,,---,0.00,VWS V14.01,2013-02-24 14:25:00,
2013-02-24 08:26:00,5.7,3.2,28.85,WNW,292,0.0,0.0,89,0.00,,---,0.00,VWS V14.01,2013-02-24 14:26:00,
2013-02-24 08:27:00,6.1,3.5,28.85,WNW,292,0.0,0.0,89,0.00,,---,0.00,VWS V14.01,2013-02-24 14:27:00,
2013-02-24 08:28:00,5.9,3.4,28.85,WNW,292,0.0,0.0,89,0.00,,---,0.00,VWS V14.01,2013-02-24 14:28:00,
2013-02-24 08:29:00,5.9,3.4,28.85,WNW,292,0.0,0.0,89,0.00,,---,0.00,VWS V14.01,2013-02-24 14:29:00,
2013-02-24 08:30:00,5.9,3.4,28.85,WNW,292,0.0,0.0,89,0.00,,---,0.00,VWS V14.01,2013-02-24 14:30:00,
2013-02-24 08:31:00,6.1,3.5,28.85,WNW,292,0.0,0.0,89,0.00,,---,0.00,VWS V14.01,2013-02-24 14:31:00,
2013-02-24 08:32:00,6.3,3.7,28.85,WNW,292,0.0,0.0,89,0.00,,---,0.00,VWS V14.01,2013-02-24 14:32:00,
2013-02-24 08:33:00,6.3,3.7,28.85,WNW,292,0.0,0.0,89,0.00,,---,0.00,VWS V14.01,2013-02-24 14:33:00,
2013-02-24 08:34:00,6.3,3.7,28.85,WNW,292,0.0,0.0,89,0.00,,---,0.00,VWS V14.01,2013-02-24 14:34:00,
2013-02-24 08:35:00,6.3,3.7,28.85,WNW,292,0.0,0.0,89,0.00,,---,0.00,VWS V14.01,2013-02-24 14:35:00,
2013-02-24 08:36:00,6.4,3.9,28.85,WNW,292,0.0,0.0,89,0.00,,---,0.00,VWS V14.01,2013-02-24 14:36:00,
2013-02-24 08:37:00,7.0,4.4,28.85,East,90,0.0,1.1,89,0.00,,---,0.00,VWS V14.01,2013-02-24 14:37:00,
2013-02-24 08:38:00,6.6,4.1,28.85,ENE,68,0.0,0.0,89,0.00,,---,0.00,VWS V14.01,2013-02-24 14:38:00,
2013-02-24 08:39:00,6.8,4.2,28.85,East,90,0.9,0.9,89,0.00,,---,0.00,VWS V14.01,2013-02-24 14:39:00,
2013-02-24 08:40:00,7.0,4.4,28.85,East,90,1.1,1.1,89,0.00,,---,0.00,VWS V14.01,2013-02-24 14:40:00,
2013-02-24 08:41:00,7.2,4.6,28.85,East,90,0.0,1.1,89,0.00,,---,0.00,VWS V14.01,2013-02-24 14:41:00,
2013-02-24 08:42:00,7.7,5.1,28.85,ENE,68,0.0,0.0,89,0.00,,---,0.00,VWS V14.01,2013-02-24 14:42:00,
2013-02-24 08:43:00,7.3,4.8,28.85,ENE,68,0.0,0.9,89,0.00,,---,0.00,VWS V14.01,2013-02-24 14:43:00,
2013-02-24 08:44:00,7.5,5.0,28.85,ENE,68,0.0,0.0,89,0.00,,---,0.00,VWS V14.01,2013-02-24 14:44:00,
2013-02-24 08:45:00,7.5,5.0,28.85,ENE,68,0.0,0.0,89,0.00,,---,0.00,VWS V14.01,2013-02-24 14:45:00,
2013-02-24 08:46:00,7.7,5.1,28.85,ENE,68,0.0,0.0,89,0.00,,---,0.00,VWS V14.01,2013-02-24 14:46:00,
2013-02-24 08:47:00,7.9,5.3,28.85,ENE,68,0.0,0.0,89,0.00,,---,0.00,VWS V14.01,2013-02-24 14:47:00,
2013-02-24 08:48:00,7.9,5.3,28.85,ENE,68,0.0,0.0,89,0.00,,---,0.00,VWS V14.01,2013-02-24 14:48:00,
2013-02-24 08:49:00,7.9,5.3,28.85,ENE,68,0.0,0.0,89,0.00,,---,0.00,VWS V14.01,2013-02-24 14:49:00,
2013-02-24 08:50:00,7.9,5.3,28.85,ENE,68,0.0,0.0,89,0.00,,---,0.00,VWS V14.01,2013-02-24 14:50:00,
2013-02-24 08:51:00,7.9,5.3,28.85,ENE,68,0.0,0.0,89,0.00,,---,0.00,VWS V14.01,2013-02-24 14:51:00,
2013-02-24 08:52:00,8.4,5.8,28.85,ENE,68,0.0,0.0,89,0.00,,---,0.00,VWS V14.01,2013-02-24 14:52:00,
2013-02-24 08:53:00,8.1,5.5,28.85,ENE,68,0.0,0.0,89,0.00,,---,0.00,VWS V14.01,2013-02-24 14:53:00,
2013-02-24 08:54:00,8.2,5.7,28.85,ENE,68,0.0,0.0,89,0.00,,---,0.00,VWS V14.01,2013-02-24 14:54:00,
2013-02-24 08:55:00,8.2,5.7,28.85,ENE,68,0.0,0.0,89,0.00,,---,0.00,VWS V14.01,2013-02-24 14:55:00,
2013-02-24 08:56:00,8.4,5.8,28.85,ENE,68,0.0,0.0,89,0.00,,---,0.00,VWS V14.01,2013-02-24 14:56:00,
2013-02-24 08:57:00,8.4,5.8,28.85,ENE,68,0.0,0.0,89,0.00,,---,0.00,VWS V14.01,2013-02-24 14:57:00,
2013-02-24 08:58:00,8.4,5.8,28.85,ENE,68,0.0,0.0,89,0.00,,---,0.00,VWS V14.01,2013-02-24 14:58:00,
2013-02-24 08:59:00,8.6,6.0,28.85,ENE,68,0.0,0.0,89,0.00,,---,0.00,VWS V14.01,2013-02-24 14:59:00,
2013-02-24 09:00:00,8.4,5.8,28.85,ENE,68,0.0,0.0,89,0.00,,---,0.00,VWS V14.01,2013-02-24 15:00:00,
2013-02-24 09:01:00,8.4,5.8,28.85,ENE,68,0.0,0.0,89,0.00,,---,0.00,VWS V14.01,2013-02-24 15:01:00,
2013-02-24 09:02:00,8.4,5.8,28.85,ENE,68,0.0,0.0,89,0.00,,---,0.00,VWS V14.01,2013-02-24 15:02:00,
2013-02-24 09:03:00,8.4,5.8,28.85,ENE,68,0.0,0.0,89,0.00,,---,0.00,VWS V14.01,2013-02-24 15:03:00,
2013-02-24 09:04:00,8.4,5.8,28.85,ENE,68,0.0,0.0,89,0.00,,---,0.00,VWS V14.01,2013-02-24 15:04:00,
2013-02-24 09:05:00,8.4,5.8,28.85,ENE,68,0.0,0.0,89,0.00,,---,0.00,VWS V14.01,2013-02-24 15:05:00,
2013-02-24 09:06:00,8.4,5.8,28.85,ENE,68,0.0,0.0,89,0.00,,---,0.00,VWS V14.01,2013-02-24 15:06:00,
2013-02-24 09:07:00,9.0,6.4,28.85,ENE,68,0.0,0.0,89,0.00,,---,0.00,VWS V14.01,2013-02-24 15:07:00,
2013-02-24 09:08:00,8.6,6.0,28.85,ENE,68,0.0,0.0,89,0.00,,---,0.00,VWS V14.01,2013-02-24 15:08:00,
2013-02-24 09:09:00,8.6,6.0,28.85,ENE,68,0.0,0.0,89,0.00,,---,0.00,VWS V14.01,2013-02-24 15:09:00,
2013-02-24 09:10:00,8.8,6.2,28.85,ENE,68,0.0,0.0,89,0.00,,---,0.00,VWS V14.01,2013-02-24 15:10:00,
2013-02-24 09:11:00,9.1,6.6,28.85,ENE,68,0.0,0.0,89,0.00,,---,0.00,VWS V14.01,2013-02-24 15:11:00,
2013-02-24 09:12:00,9.1,6.6,28.85,ENE,68,0.0,0.0,89,0.00,,---,0.00,VWS V14.01,2013-02-24 15:12:00,
2013-02-24 09:13:00,9.3,6.7,28.85,ENE,68,0.0,0.0,89,0.00,,---,0.00,VWS V14.01,2013-02-24 15:13:00,
2013-02-24 09:14:00,9.3,6.7,28.85,ENE,68,0.0,0.0,89,0.00,,---,0.00,VWS V14.01,2013-02-24 15:14:00,
2013-02-24 09:15:00,9.3,6.7,28.85,ENE,68,0.0,0.0,89,0.00,,---,0.00,VWS V14.01,2013-02-24 15:15:00,
2013-02-24 09:16:00,9.1,6.6,28.85,ENE,68,0.0,0.0,89,0.00,,---,0.00,VWS V14.01,2013-02-24 15:16:00,
2013-02-24 09:17:00,9.7,7.1,28.82,ENE,68,0.0,0.0,89,0.00,,---,0.00,VWS V14.01,2013-02-24 15:17:00,
2013-02-24 09:18:00,9.3,6.7,28.82,ENE,68,0.0,0.0,89,0.00,,---,0.00,VWS V14.01,2013-02-24 15:18:00,
2013-02-24 09:19:00,9.5,6.9,28.82,ENE,68,0.0,0.0,89,0.00,,---,0.00,VWS V14.01,2013-02-24 15:19:00,
2013-02-24 09:20:00,9.5,6.9,28.82,ENE,68,0.0,0.0,89,0.00,,---,0.00,VWS V14.01,2013-02-24 15:20:00,
2013-02-24 09:21:00,9.7,7.1,28.82,ENE,68,0.0,0.0,89,0.00,,---,0.00,VWS V14.01,2013-02-24 15:21:00,
2013-02-24 09:22:00,10.0,7.4,28.82,ENE,68,0.0,0.0,89,0.00,,---,0.00,VWS V14.01,2013-02-24 15:22:00,
2013-02-24 09:23:00,9.7,7.1,28.82,ENE,68,0.0,0.0,89,0.00,,---,0.00,VWS V14.01,2013-02-24 15:23:00,
2013-02-24 09:24:00,9.9,7.3,28.82,ENE,68,0.0,0.0,89,0.00,,---,0.00,VWS V14.01,2013-02-24 15:24:00,
2013-02-24 09:25:00,10.0,7.4,28.82,ENE,68,0.0,0.0,89,0.00,,---,0.00,VWS V14.01,2013-02-24 15:25:00,
2013-02-24 09:26:00,10.0,7.4,28.82,ENE,68,0.0,0.0,89,0.00,,---,0.00,VWS V14.01,2013-02-24 15:26:00,
2013-02-24 09:27:00,10.8,8.2,28.82,ENE,68,0.0,0.0,89,0.00,,---,0.00,VWS V14.01,2013-02-24 15:27:00,
2013-02-24 09:28:00,10.4,7.8,28.82,ENE,68,0.0,0.0,89,0.00,,---,0.00,VWS V14.01,2013-02-24 15:28:00,
2013-02-24 09:29:00,10.4,7.8,28.82,ENE,68,0.0,0.0,89,0.00,,---,0.00,VWS V14.01,2013-02-24 15:29:00,
2013-02-24 09:30:00,10.6,8.0,28.82,ENE,68,0.0,0.0,89,0.00,,---,0.00,VWS V14.01,2013-02-24 15:30:00,
2013-02-24 09:31:00,10.8,8.2,28.82,ENE,68,0.0,0.0,89,0.00,,---,0.00,VWS V14.01,2013-02-24 15:31:00,
2013-02-24 09:32:00,11.3,8.7,28.85,ENE,68,0.0,0.0,89,0.00,,---,0.00,VWS V14.01,2013-02-24 15:32:00,
2013-02-24 09:33:00,10.9,8.3,28.85,ENE,68,0.0,0.0,89,0.00,,---,0.00,VWS V14.01,2013-02-24 15:33:00,
2013-02-24 09:34:00,11.1,8.5,28.85,ENE,68,0.0,0.0,89,0.00,,---,0.00,VWS V14.01,2013-02-24 15:34:00,
2013-02-24 09:35:00,11.3,8.7,28.85,ENE,68,0.0,0.0,89,0.00,,---,0.00,VWS V14.01,2013-02-24 15:35:00,
2013-02-24 09:36:00,11.3,8.7,28.85,ENE,68,0.0,0.0,89,0.00,,---,0.00,VWS V14.01,2013-02-24 15:36:00,
2013-02-24 09:37:00,12.2,9.6,28.85,NE,45,0.0,0.0,89,0.00,,---,0.00,VWS V14.01,2013-02-24 15:37:00,
2013-02-24 09:38:00,11.7,9.1,28.85,NE,45,0.0,0.0,89,0.00,,---,0.00,VWS V14.01,2013-02-24 15:38:00,
2013-02-24 09:39:00,11.7,9.1,28.85,NE,45,0.0,0.0,89,0.00,,---,0.00,VWS V14.01,2013-02-24 15:39:00,
2013-02-24 09:40:00,12.0,9.4,28.85,NE,45,0.0,0.0,89,0.00,,---,0.00,VWS V14.01,2013-02-24 15:40:00,
2013-02-24 09:41:00,12.2,9.6,28.85,NE,45,0.0,0.0,89,0.00,,---,0.00,VWS V14.01,2013-02-24 15:41:00,
2013-02-24 09:42:00,12.7,10.1,28.85,ENE,68,0.0,0.0,89,0.00,,---,0.00,VWS V14.01,2013-02-24 15:42:00,
2013-02-24 09:43:00,12.6,9.9,28.85,NE,45,0.0,0.0,89,0.00,,---,0.00,VWS V14.01,2013-02-24 15:43:00,
2013-02-24 09:44:00,12.7,10.1,28.85,NE,45,0.0,0.0,89,0.00,,---,0.00,VWS V14.01,2013-02-24 15:44:00,
2013-02-24 09:45:00,12.7,10.1,28.85,NE,45,0.0,0.9,89,0.00,,---,0.00,VWS V14.01,2013-02-24 15:45:00,
2013-02-24 09:46:00,12.7,10.1,28.85,ENE,68,0.0,0.0,89,0.00,,---,0.00,VWS V14.01,2013-02-24 15:46:00,
2013-02-24 09:47:00,13.6,11.0,28.85,ENE,68,0.0,0.0,89,0.00,,---,0.00,VWS V14.01,2013-02-24 15:47:00,
2013-02-24 09:48:00,13.1,10.5,28.85,ENE,68,0.0,0.0,89,0.00,,---,0.00,VWS V14.01,2013-02-24 15:48:00,
2013-02-24 09:49:00,13.3,10.6,28.85,ENE,68,0.0,0.0,89,0.00,,---,0.00,VWS V14.01,2013-02-24 15:49:00,
2013-02-24 09:50:00,13.5,10.8,28.85,ENE,68,0.0,0.0,89,0.00,,---,0.00,VWS V14.01,2013-02-24 15:50:00,
2013-02-24 09:51:00,13.6,11.0,28.85,ENE,68,0.0,0.0,89,0.00,,---,0.00,VWS V14.01,2013-02-24 15:51:00,
2013-02-24 09:52:00,13.5,10.8,28.85,ENE,68,0.0,0.0,89,0.00,,---,0.00,VWS V14.01,2013-02-24 15:52:00,
2013-02-24 09:53:00,14.2,9.7,28.85,ENE,68,0.0,0.0,82,0.00,,---,0.00,VWS V14.01,2013-02-24 15:53:00,
2013-02-24 09:54:00,13.8,11.2,28.85,ENE,68,0.0,0.0,89,0.00,,---,0.00,VWS V14.01,2013-02-24 15:54:00,
2013-02-24 09:55:00,14.0,9.5,28.85,ENE,68,0.0,0.0,82,0.00,,---,0.00,VWS V14.01,2013-02-24 15:55:00,
2013-02-24 09:56:00,14.4,10.1,28.85,ENE,68,0.0,0.0,83,0.00,,---,0.00,VWS V14.01,2013-02-24 15:56:00,
2013-02-24 09:57:00,14.4,10.1,28.85,North,0,0.0,0.0,83,0.00,,---,0.00,VWS V14.01,2013-02-24 15:57:00,
2013-02-24 09:58:00,14.9,10.7,28.85,North,0,0.0,0.0,83,0.00,,---,0.00,VWS V14.01,2013-02-24 15:58:00,
2013-02-24 09:59:00,14.5,10.3,28.85,NNW,338,0.0,0.0,83,0.00,,---,0.00,VWS V14.01,2013-02-24 15:59:00,
2013-02-24 10:00:00,14.9,10.7,28.85,NNW,338,0.0,0.0,83,0.00,,---,0.00,VWS V14.01,2013-02-24 16:00:00,
2013-02-24 10:01:00,14.9,10.7,28.85,North,0,0.0,0.0,83,0.00,,---,0.00,VWS V14.01,2013-02-24 16:01:00,
2013-02-24 10:02:00,14.7,10.5,28.85,North,0,0.0,0.0,83,0.00,,---,0.00,VWS V14.01,2013-02-24 16:02:00,
2013-02-24 10:03:00,15.3,11.0,28.85,ESE,112,0.0,0.0,83,0.00,,---,0.00,VWS V14.01,2013-02-24 16:03:00,
2013-02-24 10:04:00,15.1,10.6,28.85,North,0,0.0,0.0,82,0.00,,---,0.00,VWS V14.01,2013-02-24 16:04:00,
2013-02-24 10:05:00,15.3,11.0,28.85,ENE,68,0.0,0.0,83,0.00,,---,0.00,VWS V14.01,2013-02-24 16:05:00,
2013-02-24 10:06:00,15.3,11.0,28.85,ESE,112,0.0,0.0,83,0.00,,---,0.00,VWS V14.01,2013-02-24 16:06:00,
2013-02-24 10:07:00,15.1,10.9,28.85,SSW,202,0.0,0.0,83,0.00,,---,0.00,VWS V14.01,2013-02-24 16:07:00,
2013-02-24 10:08:00,15.1,10.9,28.85,SSW,202,0.0,0.0,83,0.00,,---,0.00,VWS V14.01,2013-02-24 16:08:00,
2013-02-24 10:09:00,15.1,10.9,28.85,SSW,202,0.0,0.0,83,0.00,,---,0.00,VWS V14.01,2013-02-24 16:09:00,
2013-02-24 10:10:00,15.1,10.9,28.85,SSW,202,0.0,0.0,83,0.00,,---,0.00,VWS V14.01,2013-02-24 16:10:00,
2013-02-24 10:11:00,15.1,10.9,28.85,SSW,202,0.0,0.0,83,0.00,,---,0.00,VWS V14.01,2013-02-24 16:11:00,
2013-02-24 10:12:00,15.1,10.9,28.85,SSW,202,0.0,0.0,83,0.00,,---,0.00,VWS V14.01,2013-02-24 16:12:00,
2013-02-24 10:13:00,15.1,10.6,28.85,SSW,202,0.0,0.0,82,0.00,,---,0.00,VWS V14.01,2013-02-24 16:13:00,
2013-02-24 10:14:00,14.9,10.4,28.85,SSW,202,0.0,0.0,82,0.00,,---,0.00,VWS V14.01,2013-02-24 16:14:00,
2013-02-24 10:15:00,14.9,10.4,28.85,SSW,202,0.0,0.0,82,0.00,,---,0.00,VWS V14.01,2013-02-24 16:15:00,
2013-02-24 10:16:00,15.1,10.6,28.85,SSW,202,0.0,0.0,82,0.00,,---,0.00,VWS V14.01,2013-02-24 16:16:00,
2013-02-24 10:17:00,15.1,10.6,28.85,SSW,202,0.0,0.0,82,0.00,,---,0.00,VWS V14.01,2013-02-24 16:17:00,
2013-02-24 10:18:00,16.5,12.3,28.85,WSW,248,0.0,0.0,83,0.00,,---,0.00,VWS V14.01,2013-02-24 16:18:00,
2013-02-24 10:19:00,15.8,11.6,28.85,SSW,202,0.0,0.0,83,0.00,,---,0.00,VWS V14.01,2013-02-24 16:19:00,
2013-02-24 10:20:00,16.2,11.9,28.85,SSW,202,0.0,0.0,83,0.00,,---,0.00,VWS V14.01,2013-02-24 16:20:00,
2013-02-24 10:21:00,16.5,12.3,28.85,WSW,248,0.0,0.0,83,0.00,,---,0.00,VWS V14.01,2013-02-24 16:21:00,
2013-02-24 10:22:00,16.7,12.7,28.85,WSW,248,0.0,0.0,84,0.00,,---,0.00,VWS V14.01,2013-02-24 16:22:00,
2013-02-24 10:23:00,17.8,14.0,28.85,WNW,292,0.0,1.1,85,0.00,,---,0.00,VWS V14.01,2013-02-24 16:23:00,
2013-02-24 10:24:00,17.1,13.3,28.85,WNW,292,0.9,1.3,85,0.00,,---,0.00,VWS V14.01,2013-02-24 16:24:00,
2013-02-24 10:25:00,17.2,13.5,28.85,WNW,292,1.1,1.3,85,0.00,,---,0.00,VWS V14.01,2013-02-24 16:25:00,
2013-02-24 10:26:00,17.8,14.1,28.85,WNW,292,1.1,1.1,85,0.00,,---,0.00,VWS V14.01,2013-02-24 16:26:00,
2013-02-24 10:27:00,18.1,14.4,28.85,WNW,292,1.1,1.1,85,0.00,,---,0.00,VWS V14.01,2013-02-24 16:27:00,
2013-02-24 10:28:00,18.7,15.2,28.85,WNW,292,0.0,0.0,86,0.00,,---,0.00,VWS V14.01,2013-02-24 16:28:00,
2013-02-24 10:29:00,18.3,14.8,28.85,WNW,292,1.3,1.3,86,0.00,,---,0.00,VWS V14.01,2013-02-24 16:29:00,
2013-02-24 10:30:00,18.5,15.0,28.85,WNW,292,0.0,1.3,86,0.00,,---,0.00,VWS V14.01,2013-02-24 16:30:00,
2013-02-24 10:31:00,18.7,15.2,28.85,WNW,292,0.0,0.0,86,0.00,,---,0.00,VWS V14.01,2013-02-24 16:31:00,
2013-02-24 10:32:00,18.9,15.1,28.85,NNW,338,0.0,1.3,85,0.00,,---,0.00,VWS V14.01,2013-02-24 16:32:00,
2013-02-24 10:33:00,19.4,15.1,28.85,WNW,292,0.0,0.0,83,0.00,,---,0.00,VWS V14.01,2013-02-24 16:33:00,
2013-02-24 10:34:00,19.4,15.4,28.85,NW,315,0.0,0.0,84,0.00,,---,0.00,VWS V14.01,2013-02-24 16:34:00,
2013-02-24 10:35:00,19.4,15.1,28.85,NNW,338,0.0,0.0,83,0.00,,---,0.00,VWS V14.01,2013-02-24 16:35:00,
2013-02-24 10:36:00,19.4,15.1,28.85,WNW,292,0.0,0.0,83,0.00,,---,0.00,VWS V14.01,2013-02-24 16:36:00,
2013-02-24 10:37:00,19.4,15.1,28.85,WNW,292,0.0,0.0,83,0.00,,---,0.00,VWS V14.01,2013-02-24 16:37:00,
2013-02-24 10:38:00,20.3,16.8,28.85,WNW,292,1.1,1.3,86,0.00,,---,0.00,VWS V14.01,2013-02-24 16:38:00,
2013-02-24 10:39:00,20.3,16.2,28.85,WNW,292,0.9,1.3,84,0.00,,---,0.00,VWS V14.01,2013-02-24 16:39:00,
2013-02-24 10:40:00,20.3,16.5,28.85,WNW,292,1.1,1.3,85,0.00,,---,0.00,VWS V14.01,2013-02-24 16:40:00,
2013-02-24 10:41:00,20.3,16.8,28.85,WNW,292,1.1,1.3,86,0.00,,---,0.00,VWS V14.01,2013-02-24 16:41:00,
2013-02-24 10:42:00,20.3,17.1,28.85,West,270,0.0,1.1,87,0.00,,---,0.00,VWS V14.01,2013-02-24 16:42:00,
2013-02-24 10:43:00,20.1,16.9,28.85,WSW,248,0.0,0.0,87,0.00,,---,0.00,VWS V14.01,2013-02-24 16:43:00,
2013-02-24 10:44:00,20.1,16.9,28.85,West,270,0.0,0.0,87,0.00,,---,0.00,VWS V14.01,2013-02-24 16:44:00,
2013-02-24 10:45:00,19.9,16.7,28.85,West,270,0.0,0.0,87,0.00,,---,0.00,VWS V14.01,2013-02-24 16:45:00,
2013-02-24 10:46:00,20.1,16.9,28.85,West,270,0.0,0.0,87,0.00,,---,0.00,VWS V14.01,2013-02-24 16:46:00,
2013-02-24 10:47:00,26.1,14.8,28.85,WNW,292,2.9,2.9,62,0.00,,---,0.00,VWS V14.01,2013-02-24 16:47:00,
2013-02-24 10:48:00,20.5,17.0,28.85,WNW,292,0.0,0.0,86,0.00,,---,0.00,VWS V14.01,2013-02-24 16:48:00,
2013-02-24 10:49:00,19.9,16.7,28.85,WSW,248,0.0,0.0,87,0.00,,---,0.00,VWS V14.01,2013-02-24 16:49:00,
2013-02-24 10:50:00,20.3,17.1,28.85,West,270,0.0,0.0,87,0.00,,---,0.00,VWS V14.01,2013-02-24 16:50:00,
2013-02-24 10:51:00,20.5,17.0,28.85,WNW,292,0.0,0.0,86,0.00,,---,0.00,VWS V14.01,2013-02-24 16:51:00,
2013-02-24 10:52:00,20.7,17.4,28.85,West,270,0.0,0.0,87,0.00,,---,0.00,VWS V14.01,2013-02-24 16:52:00,
2013-02-24 10:53:00,21.7,18.5,28.85,WNW,292,0.0,0.0,87,0.00,,---,0.00,VWS V14.01,2013-02-24 16:53:00,
2013-02-24 10:54:00,21.2,17.9,28.85,WNW,292,0.0,0.0,87,0.00,,---,0.00,VWS V14.01,2013-02-24 16:54:00,
2013-02-24 10:55:00,21.2,17.9,28.85,WNW,292,0.0,0.0,87,0.00,,---,0.00,VWS V14.01,2013-02-24 16:55:00,
2013-02-24 10:56:00,21.6,18.3,28.85,WNW,292,0.0,0.0,87,0.00,,---,0.00,VWS V14.01,2013-02-24 16:56:00,
2013-02-24 10:57:00,21.9,18.9,28.85,WNW,292,0.0,0.0,88,0.00,,---,0.00,VWS V14.01,2013-02-24 16:57:00,
2013-02-24 10:58:00,22.8,20.1,28.85,WNW,292,1.6,2.0,89,0.00,,---,0.00,VWS V14.01,2013-02-24 16:58:00,
2013-02-24 10:59:00,22.5,19.5,28.85,WNW,292,0.0,0.0,88,0.00,,---,0.00,VWS V14.01,2013-02-24 16:59:00,
2013-02-24 11:00:00,22.6,19.9,28.85,WNW,292,0.0,0.0,89,0.00,,---,0.00,VWS V14.01,2013-02-24 17:00:00,
2013-02-24 11:01:00,22.8,20.1,28.85,WNW,292,1.6,2.0,89,0.00,,---,0.00,VWS V14.01,2013-02-24 17:01:00,
2013-02-24 11:02:00,22.8,20.1,28.85,WNW,292,0.9,1.6,89,0.00,,---,0.00,VWS V14.01,2013-02-24 17:02:00,
2013-02-24 11:03:00,23.5,20.0,28.85,NW,315,0.9,1.3,86,0.00,,---,0.00,VWS V14.01,2013-02-24 17:03:00,
2013-02-24 11:04:00,23.5,20.0,28.85,NNW,338,0.0,1.6,86,0.00,,---,0.00,VWS V14.01,2013-02-24 17:04:00,
2013-02-24 11:05:00,27.3,13.3,28.88,WSW,248,2.7,2.9,55,0.00,,---,0.00,VWS V14.01,2013-02-24 17:05:00,
2013-02-24 11:06:00,23.5,20.0,28.85,NW,315,1.3,1.3,86,0.00,,---,0.00,VWS V14.01,2013-02-24 17:06:00,
2013-02-24 11:07:00,24.4,20.0,28.85,West,270,1.1,1.3,83,0.00,,---,0.00,VWS V14.01,2013-02-24 17:07:00,
2013-02-24 11:08:00,25.3,19.1,28.85,NNW,338,1.1,1.1,77,0.00,,---,0.00,VWS V14.01,2013-02-24 17:08:00,
2013-02-24 11:09:00,24.8,19.2,28.85,NNW,338,0.0,1.3,79,0.00,,---,0.00,VWS V14.01,2013-02-24 17:09:00,
2013-02-24 11:10:00,25.0,18.5,28.85,NNW,338,1.1,1.6,76,0.00,,---,0.00,VWS V14.01,2013-02-24 17:10:00,
2013-02-24 11:11:00,25.3,19.1,28.85,NNW,338,1.1,1.1,77,0.00,,---,0.00,VWS V14.01,2013-02-24 17:11:00,
2013-02-24 11:12:00,26.1,19.9,28.85,WNW,292,0.9,1.1,77,0.00,,---,0.00,VWS V14.01,2013-02-24 17:12:00,
2013-02-24 11:13:00,27.0,22.8,28.85,WNW,292,2.2,2.2,84,0.00,,---,0.00,VWS V14.01,2013-02-24 17:13:00,
2013-02-24 11:14:00,26.6,21.9,28.85,West,270,1.6,2.2,82,0.00,,---,0.00,VWS V14.01,2013-02-24 17:14:00,
2013-02-24 11:15:00,26.8,22.3,28.85,WNW,292,2.0,2.0,83,0.00,,---,0.00,VWS V14.01,2013-02-24 17:15:00,
2013-02-24 11:16:00,27.0,22.8,28.85,WNW,292,2.2,2.5,84,0.00,,---,0.00,VWS V14.01,2013-02-24 17:16:00,
2013-02-24 11:17:00,26.8,22.3,28.85,WNW,292,1.6,2.2,83,0.00,,---,0.00,VWS V14.01,2013-02-24 17:17:00,
2013-02-24 11:18:00,27.1,21.8,28.85,WNW,292,2.0,2.2,80,0.00,,---,0.00,VWS V14.01,2013-02-24 17:18:00,
2013-02-24 11:19:00,27.1,22.7,28.85,WNW,292,2.5,2.5,83,0.00,,---,0.00,VWS V14.01,2013-02-24 17:19:00,
2013-02-24 11:20:00,27.5,23.0,28.85,WNW,292,2.0,2.5,83,0.00,,---,0.00,VWS V14.01,2013-02-24 17:20:00,
2013-02-24 11:21:00,27.1,21.8,28.85,WNW,292,2.2,2.5,80,0.00,,---,0.00,VWS V14.01,2013-02-24 17:21:00,
2013-02-24 11:22:00,27.5,21.9,28.85,West,270,2.2,2.2,79,0.00,,---,0.00,VWS V14.01,2013-02-24 17:22:00,
2013-02-24 11:23:00,26.1,15.6,28.85,West,270,1.1,1.1,64,0.00,,---,0.00,VWS V14.01,2013-02-24 17:23:00,
2013-02-24 11:24:00,27.0,20.4,28.85,West,270,2.0,2.2,76,0.00,,---,0.00,VWS V14.01,2013-02-24 17:24:00,
2013-02-24 11:25:00,26.6,18.8,28.85,WSW,248,0.0,2.0,72,0.00,,---,0.00,VWS V14.01,2013-02-24 17:25:00,
2013-02-24 11:26:00,26.6,18.8,28.85,WSW,248,0.9,0.9,72,0.00,,---,0.00,VWS V14.01,2013-02-24 17:26:00,
2013-02-24 11:27:00,25.9,14.3,28.85,West,270,1.6,1.6,61,0.00,,---,0.00,VWS V14.01,2013-02-24 17:27:00,
2013-02-24 11:28:00,25.2,12.9,28.85,West,270,2.2,2.2,59,0.00,,---,0.00,VWS V14.01,2013-02-24 17:28:00,
2013-02-24 11:29:00,25.7,14.5,28.85,WSW,248,1.3,2.5,62,0.00,,---,0.00,VWS V14.01,2013-02-24 17:29:00,
2013-02-24 11:30:00,25.3,13.4,28.85,West,270,2.5,2.5,60,0.00,,---,0.00,VWS V14.01,2013-02-24 17:30:00,
2013-02-24 11:31:00,25.2,12.9,28.85,West,270,2.2,2.5,59,0.00,,---,0.00,VWS V14.01,2013-02-24 17:31:00,
2013-02-24 11:32:00,25.0,12.3,28.85,WNW,292,2.0,2.2,58,0.00,,---,0.00,VWS V14.01,2013-02-24 17:32:00,
2013-02-24 11:33:00,26.1,16.6,28.85,WNW,292,2.9,2.9,67,0.00,,---,0.00,VWS V14.01,2013-02-24 17:33:00,
2013-02-24 11:34:00,25.2,13.6,28.85,WNW,292,2.7,2.7,61,0.00,,---,0.00,VWS V14.01,2013-02-24 17:34:00,
2013-02-24 11:35:00,26.1,15.9,28.85,WSW,248,2.5,3.6,65,0.00,,---,0.00,VWS V14.01,2013-02-24 17:35:00,
2013-02-24 11:36:00,26.1,16.6,28.85,WNW,292,2.5,2.9,67,0.00,,---,0.00,VWS V14.01,2013-02-24 17:36:00,
2013-02-24 11:37:00,26.1,16.6,28.85,WNW,292,2.9,2.9,67,0.00,,---,0.00,VWS V14.01,2013-02-24 17:37:00,
2013-02-24 11:38:00,25.5,12.8,28.85,WSW,248,1.6,1.6,58,0.00,,---,0.00,VWS V14.01,2013-02-24 17:38:00,
2013-02-24 11:39:00,26.1,15.2,28.85,WNW,292,2.5,2.9,63,0.00,,---,0.00,VWS V14.01,2013-02-24 17:39:00,
2013-02-24 11:40:00,25.9,13.9,28.85,WNW,292,2.0,2.5,60,0.00,,---,0.00,VWS V14.01,2013-02-24 17:40:00,
2013-02-24 11:41:00,25.7,13.0,28.85,SSW,202,1.3,2.0,58,0.00,,---,0.00,VWS V14.01,2013-02-24 17:41:00,
2013-02-24 11:42:00,25.5,12.8,28.85,West,270,2.7,2.7,58,0.00,,---,0.00,VWS V14.01,2013-02-24 17:42:00,
2013-02-24 11:43:00,26.1,14.8,28.85,NNW,338,2.9,2.9,62,0.00,,---,0.00,VWS V14.01,2013-02-24 17:43:00,
2013-02-24 11:44:00,25.7,13.4,28.85,WSW,248,2.5,2.7,59,0.00,,---,0.00,VWS V14.01,2013-02-24 17:44:00,
2013-02-24 11:45:00,25.9,13.5,28.85,WSW,248,3.4,3.4,59,0.00,,---,0.00,VWS V14.01,2013-02-24 17:45:00,
2013-02-24 11:46:00,26.1,14.8,28.85,West,270,2.0,3.4,62,0.00,,---,0.00,VWS V14.01,2013-02-24 17:46:00,
2013-02-24 11:47:00,26.1,14.8,28.85,WNW,292,2.9,2.9,62,0.00,,---,0.00,VWS V14.01,2013-02-24 17:47:00,
2013-02-24 11:48:00,26.1,12.1,28.85,WSW,248,2.7,2.7,55,0.00,,---,0.00,VWS V14.01,2013-02-24 17:48:00,
2013-02-24 11:49:00,26.1,14.8,28.85,WSW,248,2.9,3.1,62,0.00,,---,0.00,VWS V14.01,2013-02-24 17:49:00,
2013-02-24 11:50:00,26.2,13.1,28.85,WSW,248,2.7,3.1,57,0.00,,---,0.00,VWS V14.01,2013-02-24 17:50:00,
2013-02-24 11:51:00,26.1,12.1,28.85,West,270,1.6,2.7,55,0.00,,---,0.00,VWS V14.01,2013-02-24 17:51:00,
2013-02-24 11:52:00,25.9,11.9,28.85,WSW,248,2.5,2.9,55,0.00,,---,0.00,VWS V14.01,2013-02-24 17:52:00,
2013-02-24 11:53:00,26.6,15.4,28.85,NE,45,2.2,2.9,62,0.00,,---,0.00,VWS V14.01,2013-02-24 17:53:00,
2013-02-24 11:54:00,25.9,13.1,28.85,West,270,2.0,2.5,58,0.00,,---,0.00,VWS V14.01,2013-02-24 17:54:00,
2013-02-24 11:55:00,26.1,14.1,28.85,WSW,248,2.7,2.9,60,0.00,,---,0.00,VWS V14.01,2013-02-24 17:55:00,
2013-02-24 11:56:00,26.1,13.3,28.85,NW,315,2.9,2.9,58,0.00,,---,0.00,VWS V14.01,2013-02-24 17:56:00,
2013-02-24 11:57:00,26.8,16.2,28.85,West,270,2.7,2.9,64,0.00,,---,0.00,VWS V14.01,2013-02-24 17:57:00,
2013-02-24 11:58:00,27.1,15.1,28.85,WSW,248,2.5,2.7,60,0.00,,---,0.00,VWS V14.01,2013-02-24 17:58:00,
2013-02-24 11:59:00,27.1,15.9,28.85,WSW,248,2.2,2.9,62,0.00,,---,0.00,VWS V14.01,2013-02-24 17:59:00,
2013-02-24 12:00:00,27.1,15.1,28.85,WNW,292,2.5,2.7,60,0.00,,---,0.00,VWS V14.01,2013-02-24 18:00:00,
2013-02-24 12:01:00,27.1,15.1,28.85,WSW,248,2.5,2.7,60,0.00,,---,0.00,VWS V14.01,2013-02-24 18:01:00,
2013-02-24 12:02:00,27.5,15.1,28.85,SW,225,2.2,2.9,59,0.00,,---,0.00,VWS V14.01,2013-02-24 18:02:00,
2013-02-24 12:03:00,27.3,13.3,28.88,WSW,248,2.9,3.1,55,0.00,,---,0.00,VWS V14.01,2013-02-24 18:03:00,
2013-02-24 12:04:00,27.7,14.9,28.88,West,270,2.0,2.9,58,0.00,,---,0.00,VWS V14.01,2013-02-24 18:04:00,
2013-02-24 12:05:00,27.3,13.3,28.88,WSW,248,2.7,2.9,55,0.00,,---,0.00,VWS V14.01,2013-02-24 18:05:00,
2013-02-24 12:06:00,27.3,13.3,28.88,WSW,248,3.1,3.8,55,0.00,,---,0.00,VWS V14.01,2013-02-24 18:06:00,
2013-02-24 12:07:00,27.0,12.6,28.88,WSW,248,2.7,3.1,54,0.00,,---,0.00,VWS V14.01,2013-02-24 18:07:00,
2013-02-24 12:08:00,27.0,12.1,28.88,WSW,248,2.5,3.4,53,0.00,,---,0.00,VWS V14.01,2013-02-24 18:08:00,
2013-02-24 12:09:00,27.1,13.1,28.88,WSW,248,3.1,3.1,55,0.00,,---,0.00,VWS V14.01,2013-02-24 18:09:00,
2013-02-24 12:10:00,27.0,12.1,28.88,WSW,248,1.3,3.8,53,0.00,,---,0.00,VWS V14.01,2013-02-24 18:10:00,
2013-02-24 12:11:00,27.0,12.1,28.88,WSW,248,3.4,4.0,53,0.00,,---,0.00,VWS V14.01,2013-02-24 18:11:00,
2013-02-24 12:12:00,27.0,12.6,28.88,WSW,248,2.9,3.4,54,0.00,,---,0.00,VWS V14.01,2013-02-24 18:12:00,
2013-02-24 12:13:00,27.7,13.6,28.88,WSW,248,2.7,3.1,55,0.00,,---,0.00,VWS V14.01,2013-02-24 18:13:00,
2013-02-24 12:14:00,27.3,13.3,28.88,WSW,248,2.2,2.9,55,0.00,,---,0.00,VWS V14.01,2013-02-24 18:14:00,
2013-02-24 12:15:00,27.3,12.9,28.88,WSW,248,3.1,4.3,54,0.00,,---,0.00,VWS V14.01,2013-02-24 18:15:00,
2013-02-24 12:16:00,27.7,13.6,28.88,West,270,3.1,3.8,55,0.00,,---,0.00,VWS V14.01,2013-02-24 18:16:00,
2013-02-24 12:17:00,28.0,14.8,28.88,WNW,292,2.9,3.1,57,0.00,,---,0.00,VWS V14.01,2013-02-24 18:17:00,
2013-02-24 12:18:00,29.5,16.1,28.88,WSW,248,2.5,2.9,57,0.00,,---,0.00,VWS V14.01,2013-02-24 18:18:00,
2013-02-24 12:19:00,28.6,15.7,28.88,SSW,202,2.0,3.8,58,0.00,,---,0.00,VWS V14.01,2013-02-24 18:19:00,
2013-02-24 12:20:00,28.6,16.5,28.88,West,270,2.7,3.6,60,0.00,,---,0.00,VWS V14.01,2013-02-24 18:20:00,
2013-02-24 12:21:00,29.5,16.1,28.88,WSW,248,2.9,2.9,57,0.00,,---,0.00,VWS V14.01,2013-02-24 18:21:00,
2013-02-24 12:22:00,29.5,16.1,28.88,West,270,3.1,3.1,57,0.00,,---,0.00,VWS V14.01,2013-02-24 18:22:00,
2013-02-24 12:23:00,30.2,18.8,28.88,WNW,292,2.7,3.4,62,0.00,,---,0.00,VWS V14.01,2013-02-24 18:23:00,
2013-02-24 12:24:00,29.5,14.5,28.88,WSW,248,3.6,3.6,53,0.00,,---,0.00,VWS V14.01,2013-02-24 18:24:00,
2013-02-24 12:25:00,30.2,17.2,28.88,NNW,338,3.1,3.8,58,0.00,,---,0.00,VWS V14.01,2013-02-24 18:25:00,
2013-02-24 12:26:00,30.2,17.2,28.88,NNW,338,3.4,3.8,58,0.00,,---,0.00,VWS V14.01,2013-02-24 18:26:00,
2013-02-24 12:27:00,30.2,18.8,28.88,WSW,248,4.3,4.3,62,0.00,,---,0.00,VWS V14.01,2013-02-24 18:27:00,
2013-02-24 12:28:00,29.3,14.7,28.85,WSW,248,2.5,3.4,54,0.00,,---,0.00,VWS V14.01,2013-02-24 18:28:00,
2013-02-24 12:29:00,29.5,14.5,28.88,WNW,292,3.6,3.6,53,0.00,,---,0.00,VWS V14.01,2013-02-24 18:29:00,
2013-02-24 12:30:00,29.3,14.7,28.88,West,270,3.4,3.6,54,0.00,,---,0.00,VWS V14.01,2013-02-24 18:30:00,
2013-02-24 12:31:00,29.3,14.7,28.88,WNW,292,3.4,3.4,54,0.00,,---,0.00,VWS V14.01,2013-02-24 18:31:00,
2013-02-24 12:32:00,28.9,14.0,28.85,West,270,2.7,3.4,53,0.00,,---,0.00,VWS V14.01,2013-02-24 18:32:00,
2013-02-24 12:33:00,28.0,12.7,28.85,West,270,3.6,3.8,52,0.00,,---,0.00,VWS V14.01,2013-02-24 18:33:00,
2013-02-24 12:34:00,28.6,14.1,28.85,West,270,2.9,4.3,54,0.00,,---,0.00,VWS V14.01,2013-02-24 18:34:00,
2013-02-24 12:35:00,28.0,12.7,28.85,West,270,2.7,2.9,52,0.00,,---,0.00,VWS V14.01,2013-02-24 18:35:00,
2013-02-24 12:36:00,30.2,14.3,28.85,SW,225,3.1,3.6,51,0.00,,---,0.00,VWS V14.01,2013-02-24 18:36:00,
2013-02-24 12:37:00,28.0,12.7,28.85,West,270,3.8,3.8,52,0.00,,---,0.00,VWS V14.01,2013-02-24 18:37:00,
2013-02-24 12:38:00,26.8,11.5,28.85,WSW,248,3.8,3.8,52,0.00,,---,0.00,VWS V14.01,2013-02-24 18:38:00,
2013-02-24 12:39:00,26.8,11.5,28.85,West,270,4.0,4.0,52,0.00,,---,0.00,VWS V14.01,2013-02-24 18:39:00,
2013-02-24 12:40:00,27.0,12.1,28.85,WSW,248,3.8,4.0,53,0.00,,---,0.00,VWS V14.01,2013-02-24 18:40:00,
2013-02-24 12:41:00,26.8,11.5,28.85,WSW,248,3.8,3.8,52,0.00,,---,0.00,VWS V14.01,2013-02-24 18:41:00,
2013-02-24 12:42:00,26.8,11.5,28.85,WSW,248,2.7,3.8,52,0.00,,---,0.00,VWS V14.01,2013-02-24 18:42:00,
2013-02-24 12:43:00,27.0,13.0,28.85,West,270,2.9,2.9,55,0.00,,---,0.00,VWS V14.01,2013-02-24 18:43:00,
2013-02-24 12:44:00,26.4,11.2,28.85,WSW,248,3.1,3.8,52,0.00,,---,0.00,VWS V14.01,2013-02-24 18:44:00,
2013-02-24 12:45:00,26.8,12.4,28.85,WSW,248,3.6,3.6,54,0.00,,---,0.00,VWS V14.01,2013-02-24 18:45:00,
2013-02-24 12:46:00,27.0,13.0,28.85,West,270,2.2,3.6,55,0.00,,---,0.00,VWS V14.01,2013-02-24 18:46:00,
2013-02-24 12:47:00,26.8,12.4,28.85,WNW,292,4.3,4.3,54,0.00,,---,0.00,VWS V14.01,2013-02-24 18:47:00,
2013-02-24 12:48:00,27.7,13.2,28.85,WSW,248,2.7,3.6,54,0.00,,---,0.00,VWS V14.01,2013-02-24 18:48:00,
2013-02-24 12:49:00,27.5,15.1,28.85,West,270,3.8,3.8,59,0.00,,---,0.00,VWS V14.01,2013-02-24 18:49:00,
2013-02-24 12:50:00,27.1,12.3,28.85,WNW,292,2.5,3.8,53,0.00,,---,0.00,VWS V14.01,2013-02-24 18:50:00,
2013-02-24 12:51:00,27.7,13.2,28.85,WSW,248,3.6,3.6,54,0.00,,---,0.00,VWS V14.01,2013-02-24 18:51:00,
2013-02-24 12:52:00,27.7,13.2,28.85,West,270,2.9,3.6,54,0.00,,---,0.00,VWS V14.01,2013-02-24 18:52:00,
2013-02-24 12:53:00,28.2,13.7,28.85,WSW,248,3.8,3.8,54,0.00,,---,0.00,VWS V14.01,2013-02-24 18:53:00,
2013-02-24 12:54:00,27.9,13.8,28.85,WSW,248,3.4,4.3,55,0.00,,---,0.00,VWS V14.01,2013-02-24 18:54:00,
2013-02-24 12:55:00,27.9,13.8,28.85,WNW,292,2.9,4.3,55,0.00,,---,0.00,VWS V14.01,2013-02-24 18:55:00,
2013-02-24 12:56:00,28.2,14.9,28.85,WSW,248,2.9,3.8,57,0.00,,---,0.00,VWS V14.01,2013-02-24 18:56:00,
2013-02-24 12:57:00,28.2,13.7,28.85,WNW,292,2.7,3.8,54,0.00,,---,0.00,VWS V14.01,2013-02-24 18:57:00,
2013-02-24 12:58:00,28.9,16.4,28.85,WSW,248,2.9,2.9,59,0.00,,---,0.00,VWS V14.01,2013-02-24 18:58:00,
2013-02-24 12:59:00,28.9,15.6,28.85,West,270,2.9,3.6,57,0.00,,---,0.00,VWS V14.01,2013-02-24 18:59:00,
2013-02-24 13:00:00,28.9,16.4,28.85,SSW,202,2.5,3.4,59,0.00,,---,0.00,VWS V14.01,2013-02-24 19:00:00,
2013-02-24 13:01:00,28.9,16.4,28.85,SSW,202,2.5,2.5,59,0.00,,---,0.00,VWS V14.01,2013-02-24 19:01:00,
2013-02-24 13:02:00,29.1,15.0,28.85,WSW,248,2.7,3.4,55,0.00,,---,0.00,VWS V14.01,2013-02-24 19:02:00,
2013-02-24 13:03:00,29.7,14.6,28.85,West,270,2.5,3.6,53,0.00,,---,0.00,VWS V14.01,2013-02-24 19:03:00,
2013-02-24 13:04:00,29.3,14.3,28.85,WSW,248,3.1,3.1,53,0.00,,---,0.00,VWS V14.01,2013-02-24 19:04:00,
2013-02-24 13:05:00,29.3,14.3,28.85,WSW,248,2.5,3.6,53,0.00,,---,0.00,VWS V14.01,2013-02-24 19:05:00,
2013-02-24 13:06:00,29.7,14.6,28.85,West,270,3.6,3.6,53,0.00,,---,0.00,VWS V14.01,2013-02-24 19:06:00,
2013-02-24 13:07:00,29.7,12.9,28.82,SSW,202,2.0,2.5,49,0.00,,---,0.00,VWS V14.01,2013-02-24 19:07:00,
2013-02-24 13:08:00,29.5,14.0,28.85,WSW,248,2.9,3.4,52,0.00,,---,0.00,VWS V14.01,2013-02-24 19:08:00,
2013-02-24 13:09:00,29.8,15.7,28.85,WSW,248,3.8,3.8,55,0.00,,---,0.00,VWS V14.01,2013-02-24 19:09:00,
2013-02-24 13:10:00,29.5,13.6,28.85,WSW,248,2.7,3.8,51,0.00,,---,0.00,VWS V14.01,2013-02-24 19:10:00,
2013-02-24 13:11:00,29.5,13.6,28.85,SW,225,2.7,2.9,51,0.00,,---,0.00,VWS V14.01,2013-02-24 19:11:00,
2013-02-24 13:12:00,29.5,14.0,28.85,West,270,3.1,3.4,52,0.00,,---,0.00,VWS V14.01,2013-02-24 19:12:00,
2013-02-24 13:13:00,31.1,19.6,28.85,West,270,3.1,3.1,62,0.00,,---,0.00,VWS V14.01,2013-02-24 19:13:00,
2013-02-24 13:14:00,30.0,15.8,28.85,NNW,338,3.8,4.3,55,0.00,,---,0.00,VWS V14.01,2013-02-24 19:14:00,
2013-02-24 13:15:00,30.4,17.8,28.85,WSW,248,2.0,3.8,59,0.00,,---,0.00,VWS V14.01,2013-02-24 19:15:00,
2013-02-24 13:16:00,30.4,17.8,28.85,WSW,248,2.0,2.0,59,0.00,,---,0.00,VWS V14.01,2013-02-24 19:16:00,
2013-02-24 13:17:00,31.1,19.6,28.85,West,270,3.4,3.4,62,0.00,,---,0.00,VWS V14.01,2013-02-24 19:17:00,
2013-02-24 13:18:00,31.1,15.5,28.85,East,90,2.2,3.4,52,0.00,,---,0.00,VWS V14.01,2013-02-24 19:18:00,
2013-02-24 13:19:00,31.3,19.0,28.85,WSW,248,3.6,3.6,60,0.00,,---,0.00,VWS V14.01,2013-02-24 19:19:00,
2013-02-24 13:20:00,31.1,16.0,28.85,North,0,2.0,3.6,53,0.00,,---,0.00,VWS V14.01,2013-02-24 19:20:00,
2013-02-24 13:21:00,31.1,15.5,28.85,WSW,248,2.9,3.6,52,0.00,,---,0.00,VWS V14.01,2013-02-24 19:21:00,
2013-02-24 13:22:00,31.3,17.0,28.85,WSW,248,2.7,3.4,55,0.00,,---,0.00,VWS V14.01,2013-02-24 19:22:00,
2013-02-24 13:23:00,30.0,13.6,28.85,SSW,202,1.6,3.1,50,0.00,,---,0.00,VWS V14.01,2013-02-24 19:23:00,
2013-02-24 13:24:00,30.9,15.8,28.85,SW,225,2.9,2.9,53,0.00,,---,0.00,VWS V14.01,2013-02-24 19:24:00,
2013-02-24 13:25:00,30.9,15.4,28.85,SW,225,3.4,3.4,52,0.00,,---,0.00,VWS V14.01,2013-02-24 19:25:00,
2013-02-24 13:26:00,30.2,13.8,28.85,WSW,248,3.1,3.8,50,0.00,,---,0.00,VWS V14.01,2013-02-24 19:26:00,
2013-02-24 13:27:00,30.0,13.6,28.85,WSW,248,2.7,3.1,50,0.00,,---,0.00,VWS V14.01,2013-02-24 19:27:00,
2013-02-24 13:28:00,29.7,13.8,28.85,SW,225,2.5,2.5,51,0.00,,---,0.00,VWS V14.01,2013-02-24 19:28:00,
2013-02-24 13:29:00,29.3,13.0,28.85,SW,225,3.1,3.4,50,0.00,,---,0.00,VWS V14.01,2013-02-24 19:29:00,
2013-02-24 13:30:00,29.8,14.4,28.85,SW,225,2.9,3.8,52,0.00,,---,0.00,VWS V14.01,2013-02-24 19:30:00,
2013-02-24 13:31:00,29.7,13.8,28.85,SW,225,1.3,2.9,51,0.00,,---,0.00,VWS V14.01,2013-02-24 19:31:00,
2013-02-24 13:32:00,29.7,13.8,28.85,SSW,202,2.9,2.9,51,0.00,,---,0.00,VWS V14.01,2013-02-24 19:32:00,
2013-02-24 13:33:00,30.2,14.3,28.85,WSW,248,2.9,3.4,51,0.00,,---,0.00,VWS V14.01,2013-02-24 19:33:00,
2013-02-24 13:34:00,30.0,14.1,28.85,SSW,202,2.0,2.5,51,0.00,,---,0.00,VWS V14.01,2013-02-24 19:34:00,
2013-02-24 13:35:00,30.0,13.6,28.85,SW,225,3.6,3.8,50,0.00,,---,0.00,VWS V14.01,2013-02-24 19:35:00,
2013-02-24 13:36:00,30.2,14.3,28.85,SW,225,3.1,3.6,51,0.00,,---,0.00,VWS V14.01,2013-02-24 19:36:00,
2013-02-24 13:37:00,30.2,13.8,28.85,WSW,248,3.4,3.4,50,0.00,,---,0.00,VWS V14.01,2013-02-24 19:37:00,
2013-02-24 13:38:00,30.2,13.8,28.85,SW,225,2.5,2.9,50,0.00,,---,0.00,VWS V14.01,2013-02-24 19:38:00,
2013-02-24 13:39:00,30.4,14.0,28.85,SW,225,3.6,3.6,50,0.00,,---,0.00,VWS V14.01,2013-02-24 19:39:00,
2013-02-24 13:40:00,30.4,14.0,28.85,SSW,202,2.5,3.6,50,0.00,,---,0.00,VWS V14.01,2013-02-24 19:40:00,
2013-02-24 13:41:00,30.2,13.4,28.85,WSW,248,2.9,2.9,49,0.00,,---,0.00,VWS V14.01,2013-02-24 19:41:00,
2013-02-24 13:42:00,30.2,13.8,28.85,SW,225,2.0,3.1,50,0.00,,---,0.00,VWS V14.01,2013-02-24 19:42:00,
2013-02-24 13:43:00,30.2,13.8,28.85,SSW,202,2.5,2.9,50,0.00,,---,0.00,VWS V14.01,2013-02-24 19:43:00,
2013-02-24 13:44:00,30.0,13.2,28.85,SSW,202,2.2,3.4,49,0.00,,---,0.00,VWS V14.01,2013-02-24 19:44:00,
2013-02-24 13:45:00,30.2,13.8,28.85,SSW,202,2.2,2.7,50,0.00,,---,0.00,VWS V14.01,2013-02-24 19:45:00,
2013-02-24 13:46:00,30.2,14.3,28.85,SW,225,2.9,2.9,51,0.00,,---,0.00,VWS V14.01,2013-02-24 19:46:00,
2013-02-24 13:47:00,30.2,13.8,28.85,SSW,202,2.0,3.1,50,0.00,,---,0.00,VWS V14.01,2013-02-24 19:47:00,
2013-02-24 13:48:00,30.2,13.4,28.85,SW,225,2.0,2.5,49,0.00,,---,0.00,VWS V14.01,2013-02-24 19:48:00,
2013-02-24 13:49:00,30.2,13.4,28.85,SW,225,2.7,2.9,49,0.00,,---,0.00,VWS V14.01,2013-02-24 19:49:00,
2013-02-24 13:50:00,30.2,12.9,28.85,SSW,202,2.9,3.4,48,0.00,,---,0.00,VWS V14.01,2013-02-24 19:50:00,
2013-02-24 13:51:00,30.2,13.4,28.85,SSW,202,2.5,2.9,49,0.00,,---,0.00,VWS V14.01,2013-02-24 19:51:00,
2013-02-24 13:52:00,32.7,20.8,28.85,SE,135,3.8,3.8,61,0.00,,---,0.00,VWS V14.01,2013-02-24 19:52:00,
2013-02-24 13:53:00,30.2,13.4,28.85,SW,225,2.9,2.9,49,0.00,,---,0.00,VWS V14.01,2013-02-24 19:53:00,
2013-02-24 13:54:00,30.2,13.8,28.85,SW,225,2.7,2.9,50,0.00,,---,0.00,VWS V14.01,2013-02-24 19:54:00,
2013-02-24 13:55:00,30.2,13.8,28.85,SSW,202,1.6,2.7,50,0.00,,---,0.00,VWS V14.01,2013-02-24 19:55:00,
2013-02-24 13:56:00,30.2,13.4,28.85,WSW,248,1.6,2.2,49,0.00,,---,0.00,VWS V14.01,2013-02-24 19:56:00,
2013-02-24 13:57:00,30.2,13.4,28.85,SW,225,2.7,2.9,49,0.00,,---,0.00,VWS V14.01,2013-02-24 19:57:00,
2013-02-24 13:58:00,29.7,13.3,28.82,SW,225,1.6,2.7,50,0.00,,---,0.00,VWS V14.01,2013-02-24 19:58:00,
2013-02-24 13:59:00,30.2,14.3,28.85,SW,225,3.4,3.4,51,0.00,,---,0.00,VWS V14.01,2013-02-24 19:59:00,
2013-02-24 14:00:00,30.0,13.6,28.85,WSW,248,2.0,3.4,50,0.00,,---,0.00,VWS V14.01,2013-02-24 20:00:00,
2013-02-24 14:01:00,29.8,13.0,28.85,WSW,248,2.7,2.7,49,0.00,,---,0.00,VWS V14.01,2013-02-24 20:01:00,
2013-02-24 14:02:00,29.7,13.3,28.82,SW,225,1.6,2.7,50,0.00,,---,0.00,VWS V14.01,2013-02-24 20:02:00,
2013-02-24 14:03:00,29.7,13.3,28.82,SSW,202,2.5,2.5,50,0.00,,---,0.00,VWS V14.01,2013-02-24 20:03:00,
2013-02-24 14:04:00,29.7,13.3,28.82,SSW,202,2.9,2.9,50,0.00,,---,0.00,VWS V14.01,2013-02-24 20:04:00,
2013-02-24 14:05:00,29.7,13.8,28.82,SW,225,2.5,2.9,51,0.00,,---,0.00,VWS V14.01,2013-02-24 20:05:00,
2013-02-24 14:06:00,29.8,13.9,28.82,SSW,202,2.5,2.9,51,0.00,,---,0.00,VWS V14.01,2013-02-24 20:06:00,
2013-02-24 14:07:00,29.7,12.9,28.82,SSW,202,2.0,2.5,49,0.00,,---,0.00,VWS V14.01,2013-02-24 20:07:00,
2013-02-24 14:08:00,29.8,13.9,28.82,SSW,202,2.5,2.5,51,0.00,,---,0.00,VWS V14.01,2013-02-24 20:08:00,
2013-02-24 14:09:00,29.7,13.3,28.82,SSW,202,2.9,2.9,50,0.00,,---,0.00,VWS V14.01,2013-02-24 20:09:00,
2013-02-24 14:10:00,29.7,13.3,28.82,SSW,202,2.2,2.9,50,0.00,,---,0.00,VWS V14.01,2013-02-24 20:10:00,
2013-02-24 14:11:00,29.8,13.9,28.82,SSW,202,2.5,2.7,51,0.00,,---,0.00,VWS V14.01,2013-02-24 20:11:00,
2013-02-24 14:12:00,29.8,13.9,28.82,South,180,2.9,2.9,51,0.00,,---,0.00,VWS V14.01,2013-02-24 20:12:00,
2013-02-24 14:13:00,31.6,18.6,28.88,SE,135,3.4,3.4,58,0.00,,---,0.00,VWS V14.01,2013-02-24 20:13:00,
2013-02-24 14:14:00,30.4,15.3,28.82,SE,135,3.8,4.0,53,0.00,,---,0.00,VWS V14.01,2013-02-24 20:14:00,
2013-02-24 14:15:00,30.9,16.7,28.82,SE,135,4.3,4.3,55,0.00,,---,0.00,VWS V14.01,2013-02-24 20:15:00,
2013-02-24 14:16:00,31.3,18.2,28.82,SE,135,2.5,4.3,58,0.00,,---,0.00,VWS V14.01,2013-02-24 20:16:00,
2013-02-24 14:17:00,31.6,18.6,28.88,SE,135,2.9,3.4,58,0.00,,---,0.00,VWS V14.01,2013-02-24 20:17:00,
2013-02-24 14:18:00,31.6,17.3,28.88,ESE,112,3.4,4.5,55,0.00,,---,0.00,VWS V14.01,2013-02-24 20:18:00,
2013-02-24 14:19:00,31.8,17.9,28.88,SSE,158,3.8,3.8,56,0.00,,---,0.00,VWS V14.01,2013-02-24 20:19:00,
2013-02-24 14:20:00,31.6,16.5,28.88,SE,135,4.0,4.0,53,0.00,,---,0.00,VWS V14.01,2013-02-24 20:20:00,
2013-02-24 14:21:00,31.6,17.3,28.88,ESE,112,4.3,4.5,55,0.00,,---,0.00,VWS V14.01,2013-02-24 20:21:00,
2013-02-24 14:22:00,32.2,19.9,28.88,SE,135,3.4,4.5,60,0.00,,---,0.00,VWS V14.01,2013-02-24 20:22:00,
2013-02-24 14:23:00,32.7,23.3,28.88,SSE,158,2.7,4.3,68,0.00,,---,0.00,VWS V14.01,2013-02-24 20:23:00,
2013-02-24 14:24:00,32.4,21.9,28.88,ESE,112,4.0,4.0,65,0.00,,---,0.00,VWS V14.01,2013-02-24 20:24:00,
2013-02-24 14:25:00,32.4,21.9,28.88,SE,135,4.3,4.3,65,0.00,,---,0.00,VWS V14.01,2013-02-24 20:25:00,
2013-02-24 14:26:00,32.5,23.2,28.88,SE,135,4.0,4.3,68,0.00,,---,0.00,VWS V14.01,2013-02-24 20:26:00,
2013-02-24 14:27:00,32.7,23.3,28.88,SE,135,2.9,4.3,68,0.00,,---,0.00,VWS V14.01,2013-02-24 20:27:00,
2013-02-24 14:28:00,32.2,20.3,28.85,SE,135,3.4,3.4,61,0.00,,---,0.00,VWS V14.01,2013-02-24 20:28:00,
2013-02-24 14:29:00,32.4,19.2,28.88,ESE,112,2.0,2.2,58,0.00,,---,0.00,VWS V14.01,2013-02-24 20:29:00,
2013-02-24 14:30:00,32.5,20.6,28.88,East,90,1.3,2.0,61,0.00,,---,0.00,VWS V14.01,2013-02-24 20:30:00,
2013-02-24 14:31:00,32.5,20.6,28.88,East,90,1.3,1.3,61,0.00,,---,0.00,VWS V14.01,2013-02-24 20:31:00,
2013-02-24 14:32:00,32.2,20.3,28.85,SE,135,3.4,3.4,61,0.00,,---,0.00,VWS V14.01,2013-02-24 20:32:00,
2013-02-24 14:33:00,32.5,21.0,28.85,SE,135,4.5,4.7,62,0.00,,---,0.00,VWS V14.01,2013-02-24 20:33:00,
2013-02-24 14:34:00,32.5,21.0,28.85,SE,135,3.8,4.3,62,0.00,,---,0.00,VWS V14.01,2013-02-24 20:34:00,
2013-02-24 14:35:00,32.5,21.0,28.85,SE,135,3.8,3.8,62,0.00,,---,0.00,VWS V14.01,2013-02-24 20:35:00,
2013-02-24 14:36:00,32.5,21.0,28.85,SE,135,4.7,4.7,62,0.00,,---,0.00,VWS V14.01,2013-02-24 20:36:00,
2013-02-24 14:37:00,32.7,21.1,28.85,SE,135,4.5,4.7,62,0.00,,---,0.00,VWS V14.01,2013-02-24 20:37:00,
2013-02-24 14:38:00,33.1,23.7,28.85,SSE,158,4.3,5.6,68,0.00,,---,0.00,VWS V14.01,2013-02-24 20:38:00,
2013-02-24 14:39:00,33.1,23.3,28.85,SE,135,4.3,4.3,67,0.00,,---,0.00,VWS V14.01,2013-02-24 20:39:00,
2013-02-24 14:40:00,33.1,23.3,28.85,SE,135,5.6,5.6,67,0.00,,---,0.00,VWS V14.01,2013-02-24 20:40:00,
2013-02-24 14:41:00,33.1,23.3,28.85,SE,135,5.6,5.6,67,0.00,,---,0.00,VWS V14.01,2013-02-24 20:41:00,
2013-02-24 14:42:00,33.1,23.7,28.85,SE,135,4.9,5.6,68,0.00,,---,0.00,VWS V14.01,2013-02-24 20:42:00,
2013-02-24 14:43:00,32.9,21.3,28.85,SE,135,5.8,5.8,62,0.00,,---,0.00,VWS V14.01,2013-02-24 20:43:00,
2013-02-24 14:44:00,32.9,22.1,28.85,SE,135,4.9,5.6,64,0.00,,---,0.00,VWS V14.01,2013-02-24 20:44:00,
2013-02-24 14:45:00,32.9,21.3,28.85,SE,135,4.0,4.9,62,0.00,,---,0.00,VWS V14.01,2013-02-24 20:45:00,
2013-02-24 14:46:00,32.9,21.3,28.85,SE,135,5.8,5.8,62,0.00,,---,0.00,VWS V14.01,2013-02-24 20:46:00,
2013-02-24 14:47:00,32.9,21.3,28.85,ESE,112,4.7,5.8,62,0.00,,---,0.00,VWS V14.01,2013-02-24 20:47:00,
2013-02-24 14:48:00,32.5,20.6,28.85,SE,135,3.8,3.8,61,0.00,,---,0.00,VWS V14.01,2013-02-24 20:48:00,
2013-02-24 14:49:00,32.7,22.3,28.85,SE,135,3.1,3.6,65,0.00,,---,0.00,VWS V14.01,2013-02-24 20:49:00,
2013-02-24 14:50:00,32.5,21.0,28.85,SE,135,4.0,5.8,62,0.00,,---,0.00,VWS V14.01,2013-02-24 20:50:00,
2013-02-24 14:51:00,32.4,19.6,28.85,ESE,112,3.1,4.0,59,0.00,,---,0.00,VWS V14.01,2013-02-24 20:51:00,
2013-02-24 14:52:00,32.7,20.8,28.85,SE,135,3.8,3.8,61,0.00,,---,0.00,VWS V14.01,2013-02-24 20:52:00,
2013-02-24 14:53:00,31.1,15.1,28.85,SW,225,3.4,3.4,51,0.00,,---,0.00,VWS V14.01,2013-02-24 20:53:00,
2013-02-24 14:54:00,32.7,20.8,28.85,SE,135,2.9,4.3,61,0.00,,---,0.00,VWS V14.01,2013-02-24 20:54:00,
2013-02-24 14:55:00,32.0,17.7,28.85,SE,135,2.2,2.9,55,0.00,,---,0.00,VWS V14.01,2013-02-24 20:55:00,
2013-02-24 14:56:00,31.6,16.0,28.85,SE,135,1.3,2.2,52,0.00,,---,0.00,VWS V14.01,2013-02-24 20:56:00,
2013-02-24 14:57:00,31.1,15.1,28.85,SW,225,3.4,3.4,51,0.00,,---,0.00,VWS V14.01,2013-02-24 20:57:00,
2013-02-24 14:58:00,29.7,14.6,28.85,SSW,202,4.3,4.3,53,0.00,,---,0.00,VWS V14.01,2013-02-24 20:58:00,
2013-02-24 14:59:00,29.8,13.9,28.85,SSW,202,2.9,3.8,51,0.00,,---,0.00,VWS V14.01,2013-02-24 20:59:00,
2013-02-24 15:00:00,30.7,21.8,28.85,East,90,1.3,2.2,69,0.00,,---,0.00,VWS V14.01,2013-02-24 21:00:00,
2013-02-24 15:01:00,29.8,13.9,28.85,SSW,202,2.7,3.4,51,0.00,,---,0.00,VWS V14.01,2013-02-24 21:01:00,
2013-02-24 15:02:00,29.7,14.6,28.85,SW,225,2.2,4.3,53,0.00,,---,0.00,VWS V14.01,2013-02-24 21:02:00,
2013-02-24 15:03:00,29.1,13.3,28.85,SW,225,2.0,2.0,51,0.00,,---,0.00,VWS V14.01,2013-02-24 21:03:00,
2013-02-24 15:04:00,29.7,15.1,28.85,SE,135,2.7,2.7,54,0.00,,---,0.00,VWS V14.01,2013-02-24 21:04:00,
2013-02-24 15:05:00,29.7,15.1,28.85,SSW,202,2.0,2.7,54,0.00,,---,0.00,VWS V14.01,2013-02-24 21:05:00,
2013-02-24 15:06:00,29.3,13.4,28.85,ESE,112,1.3,2.5,51,0.00,,---,0.00,VWS V14.01,2013-02-24 21:06:00,
2013-02-24 15:07:00,28.9,13.5,28.85,SW,225,2.0,2.0,52,0.00,,---,0.00,VWS V14.01,2013-02-24 21:07:00,
2013-02-24 15:08:00,28.8,12.9,28.85,WSW,248,1.6,3.1,51,0.00,,---,0.00,VWS V14.01,2013-02-24 21:08:00,
2013-02-24 15:09:00,28.6,13.2,28.85,SE,135,2.0,2.0,52,0.00,,---,0.00,VWS V14.01,2013-02-24 21:09:00,
2013-02-24 15:10:00,28.8,13.4,28.85,SSW,202,3.1,3.1,52,0.00,,---,0.00,VWS V14.01,2013-02-24 21:10:00,
2013-02-24 15:11:00,28.8,13.4,28.85,ESE,112,2.0,3.1,52,0.00,,---,0.00,VWS V14.01,2013-02-24 21:11:00,
2013-02-24 15:12:00,28.6,13.2,28.85,SSE,158,2.5,2.5,52,0.00,,---,0.00,VWS V14.01,2013-02-24 21:12:00,
2013-02-24 15:13:00,28.6,13.6,28.85,SSW,202,1.3,2.7,53,0.00,,---,0.00,VWS V14.01,2013-02-24 21:13:00,
2013-02-24 15:14:00,28.0,13.1,28.85,SSW,202,2.7,2.9,53,0.00,,---,0.00,VWS V14.01,2013-02-24 21:14:00,
2013-02-24 15:15:00,28.2,12.9,28.85,SSW,202,2.7,2.7,52,0.00,,---,0.00,VWS V14.01,2013-02-24 21:15:00,
2013-02-24 15:16:00,28.2,12.9,28.85,SSW,202,1.6,2.7,52,0.00,,---,0.00,VWS V14.01,2013-02-24 21:16:00,
2013-02-24 15:17:00,28.0,13.1,28.85,SSW,202,2.7,2.9,53,0.00,,---,0.00,VWS V14.01,2013-02-24 21:17:00,
2013-02-24 15:18:00,28.2,13.3,28.85,SW,225,2.7,2.9,53,0.00,,---,0.00,VWS V14.01,2013-02-24 21:18:00,
2013-02-24 15:19:00,28.4,13.5,28.85,SSE,158,2.7,3.4,53,0.00,,---,0.00,VWS V14.01,2013-02-24 21:19:00,
2013-02-24 15:20:00,28.2,13.7,28.85,SSW,202,2.9,2.9,54,0.00,,---,0.00,VWS V14.01,2013-02-24 21:20:00,
2013-02-24 15:21:00,28.2,13.3,28.85,SSW,202,2.5,3.8,53,0.00,,---,0.00,VWS V14.01,2013-02-24 21:21:00,
2013-02-24 15:22:00,28.4,13.5,28.85,SSE,158,2.7,3.4,53,0.00,,---,0.00,VWS V14.01,2013-02-24 21:22:00,
2013-02-24 15:23:00,28.4,13.5,28.85,SE,135,2.5,2.9,53,0.00,,---,0.00,VWS V14.01,2013-02-24 21:23:00,
2013-02-24 15:24:00,28.8,14.6,28.85,SE,135,3.6,4.3,55,0.00,,---,0.00,VWS V14.01,2013-02-24 21:24:00,
2013-02-24 15:25:00,28.6,14.5,28.85,SE,135,3.4,3.4,55,0.00,,---,0.00,VWS V14.01,2013-02-24 21:25:00,
2013-02-24 15:26:00,28.6,14.5,28.85,SE,135,3.6,3.8,55,0.00,,---,0.00,VWS V14.01,2013-02-24 21:26:00,
2013-02-24 15:27:00,28.8,14.6,28.85,SE,135,3.6,4.3,55,0.00,,---,0.00,VWS V14.01,2013-02-24 21:27:00,
2013-02-24 15:28:00,28.8,14.6,28.85,SE,135,3.6,3.6,55,0.00,,---,0.00,VWS V14.01,2013-02-24 21:28:00,
2013-02-24 15:29:00,29.7,20.4,28.85,SE,135,3.4,3.8,68,0.00,,---,0.00,VWS V14.01,2013-02-24 21:29:00,
2013-02-24 15:30:00,28.8,14.6,28.85,SE,135,3.4,4.0,55,0.00,,---,0.00,VWS V14.01,2013-02-24 21:30:00,
2013-02-24 15:31:00,28.8,14.6,28.85,SE,135,3.4,3.4,55,0.00,,---,0.00,VWS V14.01,2013-02-24 21:31:00,
2013-02-24 15:32:00,29.7,20.4,28.85,SE,135,3.8,4.0,68,0.00,,---,0.00,VWS V14.01,2013-02-24 21:32:00,
2013-02-24 15:33:00,30.0,20.8,28.85,SE,135,4.0,4.0,68,0.00,,---,0.00,VWS V14.01,2013-02-24 21:33:00,
2013-02-24 15:34:00,29.8,17.3,28.85,ESE,112,0.9,0.9,59,0.00,,---,0.00,VWS V14.01,2013-02-24 21:34:00,
2013-02-24 15:35:00,29.8,17.3,28.85,SSE,158,2.5,2.5,59,0.00,,---,0.00,VWS V14.01,2013-02-24 21:35:00,
2013-02-24 15:36:00,29.8,17.3,28.85,SSE,158,3.1,3.1,59,0.00,,---,0.00,VWS V14.01,2013-02-24 21:36:00,
2013-02-24 15:37:00,29.8,17.3,28.85,ESE,112,0.9,3.1,59,0.00,,---,0.00,VWS V14.01,2013-02-24 21:37:00,
2013-02-24 15:38:00,29.1,13.7,28.85,West,270,1.1,1.3,52,0.00,,---,0.00,VWS V14.01,2013-02-24 21:38:00,
2013-02-24 15:39:00,28.8,13.8,28.85,SSW,202,2.0,2.0,53,0.00,,---,0.00,VWS V14.01,2013-02-24 21:39:00,
2013-02-24 15:40:00,28.8,13.4,28.85,SSW,202,1.3,2.0,52,0.00,,---,0.00,VWS V14.01,2013-02-24 21:40:00,
2013-02-24 15:41:00,28.8,13.4,28.85,SE,135,2.5,2.5,52,0.00,,---,0.00,VWS V14.01,2013-02-24 21:41:00,
2013-02-24 15:42:00,28.8,13.8,28.85,SSW,202,2.0,2.7,53,0.00,,---,0.00,VWS V14.01,2013-02-24 21:42:00,
2013-02-24 15:43:00,28.8,13.8,28.85,East,90,1.3,2.0,53,0.00,,---,0.00,VWS V14.01,2013-02-24 21:43:00,
2013-02-24 15:44:00,28.6,13.6,28.85,SE,135,1.6,1.6,53,0.00,,---,0.00,VWS V14.01,2013-02-24 21:44:00,
2013-02-24 15:45:00,28.6,13.6,28.85,SE,135,1.3,2.5,53,0.00,,---,0.00,VWS V14.01,2013-02-24 21:45:00,
2013-02-24 15:46:00,28.6,13.2,28.85,SE,135,2.9,2.9,52,0.00,,---,0.00,VWS V14.01,2013-02-24 21:46:00,
2013-02-24 15:47:00,28.6,13.6,28.85,SE,135,1.6,2.9,53,0.00,,---,0.00,VWS V14.01,2013-02-24 21:47:00,
2013-02-24 15:48:00,28.6,14.1,28.85,SE,135,2.5,2.5,54,0.00,,---,0.00,VWS V14.01,2013-02-24 21:48:00,
2013-02-24 15:49:00,28.8,15.1,28.85,SE,135,2.5,2.5,56,0.00,,---,0.00,VWS V14.01,2013-02-24 21:49:00,
2013-02-24 15:50:00,28.6,13.6,28.85,SE,135,2.5,2.7,53,0.00,,---,0.00,VWS V14.01,2013-02-24 21:50:00,
2013-02-24 15:51:00,28.6,14.1,28.85,SE,135,2.0,2.5,54,0.00,,---,0.00,VWS V14.01,2013-02-24 21:51:00,
2013-02-24 15:52:00,28.8,15.1,28.85,SE,135,2.5,2.5,56,0.00,,---,0.00,VWS V14.01,2013-02-24 21:52:00,
2013-02-24 15:53:00,29.1,17.4,28.85,ESE,112,3.1,3.1,61,0.00,,---,0.00,VWS V14.01,2013-02-24 21:53:00,
2013-02-24 15:54:00,30.2,21.6,28.85,ESE,112,2.5,2.5,70,0.00,,---,0.00,VWS V14.01,2013-02-24 21:54:00,
2013-02-24 15:55:00,29.7,20.4,28.85,East,90,2.0,2.5,68,0.00,,---,0.00,VWS V14.01,2013-02-24 21:55:00,
2013-02-24 15:56:00,30.0,21.4,28.85,East,90,2.9,2.9,70,0.00,,---,0.00,VWS V14.01,2013-02-24 21:56:00,
2013-02-24 15:57:00,30.2,21.6,28.85,ESE,112,2.5,2.9,70,0.00,,---,0.00,VWS V14.01,2013-02-24 21:57:00,
2013-02-24 15:58:00,30.2,21.3,28.85,ESE,112,2.5,2.7,69,0.00,,---,0.00,VWS V14.01,2013-02-24 21:58:00,
2013-02-24 15:59:00,31.1,23.1,28.85,ESE,112,2.7,2.7,72,0.00,,---,0.00,VWS V14.01,2013-02-24 21:59:00,
2013-02-24 16:00:00,30.7,21.8,28.85,East,90,1.3,2.2,69,0.00,,---,0.00,VWS V14.01,2013-02-24 22:00:00,
2013-02-24 16:01:00,30.9,22.3,28.85,East,90,2.0,2.0,70,0.00,,---,0.00,VWS V14.01,2013-02-24 22:01:00,
2013-02-24 16:02:00,31.1,23.1,28.85,ESE,112,2.0,2.0,72,0.00,,---,0.00,VWS V14.01,2013-02-24 22:02:00,
2013-02-24 16:03:00,31.1,23.1,28.85,ESE,112,2.7,2.7,72,0.00,,---,0.00,VWS V14.01,2013-02-24 22:03:00,
2013-02-24 16:04:00,31.8,22.8,28.85,ESE,112,2.2,2.2,69,0.00,,---,0.00,VWS V14.01,2013-02-24 22:04:00,
2013-02-24 16:05:00,31.3,23.3,28.85,ESE,112,2.5,2.7,72,0.00,,---,0.00,VWS V14.01,2013-02-24 22:05:00,
2013-02-24 16:06:00,31.5,22.8,28.85,ESE,112,2.2,2.5,70,0.00,,---,0.00,VWS V14.01,2013-02-24 22:06:00,
2013-02-24 16:07:00,31.8,22.8,28.85,ESE,112,2.2,2.5,69,0.00,,---,0.00,VWS V14.01,2013-02-24 22:07:00,
2013-02-24 16:08:00,31.8,22.8,28.85,ESE,112,2.2,2.2,69,0.00,,---,0.00,VWS V14.01,2013-02-24 22:08:00,
2013-02-24 16:09:00,31.6,23.3,28.85,SE,135,4.0,4.0,71,0.00,,---,0.00,VWS V14.01,2013-02-24 22:09:00,
2013-02-24 16:10:00,32.2,23.5,28.85,SE,135,3.1,3.4,70,0.00,,---,0.00,VWS V14.01,2013-02-24 22:10:00,
2013-02-24 16:11:00,31.8,22.8,28.85,SE,135,4.3,4.3,69,0.00,,---,0.00,VWS V14.01,2013-02-24 22:11:00,
2013-02-24 16:12:00,31.6,23.3,28.85,SE,135,4.0,4.3,71,0.00,,---,0.00,VWS V14.01,2013-02-24 22:12:00,
2013-02-24 16:13:00,31.5,22.8,28.85,SE,135,3.6,4.3,70,0.00,,---,0.00,VWS V14.01,2013-02-24 22:13:00,
2013-02-24 16:14:00,31.1,20.7,28.85,East,90,3.6,3.6,65,0.00,,---,0.00,VWS V14.01,2013-02-24 22:14:00,
2013-02-24 16:15:00,31.3,21.6,28.85,SE,135,3.1,3.6,67,0.00,,---,0.00,VWS V14.01,2013-02-24 22:15:00,
2013-02-24 16:16:00,31.1,21.1,28.85,SE,135,4.0,4.0,66,0.00,,---,0.00,VWS V14.01,2013-02-24 22:16:00,
2013-02-24 16:17:00,31.1,20.7,28.85,ESE,112,2.9,4.0,65,0.00,,---,0.00,VWS V14.01,2013-02-24 22:17:00,
2013-02-24 16:18:00,30.9,19.8,28.85,ESE,112,3.6,3.8,63,0.00,,---,0.00,VWS V14.01,2013-02-24 22:18:00,
2013-02-24 16:19:00,32.0,23.7,28.85,ESE,112,2.9,2.9,71,0.00,,---,0.00,VWS V14.01,2013-02-24 22:19:00,
2013-02-24 16:20:00,31.3,21.6,28.85,ESE,112,2.7,2.9,67,0.00,,---,0.00,VWS V14.01,2013-02-24 22:20:00,
2013-02-24 16:21:00,31.3,21.6,28.85,ESE,112,2.7,3.1,67,0.00,,---,0.00,VWS V14.01,2013-02-24 22:21:00,
2013-02-24 16:22:00,31.8,22.5,28.85,East,90,2.9,3.4,68,0.00,,---,0.00,VWS V14.01,2013-02-24 22:22:00,
2013-02-24 16:23:00,32.2,24.2,28.85,East,90,2.7,2.9,72,0.00,,---,0.00,VWS V14.01,2013-02-24 22:23:00,
2013-02-24 16:24:00,32.0,23.7,28.85,East,90,3.4,3.4,71,0.00,,---,0.00,VWS V14.01,2013-02-24 22:24:00,
2013-02-24 16:25:00,32.2,23.9,28.85,East,90,3.1,3.4,71,0.00,,---,0.00,VWS V14.01,2013-02-24 22:25:00,
2013-02-24 16:26:00,32.2,24.2,28.85,ESE,112,3.6,3.8,72,0.00,,---,0.00,VWS V14.01,2013-02-24 22:26:00,
2013-02-24 16:27:00,32.0,23.7,28.85,ESE,112,3.4,3.6,71,0.00,,---,0.00,VWS V14.01,2013-02-24 22:27:00,
2013-02-24 16:28:00,31.6,22.6,28.85,East,90,2.9,3.4,69,0.00,,---,0.00,VWS V14.01,2013-02-24 22:28:00,
2013-02-24 16:29:00,30.4,19.7,28.85,East,90,3.1,3.1,64,0.00,,---,0.00,VWS V14.01,2013-02-24 22:29:00,
2013-02-24 16:30:00,30.9,20.2,28.85,East,90,3.4,3.4,64,0.00,,---,0.00,VWS V14.01,2013-02-24 22:30:00,
2013-02-24 16:31:00,30.9,20.2,28.85,East,90,2.7,3.4,64,0.00,,---,0.00,VWS V14.01,2013-02-24 22:31:00,
2013-02-24 16:32:00,30.4,19.7,28.85,East,90,2.7,2.7,64,0.00,,---,0.00,VWS V14.01,2013-02-24 22:32:00,
2013-02-24 16:33:00,30.2,19.1,28.85,East,90,3.4,3.4,63,0.00,,---,0.00,VWS V14.01,2013-02-24 22:33:00,
2013-02-24 16:34:00,29.1,19.9,28.85,ESE,112,3.1,3.1,68,0.00,,---,0.00,VWS V14.01,2013-02-24 22:34:00,
2013-02-24 16:35:00,29.7,19.0,28.85,ESE,112,3.1,3.1,64,0.00,,---,0.00,VWS V14.01,2013-02-24 22:35:00,
2013-02-24 16:36:00,29.5,19.5,28.85,ESE,112,2.9,3.4,66,0.00,,---,0.00,VWS V14.01,2013-02-24 22:36:00,
2013-02-24 16:37:00,29.1,19.9,28.85,ESE,112,3.1,3.6,68,0.00,,---,0.00,VWS V14.01,2013-02-24 22:37:00,
2013-02-24 16:38:00,29.1,19.9,28.85,East,90,3.1,3.1,68,0.00,,---,0.00,VWS V14.01,2013-02-24 22:38:00,
2013-02-24 16:39:00,28.2,19.0,28.85,East,90,2.0,2.5,68,0.00,,---,0.00,VWS V14.01,2013-02-24 22:39:00,
2013-02-24 16:40:00,28.6,19.7,28.85,East,90,2.7,3.4,69,0.00,,---,0.00,VWS V14.01,2013-02-24 22:40:00,
2013-02-24 16:41:00,28.4,19.2,28.85,East,90,2.2,2.7,68,0.00,,---,0.00,VWS V14.01,2013-02-24 22:41:00,
2013-02-24 16:42:00,28.2,19.0,28.85,East,90,2.0,2.5,68,0.00,,---,0.00,VWS V14.01,2013-02-24 22:42:00,
2013-02-24 16:43:00,28.2,19.0,28.85,East,90,2.5,2.5,68,0.00,,---,0.00,VWS V14.01,2013-02-24 22:43:00,
2013-02-24 16:44:00,27.1,18.3,28.82,ESE,112,2.0,2.5,69,0.00,,---,0.00,VWS V14.01,2013-02-24 22:44:00,
2013-02-24 16:45:00,27.7,18.2,28.85,East,90,1.6,2.2,67,0.00,,---,0.00,VWS V14.01,2013-02-24 22:45:00,
2013-02-24 16:46:00,27.3,18.2,28.85,ESE,112,2.5,2.7,68,0.00,,---,0.00,VWS V14.01,2013-02-24 22:46:00,
2013-02-24 16:47:00,27.1,18.3,28.82,ESE,112,2.0,2.5,69,0.00,,---,0.00,VWS V14.01,2013-02-24 22:47:00,
2013-02-24 16:48:00,27.1,18.3,28.82,ESE,112,2.0,2.0,69,0.00,,---,0.00,VWS V14.01,2013-02-24 22:48:00,
2013-02-24 16:49:00,26.1,17.0,28.82,ESE,112,2.0,2.0,68,0.00,,---,0.00,VWS V14.01,2013-02-24 22:49:00,
2013-02-24 16:50:00,27.0,17.8,28.82,East,90,1.3,2.0,68,0.00,,---,0.00,VWS V14.01,2013-02-24 22:50:00,
2013-02-24 16:51:00,27.0,17.8,28.82,East,90,1.6,1.6,68,0.00,,---,0.00,VWS V14.01,2013-02-24 22:51:00,
2013-02-24 16:52:00,27.0,17.8,28.82,ESE,112,1.3,2.0,68,0.00,,---,0.00,VWS V14.01,2013-02-24 22:52:00,
2013-02-24 16:53:00,26.1,16.6,28.82,ESE,112,2.2,2.2,67,0.00,,---,0.00,VWS V14.01,2013-02-24 22:53:00,
2013-02-24 16:54:00,25.9,17.8,28.82,ESE,112,1.3,1.3,71,0.00,,---,0.00,VWS V14.01,2013-02-24 22:54:00,
2013-02-24 16:55:00,25.9,17.1,28.82,ESE,112,1.1,1.6,69,0.00,,---,0.00,VWS V14.01,2013-02-24 22:55:00,
2013-02-24 16:56:00,25.9,17.5,28.82,ESE,112,1.3,1.3,70,0.00,,---,0.00,VWS V14.01,2013-02-24 22:56:00,
2013-02-24 16:57:00,25.9,17.8,28.82,ESE,112,1.3,1.3,71,0.00,,---,0.00,VWS V14.01,2013-02-24 22:57:00,
2013-02-24 16:58:00,25.9,18.1,28.82,ESE,112,1.3,2.0,72,0.00,,---,0.00,VWS V14.01,2013-02-24 22:58:00,
2013-02-24 16:59:00,25.5,17.8,28.85,SE,135,1.6,2.2,72,0.00,,---,0.00,VWS V14.01,2013-02-24 22:59:00,
2013-02-24 17:00:00,25.7,17.9,28.82,ESE,112,1.1,1.1,72,0.00,,---,0.00,VWS V14.01,2013-02-24 23:00:00,
2013-02-24 17:01:00,25.5,17.8,28.82,ESE,112,2.5,2.5,72,0.00,,---,0.00,VWS V14.01,2013-02-24 23:01:00,
2013-02-24 17:02:00,25.5,17.8,28.85,SE,135,2.2,2.7,72,0.00,,---,0.00,VWS V14.01,2013-02-24 23:02:00,
2013-02-24 17:03:00,25.3,17.9,28.85,SE,135,1.6,2.2,73,0.00,,---,0.00,VWS V14.01,2013-02-24 23:03:00,
2013-02-24 17:04:00,25.2,17.7,28.85,ESE,112,2.9,2.9,73,0.00,,---,0.00,VWS V14.01,2013-02-24 23:04:00,
2013-02-24 17:05:00,25.3,17.9,28.85,SE,135,2.0,2.0,73,0.00,,---,0.00,VWS V14.01,2013-02-24 23:05:00,
2013-02-24 17:06:00,25.2,17.4,28.85,ESE,112,2.2,2.2,72,0.00,,---,0.00,VWS V14.01,2013-02-24 23:06:00,
2013-02-24 17:07:00,25.2,17.7,28.85,ESE,112,2.7,2.7,73,0.00,,---,0.00,VWS V14.01,2013-02-24 23:07:00,
2013-02-24 17:08:00,25.2,17.7,28.85,ESE,112,2.7,2.9,73,0.00,,---,0.00,VWS V14.01,2013-02-24 23:08:00,
2013-02-24 17:09:00,25.0,18.8,28.85,SE,135,3.1,3.1,77,0.00,,---,0.00,VWS V14.01,2013-02-24 23:09:00,
2013-02-24 17:10:00,25.0,17.9,28.85,SE,135,3.1,3.4,74,0.00,,---,0.00,VWS V14.01,2013-02-24 23:10:00,
2013-02-24 17:11:00,25.0,17.9,28.85,SE,135,2.9,3.1,74,0.00,,---,0.00,VWS V14.01,2013-02-24 23:11:00,
2013-02-24 17:12:00,25.0,18.8,28.85,SE,135,3.1,3.1,77,0.00,,---,0.00,VWS V14.01,2013-02-24 23:12:00,
2013-02-24 17:13:00,25.0,18.8,28.85,SE,135,2.7,3.1,77,0.00,,---,0.00,VWS V14.01,2013-02-24 23:13:00,
2013-02-24 17:14:00,24.4,18.3,28.85,SE,135,2.2,2.5,77,0.00,,---,0.00,VWS V14.01,2013-02-24 23:14:00,
2013-02-24 17:15:00,24.8,18.6,28.85,SE,135,3.1,3.4,77,0.00,,---,0.00,VWS V14.01,2013-02-24 23:15:00,
2013-02-24 17:16:00,24.6,18.5,28.85,SE,135,2.2,3.1,77,0.00,,---,0.00,VWS V14.01,2013-02-24 23:16:00,
2013-02-24 17:17:00,24.4,18.3,28.85,SE,135,2.5,2.5,77,0.00,,---,0.00,VWS V14.01,2013-02-24 23:17:00,
2013-02-24 17:18:00,24.4,18.3,28.85,SE,135,2.2,2.5,77,0.00,,---,0.00,VWS V14.01,2013-02-24 23:18:00,
2013-02-24 17:19:00,24.3,18.1,28.85,SE,135,2.2,2.2,77,0.00,,---,0.00,VWS V14.01,2013-02-24 23:19:00,
2013-02-24 17:20:00,24.4,18.3,28.85,SE,135,2.0,2.5,77,0.00,,---,0.00,VWS V14.01,2013-02-24 23:20:00,
2013-02-24 17:21:00,24.3,18.1,28.85,SE,135,2.0,2.2,77,0.00,,---,0.00,VWS V14.01,2013-02-24 23:21:00,
2013-02-24 17:22:00,24.3,18.1,28.85,SE,135,2.2,2.2,77,0.00,,---,0.00,VWS V14.01,2013-02-24 23:22:00,
2013-02-24 17:23:00,24.3,17.8,28.85,SE,135,2.9,2.9,76,0.00,,---,0.00,VWS V14.01,2013-02-24 23:23:00,
2013-02-24 17:24:00,24.4,18.6,28.85,SE,135,2.7,2.7,78,0.00,,---,0.00,VWS V14.01,2013-02-24 23:24:00,
2013-02-24 17:25:00,24.3,18.4,28.85,SE,135,2.9,2.9,78,0.00,,---,0.00,VWS V14.01,2013-02-24 23:25:00,
2013-02-24 17:26:00,24.4,18.6,28.85,SE,135,2.7,3.1,78,0.00,,---,0.00,VWS V14.01,2013-02-24 23:26:00,
2013-02-24 17:27:00,24.4,18.6,28.85,SE,135,2.7,2.7,78,0.00,,---,0.00,VWS V14.01,2013-02-24 23:27:00,
2013-02-24 17:28:00,24.4,18.6,28.85,SE,135,2.9,2.9,78,0.00,,---,0.00,VWS V14.01,2013-02-24 23:28:00,
2013-02-24 17:29:00,24.4,19.2,28.85,SE,135,2.5,2.5,80,0.00,,---,0.00,VWS V14.01,2013-02-24 23:29:00,
2013-02-24 17:30:00,24.4,18.9,28.85,SE,135,2.9,2.9,79,0.00,,---,0.00,VWS V14.01,2013-02-24 23:30:00,
2013-02-24 17:31:00,24.4,19.2,28.85,SE,135,2.2,3.1,80,0.00,,---,0.00,VWS V14.01,2013-02-24 23:31:00,
2013-02-24 17:32:00,24.4,19.2,28.85,SE,135,2.5,2.7,80,0.00,,---,0.00,VWS V14.01,2013-02-24 23:32:00,
2013-02-24 17:33:00,24.4,19.2,28.85,SE,135,3.1,3.1,80,0.00,,---,0.00,VWS V14.01,2013-02-24 23:33:00,
2013-02-24 17:34:00,24.4,19.2,28.85,SE,135,1.6,2.2,80,0.00,,---,0.00,VWS V14.01,2013-02-24 23:34:00,
2013-02-24 17:35:00,24.4,19.2,28.85,SE,135,2.9,3.8,80,0.00,,---,0.00,VWS V14.01,2013-02-24 23:35:00,
2013-02-24 17:36:00,24.4,19.2,28.85,SE,135,2.5,2.9,80,0.00,,---,0.00,VWS V14.01,2013-02-24 23:36:00,
2013-02-24 17:37:00,24.4,19.2,28.85,SE,135,2.2,2.7,80,0.00,,---,0.00,VWS V14.01,2013-02-24 23:37:00,
2013-02-24 17:38:00,24.4,19.2,28.85,SE,135,1.6,2.2,80,0.00,,---,0.00,VWS V14.01,2013-02-24 23:38:00,
2013-02-24 17:39:00,24.3,19.0,28.85,SE,135,1.3,1.6,80,0.00,,---,0.00,VWS V14.01,2013-02-24 23:39:00,
2013-02-24 17:40:00,24.4,19.2,28.85,SE,135,1.6,2.0,80,0.00,,---,0.00,VWS V14.01,2013-02-24 23:40:00,
2013-02-24 17:41:00,24.4,19.2,28.85,SE,135,1.6,1.6,80,0.00,,---,0.00,VWS V14.01,2013-02-24 23:41:00,
2013-02-24 17:42:00,24.3,19.0,28.85,SE,135,1.6,1.6,80,0.00,,---,0.00,VWS V14.01,2013-02-24 23:42:00,
2013-02-24 17:43:00,24.3,19.0,28.85,SE,135,0.0,1.6,80,0.00,,---,0.00,VWS V14.01,2013-02-24 23:43:00,
2013-02-24 17:44:00,23.7,16.7,28.88,SSE,158,0.0,0.0,74,0.00,,---,0.00,VWS V14.01,2013-02-24 23:44:00,
2013-02-24 17:45:00,24.1,18.2,28.85,SE,135,0.0,0.0,78,0.00,,---,0.00,VWS V14.01,2013-02-24 23:45:00,
2013-02-24 17:46:00,23.9,17.1,28.85,SSE,158,0.0,0.0,75,0.00,,---,0.00,VWS V14.01,2013-02-24 23:46:00,
2013-02-24 17:47:00,23.7,16.7,28.88,SSE,158,0.0,0.0,74,0.00,,---,0.00,VWS V14.01,2013-02-24 23:47:00,
2013-02-24 17:48:00,23.7,16.7,28.88,SSE,158,0.0,0.0,74,0.00,,---,0.00,VWS V14.01,2013-02-24 23:48:00,
2013-02-24 17:49:00,23.5,15.5,28.88,SSW,202,0.0,0.0,71,0.00,,---,0.00,VWS V14.01,2013-02-24 23:49:00,
2013-02-24 17:50:00,23.5,15.9,28.88,South,180,0.0,0.0,72,0.00,,---,0.00,VWS V14.01,2013-02-24 23:50:00,
2013-02-24 17:51:00,23.5,15.9,28.88,South,180,0.0,0.0,72,0.00,,---,0.00,VWS V14.01,2013-02-24 23:51:00,
2013-02-24 17:52:00,23.5,15.5,28.88,SSW,202,0.0,0.0,71,0.00,,---,0.00,VWS V14.01,2013-02-24 23:52:00,
2013-02-24 17:53:00,23.5,15.5,28.88,SSW,202,0.0,0.0,71,0.00,,---,0.00,VWS V14.01,2013-02-24 23:53:00,
2013-02-24 17:54:00,23.0,15.0,28.88,South,180,1.6,1.6,71,0.00,,---,0.00,VWS V14.01,2013-02-24 23:54:00,
2013-02-24 17:55:00,23.2,14.9,28.88,SSW,202,1.6,1.6,70,0.00,,---,0.00,VWS V14.01,2013-02-24 23:55:00,
2013-02-24 17:56:00,23.2,14.9,28.88,SSW,202,1.3,1.6,70,0.00,,---,0.00,VWS V14.01,2013-02-24 23:56:00,
2013-02-24 17:57:00,23.0,15.0,28.88,SSW,202,1.6,1.6,71,0.00,,---,0.00,VWS V14.01,2013-02-24 23:57:00,
2013-02-24 17:58:00,23.0,15.0,28.88,South,180,1.3,1.6,71,0.00,,---,0.00,VWS V14.01,2013-02-24 23:58:00,
2013-02-24 17:59:00,23.0,15.0,28.85,SSE,158,1.1,1.1,71,0.00,,---,0.00,VWS V14.01,2013-02-24 23:59:00,
2013-02-24 18:00:00,23.0,15.0,28.88,South,180,1.3,1.3,71,0.00,,---,0.00,VWS V14.01,2013-02-25 00:00:00,
2013-02-24 18:01:00,23.0,15.0,28.88,South,180,0.0,1.3,71,0.00,,---,0.00,VWS V14.01,2013-02-25 00:01:00,
2013-02-24 18:02:00,23.0,15.0,28.85,South,180,0.0,0.0,71,0.00,,---,0.00,VWS V14.01,2013-02-25 00:02:00,
2013-02-24 18:03:00,18.1,13.0,28.82,NNW,338,0.0,0.0,80,0.00,,---,0.00,VWS V14.01,2013-02-25 00:03:00,
2013-02-24 18:04:00,22.6,16.2,28.85,South,180,2.5,3.1,76,0.00,,---,0.00,VWS V14.01,2013-02-25 00:04:00,
2013-02-24 18:05:00,22.6,15.9,28.85,SSE,158,1.6,1.6,75,0.00,,---,0.00,VWS V14.01,2013-02-25 00:05:00,
2013-02-24 18:06:00,22.6,16.2,28.85,South,180,2.2,2.7,76,0.00,,---,0.00,VWS V14.01,2013-02-25 00:06:00,
2013-02-24 18:07:00,22.6,16.2,28.85,SSE,158,3.1,3.1,76,0.00,,---,0.00,VWS V14.01,2013-02-25 00:07:00,
2013-02-24 18:08:00,22.6,16.2,28.85,SSE,158,1.6,3.1,76,0.00,,---,0.00,VWS V14.01,2013-02-25 00:08:00,
2013-02-24 18:09:00,22.3,16.5,28.85,SSW,202,0.0,0.0,78,0.00,,---,0.00,VWS V14.01,2013-02-25 00:09:00,
2013-02-24 18:10:00,22.5,16.4,28.85,SSE,158,0.0,0.0,77,0.00,,---,0.00,VWS V14.01,2013-02-25 00:10:00,
2013-02-24 18:11:00,22.5,16.4,28.85,SSE,158,0.0,0.0,77,0.00,,---,0.00,VWS V14.01,2013-02-25 00:11:00,
2013-02-24 18:12:00,17.1,12.0,28.82,NW,315,2.0,2.0,80,0.00,,---,0.00,VWS V14.01,2013-02-25 00:12:00,
2013-02-24 18:13:00,22.3,16.5,28.85,South,180,0.0,0.0,78,0.00,,---,0.00,VWS V14.01,2013-02-25 00:13:00,
2013-02-24 18:14:00,21.9,16.1,28.85,SSE,158,0.0,0.0,78,0.00,,---,0.00,VWS V14.01,2013-02-25 00:14:00,
2013-02-24 18:15:00,22.3,16.5,28.85,SSE,158,0.0,0.0,78,0.00,,---,0.00,VWS V14.01,2013-02-25 00:15:00,
2013-02-24 18:16:00,22.1,16.3,28.85,SSE,158,0.0,0.0,78,0.00,,---,0.00,VWS V14.01,2013-02-25 00:16:00,
2013-02-24 18:17:00,21.9,16.1,28.85,SSE,158,0.0,1.6,78,0.00,,---,0.00,VWS V14.01,2013-02-25 00:17:00,
2013-02-24 18:18:00,21.9,16.1,28.85,SSE,158,0.0,0.0,78,0.00,,---,0.00,VWS V14.01,2013-02-25 00:18:00,
2013-02-24 18:19:00,21.7,16.2,28.85,SSE,158,0.0,0.0,79,0.00,,---,0.00,VWS V14.01,2013-02-25 00:19:00,
2013-02-24 18:20:00,21.9,16.4,28.85,SSE,158,0.0,0.0,79,0.00,,---,0.00,VWS V14.01,2013-02-25 00:20:00,
2013-02-24 18:21:00,21.7,16.2,28.85,SSE,158,0.0,0.0,79,0.00,,---,0.00,VWS V14.01,2013-02-25 00:21:00,
2013-02-24 18:22:00,21.7,16.2,28.85,SSE,158,0.0,0.0,79,0.00,,---,0.00,VWS V14.01,2013-02-25 00:22:00,
2013-02-24 18:23:00,21.7,16.2,28.85,SSE,158,0.0,0.0,79,0.00,,---,0.00,VWS V14.01,2013-02-25 00:23:00,
2013-02-24 18:24:00,21.4,15.9,28.85,SSE,158,0.0,0.0,79,0.00,,---,0.00,VWS V14.01,2013-02-25 00:24:00,
2013-02-24 18:25:00,21.6,16.1,28.85,SSE,158,0.0,0.0,79,0.00,,---,0.00,VWS V14.01,2013-02-25 00:25:00,
2013-02-24 18:26:00,21.4,15.9,28.85,SSE,158,0.0,0.0,79,0.00,,---,0.00,VWS V14.01,2013-02-25 00:26:00,
2013-02-24 18:27:00,21.4,15.9,28.85,SSE,158,0.0,0.0,79,0.00,,---,0.00,VWS V14.01,2013-02-25 00:27:00,
2013-02-24 18:28:00,21.4,15.9,28.85,SSE,158,0.0,0.0,79,0.00,,---,0.00,VWS V14.01,2013-02-25 00:28:00,
2013-02-24 18:29:00,21.2,16.0,28.85,SSE,158,0.0,0.0,80,0.00,,---,0.00,VWS V14.01,2013-02-25 00:29:00,
2013-02-24 18:30:00,21.2,15.7,28.85,SSE,158,0.0,0.0,79,0.00,,---,0.00,VWS V14.01,2013-02-25 00:30:00,
2013-02-24 18:31:00,21.2,15.7,28.85,SSE,158,0.0,0.0,79,0.00,,---,0.00,VWS V14.01,2013-02-25 00:31:00,
2013-02-24 18:32:00,21.2,16.0,28.85,SSE,158,0.0,0.0,80,0.00,,---,0.00,VWS V14.01,2013-02-25 00:32:00,
2013-02-24 18:33:00,21.0,15.8,28.85,SSE,158,0.0,0.0,80,0.00,,---,0.00,VWS V14.01,2013-02-25 00:33:00,
2013-02-24 18:34:00,20.8,15.7,28.85,SSE,158,0.0,0.0,80,0.00,,---,0.00,VWS V14.01,2013-02-25 00:34:00,
2013-02-24 18:35:00,21.0,15.8,28.85,SSE,158,0.0,0.0,80,0.00,,---,0.00,VWS V14.01,2013-02-25 00:35:00,
2013-02-24 18:36:00,20.8,15.6,28.85,SSE,158,0.0,0.0,80,0.00,,---,0.00,VWS V14.01,2013-02-25 00:36:00,
2013-02-24 18:37:00,20.8,15.6,28.85,SSE,158,0.0,0.0,80,0.00,,---,0.00,VWS V14.01,2013-02-25 00:37:00,
2013-02-24 18:38:00,20.8,15.6,28.85,SSE,158,0.0,0.0,80,0.00,,---,0.00,VWS V14.01,2013-02-25 00:38:00,
2013-02-24 18:39:00,20.3,15.1,28.85,SSE,158,0.0,0.0,80,0.00,,---,0.00,VWS V14.01,2013-02-25 00:39:00,
2013-02-24 18:40:00,20.5,15.3,28.85,SSE,158,0.0,0.0,80,0.00,,---,0.00,VWS V14.01,2013-02-25 00:40:00,
2013-02-24 18:41:00,20.3,15.1,28.85,SSE,158,0.0,0.0,80,0.00,,---,0.00,VWS V14.01,2013-02-25 00:41:00,
2013-02-24 18:42:00,20.3,15.1,28.85,SSE,158,0.0,0.0,80,0.00,,---,0.00,VWS V14.01,2013-02-25 00:42:00,
2013-02-24 18:43:00,20.3,15.1,28.85,SSE,158,0.0,0.0,80,0.00,,---,0.00,VWS V14.01,2013-02-25 00:43:00,
2013-02-24 18:44:00,19.9,14.8,28.85,SSE,158,0.0,0.0,80,0.00,,---,0.00,VWS V14.01,2013-02-25 00:44:00,
2013-02-24 18:45:00,20.1,14.9,28.85,SSE,158,0.0,0.0,80,0.00,,---,0.00,VWS V14.01,2013-02-25 00:45:00,
2013-02-24 18:46:00,20.1,14.9,28.85,SSE,158,0.0,0.0,80,0.00,,---,0.00,VWS V14.01,2013-02-25 00:46:00,
2013-02-24 18:47:00,19.9,14.8,28.85,SSE,158,0.0,0.0,80,0.00,,---,0.00,VWS V14.01,2013-02-25 00:47:00,
2013-02-24 18:48:00,19.9,14.8,28.85,SSE,158,0.0,0.0,80,0.00,,---,0.00,VWS V14.01,2013-02-25 00:48:00,
2013-02-24 18:49:00,19.6,14.4,28.85,SE,135,0.0,0.0,80,0.00,,---,0.00,VWS V14.01,2013-02-25 00:49:00,
2013-02-24 18:50:00,19.8,14.6,28.85,SSE,158,0.0,0.0,80,0.00,,---,0.00,VWS V14.01,2013-02-25 00:50:00,
2013-02-24 18:51:00,19.6,14.4,28.85,SE,135,0.0,0.0,80,0.00,,---,0.00,VWS V14.01,2013-02-25 00:51:00,
2013-02-24 18:52:00,19.6,14.4,28.85,SE,135,0.0,0.0,80,0.00,,---,0.00,VWS V14.01,2013-02-25 00:52:00,
2013-02-24 18:53:00,19.6,14.4,28.85,SE,135,0.0,0.0,80,0.00,,---,0.00,VWS V14.01,2013-02-25 00:53:00,
2013-02-24 18:54:00,19.0,13.9,28.85,SE,135,0.0,0.0,80,0.00,,---,0.00,VWS V14.01,2013-02-25 00:54:00,
2013-02-24 18:55:00,19.2,14.1,28.85,SE,135,0.0,0.0,80,0.00,,---,0.00,VWS V14.01,2013-02-25 00:55:00,
2013-02-24 18:56:00,19.0,13.9,28.85,SE,135,0.0,0.0,80,0.00,,---,0.00,VWS V14.01,2013-02-25 00:56:00,
2013-02-24 18:57:00,19.0,13.9,28.85,SE,135,0.0,0.0,80,0.00,,---,0.00,VWS V14.01,2013-02-25 00:57:00,
2013-02-24 18:58:00,18.9,13.7,28.85,SE,135,0.0,0.0,80,0.00,,---,0.00,VWS V14.01,2013-02-25 00:58:00,
2013-02-24 18:59:00,18.3,13.2,28.82,NNW,338,0.0,0.0,80,0.00,,---,0.00,VWS V14.01,2013-02-25 00:59:00,
2013-02-24 19:00:00,18.5,13.4,28.85,NNE,22,0.0,0.0,80,0.00,,---,0.00,VWS V14.01,2013-02-25 01:00:00,
2013-02-24 19:01:00,18.3,13.2,28.85,North,0,0.0,0.0,80,0.00,,---,0.00,VWS V14.01,2013-02-25 01:01:00,
2013-02-24 19:02:00,18.3,13.2,28.82,NNW,338,0.0,0.0,80,0.00,,---,0.00,VWS V14.01,2013-02-25 01:02:00,
2013-02-24 19:03:00,18.1,13.0,28.82,NNW,338,0.0,0.0,80,0.00,,---,0.00,VWS V14.01,2013-02-25 01:03:00,
2013-02-24 19:04:00,17.6,12.5,28.82,NW,315,1.6,1.6,80,0.00,,---,0.00,VWS V14.01,2013-02-25 01:04:00,
2013-02-24 19:05:00,18.0,12.9,28.82,NW,315,1.6,2.0,80,0.00,,---,0.00,VWS V14.01,2013-02-25 01:05:00,
2013-02-24 19:06:00,17.8,12.7,28.82,NW,315,1.6,2.0,80,0.00,,---,0.00,VWS V14.01,2013-02-25 01:06:00,
2013-02-24 19:07:00,17.6,12.5,28.82,NW,315,1.6,1.6,80,0.00,,---,0.00,VWS V14.01,2013-02-25 01:07:00,
2013-02-24 19:08:00,17.6,12.5,28.82,NW,315,1.6,1.6,80,0.00,,---,0.00,VWS V14.01,2013-02-25 01:08:00,
2013-02-24 19:09:00,17.1,12.0,28.82,NW,315,2.0,2.0,80,0.00,,---,0.00,VWS V14.01,2013-02-25 01:09:00,
2013-02-24 19:10:00,17.2,12.1,28.82,NW,315,2.0,2.0,80,0.00,,---,0.00,VWS V14.01,2013-02-25 01:10:00,
2013-02-24 19:11:00,17.1,12.0,28.82,NW,315,2.0,2.2,80,0.00,,---,0.00,VWS V14.01,2013-02-25 01:11:00,
2013-02-24 19:12:00,17.1,12.0,28.82,NW,315,2.0,2.0,80,0.00,,---,0.00,VWS V14.01,2013-02-25 01:12:00,
2013-02-24 19:13:00,17.1,12.0,28.82,NNW,338,1.3,2.0,80,0.00,,---,0.00,VWS V14.01,2013-02-25 01:13:00,
2013-02-24 19:14:00,16.9,11.8,28.82,NNW,338,0.0,0.0,80,0.00,,---,0.00,VWS V14.01,2013-02-25 01:14:00,
2013-02-24 19:15:00,16.9,11.8,28.82,NNW,338,0.0,0.0,80,0.00,,---,0.00,VWS V14.01,2013-02-25 01:15:00,
2013-02-24 19:16:00,16.9,11.8,28.82,NNW,338,0.0,0.0,80,0.00,,---,0.00,VWS V14.01,2013-02-25 01:16:00,
2013-02-24 19:17:00,16.9,11.8,28.82,NNW,338,0.0,0.0,80,0.00,,---,0.00,VWS V14.01,2013-02-25 01:17:00,
2013-02-24 19:18:00,16.9,11.8,28.82,NNW,338,0.0,0.0,80,0.00,,---,0.00,VWS V14.01,2013-02-25 01:18:00,
2013-02-24 19:19:00,16.7,11.9,28.85,NNW,338,0.0,0.0,81,0.00,,---,0.00,VWS V14.01,2013-02-25 01:19:00,
2013-02-24 19:20:00,16.7,11.9,28.85,NNW,338,0.0,0.0,81,0.00,,---,0.00,VWS V14.01,2013-02-25 01:20:00,
2013-02-24 19:21:00,16.7,11.9,28.85,NNW,338,0.0,0.0,81,0.00,,---,0.00,VWS V14.01,2013-02-25 01:21:00,
2013-02-24 19:22:00,16.7,11.9,28.85,NNW,338,0.0,0.0,81,0.00,,---,0.00,VWS V14.01,2013-02-25 01:22:00,
2013-02-24 19:23:00,16.7,11.9,28.85,NNW,338,0.0,0.0,81,0.00,,---,0.00,VWS V14.01,2013-02-25 01:23:00,
2013-02-24 19:24:00,16.5,11.7,28.85,NNW,338,0.0,0.0,81,0.00,,---,0.00,VWS V14.01,2013-02-25 01:24:00,
2013-02-24 19:25:00,16.5,11.7,28.85,NNW,338,0.0,0.0,81,0.00,,---,0.00,VWS V14.01,2013-02-25 01:25:00,
2013-02-24 19:26:00,16.5,11.7,28.85,NNW,338,0.0,0.0,81,0.00,,---,0.00,VWS V14.01,2013-02-25 01:26:00,
2013-02-24 19:27:00,16.5,11.7,28.85,NNW,338,0.0,0.0,81,0.00,,---,0.00,VWS V14.01,2013-02-25 01:27:00,
2013-02-24 19:28:00,16.5,11.7,28.85,NNW,338,0.0,0.0,81,0.00,,---,0.00,VWS V14.01,2013-02-25 01:28:00,
2013-02-24 19:29:00,16.0,11.2,28.85,NNW,338,0.0,0.0,81,0.00,,---,0.00,VWS V14.01,2013-02-25 01:29:00,
2013-02-24 19:30:00,16.3,11.5,28.85,NNW,338,0.0,0.0,81,0.00,,---,0.00,VWS V14.01,2013-02-25 01:30:00,
2013-02-24 19:31:00,16.2,11.4,28.85,NNW,338,0.0,0.0,81,0.00,,---,0.00,VWS V14.01,2013-02-25 01:31:00,
2013-02-24 19:32:00,16.2,11.4,28.85,NNW,338,0.0,0.0,81,0.00,,---,0.00,VWS V14.01,2013-02-25 01:32:00,
2013-02-24 19:33:00,16.0,11.2,28.85,NNW,338,0.0,0.0,81,0.00,,---,0.00,VWS V14.01,2013-02-25 01:33:00,
2013-02-24 19:34:00,15.4,10.1,28.85,NNW,338,0.0,0.0,79,0.00,,---,0.00,VWS V14.01,2013-02-25 01:34:00,
2013-02-24 19:35:00,15.8,10.7,28.85,NNW,338,0.0,0.0,80,0.00,,---,0.00,VWS V14.01,2013-02-25 01:35:00,
2013-02-24 19:36:00,15.6,10.6,28.85,NNW,338,0.0,0.0,80,0.00,,---,0.00,VWS V14.01,2013-02-25 01:36:00,
2013-02-24 19:37:00,15.4,10.1,28.85,NNW,338,0.0,0.0,79,0.00,,---,0.00,VWS V14.01,2013-02-25 01:37:00,
2013-02-24 19:38:00,15.4,10.1,28.85,NNW,338,0.0,0.0,79,0.00,,---,0.00,VWS V14.01,2013-02-25 01:38:00,
2013-02-24 19:39:00,14.7,8.8,28.85,NW,315,0.0,0.0,77,0.00,,---,0.00,VWS V14.01,2013-02-25 01:39:00,
2013-02-24 19:40:00,15.1,9.5,28.85,NNW,338,0.0,0.0,78,0.00,,---,0.00,VWS V14.01,2013-02-25 01:40:00,
2013-02-24 19:41:00,14.9,9.3,28.85,NW,315,0.0,0.0,78,0.00,,---,0.00,VWS V14.01,2013-02-25 01:41:00,
2013-02-24 19:42:00,14.9,9.0,28.85,NW,315,0.0,0.0,77,0.00,,---,0.00,VWS V14.01,2013-02-25 01:42:00,
2013-02-24 19:43:00,14.7,8.8,28.85,NW,315,0.0,0.0,77,0.00,,---,0.00,VWS V14.01,2013-02-25 01:43:00,
2013-02-24 19:44:00,14.4,8.8,28.85,WNW,292,0.0,0.0,78,0.00,,---,0.00,VWS V14.01,2013-02-25 01:44:00,
2013-02-24 19:45:00,14.5,8.7,28.85,WNW,292,0.0,0.0,77,0.00,,---,0.00,VWS V14.01,2013-02-25 01:45:00,
2013-02-24 19:46:00,14.5,8.7,28.85,WNW,292,0.0,0.0,77,0.00,,---,0.00,VWS V14.01,2013-02-25 01:46:00,
2013-02-24 19:47:00,14.4,8.5,28.85,WNW,292,0.0,0.0,77,0.00,,---,0.00,VWS V14.01,2013-02-25 01:47:00,
2013-02-24 19:48:00,14.4,8.8,28.85,WNW,292,0.0,0.0,78,0.00,,---,0.00,VWS V14.01,2013-02-25 01:48:00,
2013-02-24 19:49:00,14.2,8.9,28.85,WNW,292,0.0,0.0,79,0.00,,---,0.00,VWS V14.01,2013-02-25 01:49:00,
2013-02-24 19:50:00,14.2,8.6,28.85,WNW,292,0.0,0.0,78,0.00,,---,0.00,VWS V14.01,2013-02-25 01:50:00,
2013-02-24 19:51:00,14.2,8.6,28.85,WNW,292,0.0,0.0,78,0.00,,---,0.00,VWS V14.01,2013-02-25 01:51:00,
2013-02-24 19:52:00,14.2,8.9,28.85,WNW,292,0.0,0.0,79,0.00,,---,0.00,VWS V14.01,2013-02-25 01:52:00,
2013-02-24 19:53:00,14.2,8.9,28.85,WNW,292,0.0,0.0,79,0.00,,---,0.00,VWS V14.01,2013-02-25 01:53:00,
2013-02-24 19:54:00,13.8,8.8,28.85,WNW,292,0.0,0.0,80,0.00,,---,0.00,VWS V14.01,2013-02-25 01:54:00,
2013-02-24 19:55:00,13.8,8.8,28.85,WNW,292,0.0,0.0,80,0.00,,---,0.00,VWS V14.01,2013-02-25 01:55:00,
2013-02-24 19:56:00,13.8,8.8,28.85,WNW,292,0.0,0.0,80,0.00,,---,0.00,VWS V14.01,2013-02-25 01:56:00,
2013-02-24 19:57:00,13.8,8.8,28.85,WNW,292,0.0,0.0,80,0.00,,---,0.00,VWS V14.01,2013-02-25 01:57:00,
2013-02-24 19:58:00,13.8,8.8,28.85,WNW,292,0.0,0.0,80,0.00,,---,0.00,VWS V14.01,2013-02-25 01:58:00,
2013-02-24 19:59:00,13.5,8.4,28.85,WNW,292,0.0,0.0,80,0.00,,---,0.00,VWS V14.01,2013-02-25 01:59:00,
2013-02-24 20:00:00,13.6,8.6,28.85,WNW,292,0.0,0.0,80,0.00,,---,0.00,VWS V14.01,2013-02-25 02:00:00,
2013-02-24 20:01:00,9.7,4.8,28.85,NW,315,2.0,2.2,80,0.00,,---,0.00,VWS V14.01,2013-02-25 02:01:00,
2013-02-24 20:02:00,13.5,8.4,28.85,WNW,292,0.0,0.0,80,0.00,,---,0.00,VWS V14.01,2013-02-25 02:02:00,
2013-02-24 20:03:00,12.9,7.9,28.85,WNW,292,0.0,0.0,80,0.00,,---,0.00,VWS V14.01,2013-02-25 02:03:00,
2013-02-24 20:04:00,12.6,7.6,28.85,WNW,292,0.0,0.0,80,0.00,,---,0.00,VWS V14.01,2013-02-25 02:04:00,
2013-02-24 20:05:00,12.7,7.8,28.85,WNW,292,0.0,0.0,80,0.00,,---,0.00,VWS V14.01,2013-02-25 02:05:00,
2013-02-24 20:06:00,12.7,7.8,28.85,WNW,292,0.0,0.0,80,0.00,,---,0.00,VWS V14.01,2013-02-25 02:06:00,
2013-02-24 20:07:00,12.6,7.6,28.85,WNW,292,0.0,0.0,80,0.00,,---,0.00,VWS V14.01,2013-02-25 02:07:00,
2013-02-24 20:08:00,12.6,7.6,28.85,WNW,292,0.0,0.0,80,0.00,,---,0.00,VWS V14.01,2013-02-25 02:08:00,
2013-02-24 20:09:00,11.8,6.9,28.85,East,90,2.2,2.5,80,0.00,,---,0.00,VWS V14.01,2013-02-25 02:09:00,
2013-02-24 20:10:00,12.6,7.6,28.85,WNW,292,0.0,0.0,80,0.00,,---,0.00,VWS V14.01,2013-02-25 02:10:00,
2013-02-24 20:11:00,12.2,7.2,28.85,WNW,292,0.0,0.0,80,0.00,,---,0.00,VWS V14.01,2013-02-25 02:11:00,
2013-02-24 20:12:00,12.0,7.1,28.85,East,90,2.5,2.5,80,0.00,,---,0.00,VWS V14.01,2013-02-25 02:12:00,
2013-02-24 20:13:00,11.8,6.9,28.85,East,90,2.0,2.5,80,0.00,,---,0.00,VWS V14.01,2013-02-25 02:13:00,
2013-02-24 20:14:00,11.7,6.7,28.85,East,90,1.3,1.6,80,0.00,,---,0.00,VWS V14.01,2013-02-25 02:14:00,
2013-02-24 20:15:00,11.8,6.9,28.85,East,90,1.6,2.0,80,0.00,,---,0.00,VWS V14.01,2013-02-25 02:15:00,
2013-02-24 20:16:00,11.7,6.7,28.85,East,90,1.6,2.0,80,0.00,,---,0.00,VWS V14.01,2013-02-25 02:16:00,
2013-02-24 20:17:00,11.7,6.7,28.85,East,90,1.6,1.6,80,0.00,,---,0.00,VWS V14.01,2013-02-25 02:17:00,
2013-02-24 20:18:00,11.7,6.7,28.85,ENE,68,2.0,2.0,80,0.00,,---,0.00,VWS V14.01,2013-02-25 02:18:00,
2013-02-24 20:19:00,11.5,6.5,28.85,ENE,68,0.0,0.0,80,0.00,,---,0.00,VWS V14.01,2013-02-25 02:19:00,
2013-02-24 20:20:00,11.7,6.7,28.85,ENE,68,1.3,1.6,80,0.00,,---,0.00,VWS V14.01,2013-02-25 02:20:00,
2013-02-24 20:21:00,11.7,6.7,28.85,ENE,68,0.0,1.3,80,0.00,,---,0.00,VWS V14.01,2013-02-25 02:21:00,
2013-02-24 20:22:00,11.7,6.7,28.85,ENE,68,0.0,0.0,80,0.00,,---,0.00,VWS V14.01,2013-02-25 02:22:00,
2013-02-24 20:23:00,11.5,6.5,28.85,ENE,68,0.0,0.0,80,0.00,,---,0.00,VWS V14.01,2013-02-25 02:23:00,
2013-02-24 20:24:00,11.3,6.3,28.85,ENE,68,0.0,0.0,80,0.00,,---,0.00,VWS V14.01,2013-02-25 02:24:00,
2013-02-24 20:25:00,11.5,6.5,28.85,ENE,68,0.0,0.0,80,0.00,,---,0.00,VWS V14.01,2013-02-25 02:25:00,
2013-02-24 20:26:00,11.5,6.5,28.85,ENE,68,0.0,0.0,80,0.00,,---,0.00,VWS V14.01,2013-02-25 02:26:00,
2013-02-24 20:27:00,11.5,6.5,28.85,ENE,68,0.0,0.0,80,0.00,,---,0.00,VWS V14.01,2013-02-25 02:27:00,
2013-02-24 20:28:00,11.3,6.3,28.85,ENE,68,0.0,0.0,80,0.00,,---,0.00,VWS V14.01,2013-02-25 02:28:00,
2013-02-24 20:29:00,10.9,6.0,28.85,North,0,2.0,2.0,80,0.00,,---,0.00,VWS V14.01,2013-02-25 02:29:00,
2013-02-24 20:30:00,11.3,6.3,28.85,ENE,68,0.0,0.0,80,0.00,,---,0.00,VWS V14.01,2013-02-25 02:30:00,
2013-02-24 20:31:00,11.3,6.3,28.85,ENE,68,0.0,0.0,80,0.00,,---,0.00,VWS V14.01,2013-02-25 02:31:00,
2013-02-24 20:32:00,10.9,6.0,28.85,North,0,1.6,1.6,80,0.00,,---,0.00,VWS V14.01,2013-02-25 02:32:00,
2013-02-24 20:33:00,10.9,6.0,28.85,North,0,1.6,2.0,80,0.00,,---,0.00,VWS V14.01,2013-02-25 02:33:00,
2013-02-24 20:34:00,10.2,5.3,28.85,NW,315,2.5,2.5,80,0.00,,---,0.00,VWS V14.01,2013-02-25 02:34:00,
2013-02-24 20:35:00,10.4,5.5,28.85,NNW,338,2.7,2.7,80,0.00,,---,0.00,VWS V14.01,2013-02-25 02:35:00,
2013-02-24 20:36:00,10.4,5.5,28.85,NW,315,2.5,2.7,80,0.00,,---,0.00,VWS V14.01,2013-02-25 02:36:00,
2013-02-24 20:37:00,10.4,5.5,28.85,NW,315,2.2,2.5,80,0.00,,---,0.00,VWS V14.01,2013-02-25 02:37:00,
2013-02-24 20:38:00,10.2,5.3,28.85,NW,315,2.5,2.5,80,0.00,,---,0.00,VWS V14.01,2013-02-25 02:38:00,
2013-02-24 20:39:00,9.7,4.8,28.85,NW,315,2.5,2.5,80,0.00,,---,0.00,VWS V14.01,2013-02-25 02:39:00,
2013-02-24 20:40:00,10.0,5.1,28.85,NW,315,2.7,2.7,80,0.00,,---,0.00,VWS V14.01,2013-02-25 02:40:00,
2013-02-24 20:41:00,9.7,4.8,28.85,NW,315,2.7,2.7,80,0.00,,---,0.00,VWS V14.01,2013-02-25 02:41:00,
2013-02-24 20:42:00,9.7,4.8,28.85,NW,315,2.5,2.7,80,0.00,,---,0.00,VWS V14.01,2013-02-25 02:42:00,
2013-02-24 20:43:00,9.7,4.8,28.85,NW,315,2.5,2.5,80,0.00,,---,0.00,VWS V14.01,2013-02-25 02:43:00,
2013-02-24 20:44:00,9.5,4.6,28.85,NW,315,1.1,1.3,80,0.00,,---,0.00,VWS V14.01,2013-02-25 02:44:00,
2013-02-24 20:45:00,9.5,4.6,28.85,NW,315,1.3,2.0,80,0.00,,---,0.00,VWS V14.01,2013-02-25 02:45:00,
2013-02-24 20:46:00,9.5,4.6,28.85,NW,315,1.1,1.3,80,0.00,,---,0.00,VWS V14.01,2013-02-25 02:46:00,
2013-02-24 20:47:00,9.5,4.6,28.85,NW,315,1.1,1.1,80,0.00,,---,0.00,VWS V14.01,2013-02-25 02:47:00,
2013-02-24 20:48:00,9.5,4.6,28.85,NW,315,1.1,1.3,80,0.00,,---,0.00,VWS V14.01,2013-02-25 02:48:00,
2013-02-24 20:49:00,9.7,4.8,28.85,NW,315,0.0,0.0,80,0.00,,---,0.00,VWS V14.01,2013-02-25 02:49:00,
2013-02-24 20:50:00,9.7,4.8,28.85,NW,315,1.3,1.6,80,0.00,,---,0.00,VWS V14.01,2013-02-25 02:50:00,
2013-02-24 20:51:00,9.7,4.8,28.85,NW,315,0.9,1.3,80,0.00,,---,0.00,VWS V14.01,2013-02-25 02:51:00,
2013-02-24 20:52:00,9.7,4.8,28.85,NW,315,0.0,0.9,80,0.00,,---,0.00,VWS V14.01,2013-02-25 02:52:00,
2013-02-24 20:53:00,9.7,4.8,28.85,NW,315,0.0,0.0,80,0.00,,---,0.00,VWS V14.01,2013-02-25 02:53:00,
2013-02-24 20:54:00,9.9,4.9,28.85,NW,315,2.2,2.2,80,0.00,,---,0.00,VWS V14.01,2013-02-25 02:54:00,
2013-02-24 20:55:00,9.7,4.8,28.85,NW,315,0.0,0.0,80,0.00,,---,0.00,VWS V14.01,2013-02-25 02:55:00,
2013-02-24 20:56:00,9.9,4.9,28.85,NW,315,0.0,0.0,80,0.00,,---,0.00,VWS V14.01,2013-02-25 02:56:00,
2013-02-24 20:57:00,10.0,5.1,28.85,NW,315,0.0,0.0,80,0.00,,---,0.00,VWS V14.01,2013-02-25 02:57:00,
2013-02-24 20:58:00,9.9,4.9,28.85,NW,315,2.2,2.2,80,0.00,,---,0.00,VWS V14.01,2013-02-25 02:58:00,
2013-02-24 20:59:00,9.5,4.6,28.88,NW,315,2.0,2.2,80,0.00,,---,0.00,VWS V14.01,2013-02-25 02:59:00,
2013-02-24 21:00:00,9.7,4.8,28.85,NW,315,2.2,2.2,80,0.00,,---,0.00,VWS V14.01,2013-02-25 03:00:00,
2013-02-24 21:01:00,9.7,4.8,28.85,NW,315,2.0,2.2,80,0.00,,---,0.00,VWS V14.01,2013-02-25 03:01:00,
2013-02-24 21:02:00,9.7,4.8,28.88,NW,315,2.2,2.2,80,0.00,,---,0.00,VWS V14.01,2013-02-25 03:02:00,
2013-02-24 21:03:00,9.5,4.6,28.88,NW,315,2.2,2.2,80,0.00,,---,0.00,VWS V14.01,2013-02-25 03:03:00,
2013-02-24 21:04:00,9.1,4.2,28.88,NNW,338,2.9,2.9,80,0.00,,---,0.00,VWS V14.01,2013-02-25 03:04:00,
2013-02-24 21:05:00,9.3,4.4,28.88,NNW,338,2.0,2.0,80,0.00,,---,0.00,VWS V14.01,2013-02-25 03:05:00,
2013-02-24 21:06:00,9.1,4.2,28.88,NNW,338,2.2,2.2,80,0.00,,---,0.00,VWS V14.01,2013-02-25 03:06:00,
2013-02-24 21:07:00,9.1,4.2,28.88,NNW,338,2.5,2.5,80,0.00,,---,0.00,VWS V14.01,2013-02-25 03:07:00,
2013-02-24 21:08:00,9.1,4.2,28.88,NNW,338,2.9,2.9,80,0.00,,---,0.00,VWS V14.01,2013-02-25 03:08:00,
2013-02-24 21:09:00,8.8,3.9,28.88,NNW,338,2.0,2.2,80,0.00,,---,0.00,VWS V14.01,2013-02-25 03:09:00,
2013-02-24 21:10:00,8.8,3.9,28.88,NNW,338,2.5,2.7,80,0.00,,---,0.00,VWS V14.01,2013-02-25 03:10:00,
2013-02-24 21:11:00,8.8,3.9,28.88,NNW,338,2.2,2.5,80,0.00,,---,0.00,VWS V14.01,2013-02-25 03:11:00,
2013-02-24 21:12:00,8.8,3.9,28.88,NNW,338,2.2,2.2,80,0.00,,---,0.00,VWS V14.01,2013-02-25 03:12:00,
2013-02-24 21:13:00,8.8,3.9,28.88,NNW,338,2.0,2.2,80,0.00,,---,0.00,VWS V14.01,2013-02-25 03:13:00,
2013-02-24 21:14:00,8.6,3.7,28.85,NNW,338,2.7,2.7,80,0.00,,---,0.00,VWS V14.01,2013-02-25 03:14:00,
2013-02-24 21:15:00,8.6,3.7,28.88,NNW,338,1.6,2.2,80,0.00,,---,0.00,VWS V14.01,2013-02-25 03:15:00,
2013-02-24 21:16:00,8.6,3.7,28.88,NNW,338,2.0,2.0,80,0.00,,---,0.00,VWS V14.01,2013-02-25 03:16:00,
2013-02-24 21:17:00,8.6,3.7,28.88,NNW,338,2.7,2.7,80,0.00,,---,0.00,VWS V14.01,2013-02-25 03:17:00,
2013-02-24 21:18:00,8.6,3.7,28.85,NNW,338,2.7,2.7,80,0.00,,---,0.00,VWS V14.01,2013-02-25 03:18:00,
2013-02-24 21:19:00,8.4,3.5,28.85,NNW,338,2.0,2.5,80,0.00,,---,0.00,VWS V14.01,2013-02-25 03:19:00,
2013-02-24 21:20:00,8.6,3.7,28.85,NNW,338,2.9,2.9,80,0.00,,---,0.00,VWS V14.01,2013-02-25 03:20:00,
2013-02-24 21:21:00,8.6,3.7,28.85,NNW,338,2.7,2.9,80,0.00,,---,0.00,VWS V14.01,2013-02-25 03:21:00,
2013-02-24 21:22:00,8.4,3.5,28.85,NNW,338,2.5,2.7,80,0.00,,---,0.00,VWS V14.01,2013-02-25 03:22:00,
2013-02-24 21:23:00,8.4,3.5,28.85,NNW,338,2.0,2.5,80,0.00,,---,0.00,VWS V14.01,2013-02-25 03:23:00,
2013-02-24 21:24:00,8.2,3.4,28.85,NNW,338,0.0,0.0,80,0.00,,---,0.00,VWS V14.01,2013-02-25 03:24:00,
2013-02-24 21:25:00,8.4,3.5,28.85,NNW,338,0.0,0.9,80,0.00,,---,0.00,VWS V14.01,2013-02-25 03:25:00,
2013-02-24 21:26:00,8.2,3.4,28.85,NNW,338,0.0,0.0,80,0.00,,---,0.00,VWS V14.01,2013-02-25 03:26:00,
2013-02-24 21:27:00,8.2,3.4,28.85,NNW,338,0.0,0.0,80,0.00,,---,0.00,VWS V14.01,2013-02-25 03:27:00,
2013-02-24 21:28:00,8.2,3.4,28.85,NNW,338,0.0,0.0,80,0.00,,---,0.00,VWS V14.01,2013-02-25 03:28:00,
2013-02-24 21:29:00,8.4,3.5,28.88,NNW,338,0.0,0.0,80,0.00,,---,0.00,VWS V14.01,2013-02-25 03:29:00,
2013-02-24 21:30:00,8.2,3.4,28.85,NNW,338,2.0,2.0,80,0.00,,---,0.00,VWS V14.01,2013-02-25 03:30:00,
2013-02-24 21:31:00,8.2,3.4,28.85,NNW,338,0.0,2.0,80,0.00,,---,0.00,VWS V14.01,2013-02-25 03:31:00,
2013-02-24 21:32:00,8.4,3.5,28.88,NNW,338,0.0,0.0,80,0.00,,---,0.00,VWS V14.01,2013-02-25 03:32:00,
2013-02-24 21:33:00,8.4,3.5,28.88,NNW,338,0.0,0.0,80,0.00,,---,0.00,VWS V14.01,2013-02-25 03:33:00,
2013-02-24 21:34:00,8.6,3.7,28.88,NNW,338,0.0,0.0,80,0.00,,---,0.00,VWS V14.01,2013-02-25 03:34:00,
2013-02-24 21:35:00,8.6,3.7,28.88,NNW,338,0.0,0.0,80,0.00,,---,0.00,VWS V14.01,2013-02-25 03:35:00,
2013-02-24 21:36:00,8.6,3.7,28.88,NNW,338,0.0,0.0,80,0.00,,---,0.00,VWS V14.01,2013-02-25 03:36:00,
2013-02-24 21:37:00,8.6,3.7,28.88,NNW,338,0.0,0.0,80,0.00,,---,0.00,VWS V14.01,2013-02-25 03:37:00,
2013-02-24 21:38:00,8.6,3.7,28.88,NNW,338,0.0,0.0,80,0.00,,---,0.00,VWS V14.01,2013-02-25 03:38:00,
2013-02-24 21:39:00,8.8,3.9,28.88,East,90,0.0,0.0,80,0.00,,---,0.00,VWS V14.01,2013-02-25 03:39:00,
2013-02-24 21:40:00,8.6,3.7,28.88,East,90,0.0,0.0,80,0.00,,---,0.00,VWS V14.01,2013-02-25 03:40:00,
2013-02-24 21:41:00,8.6,3.7,28.88,East,90,0.0,0.0,80,0.00,,---,0.00,VWS V14.01,2013-02-25 03:41:00,
2013-02-24 21:42:00,8.8,3.9,28.88,East,90,0.0,0.0,80,0.00,,---,0.00,VWS V14.01,2013-02-25 03:42:00,
2013-02-24 21:43:00,8.8,3.9,28.88,East,90,0.0,0.0,80,0.00,,---,0.00,VWS V14.01,2013-02-25 03:43:00,
2013-02-24 21:44:00,8.6,3.7,28.88,East,90,0.0,0.0,80,0.00,,---,0.00,VWS V14.01,2013-02-25 03:44:00,
2013-02-24 21:45:00,8.6,3.7,28.88,East,90,0.0,0.0,80,0.00,,---,0.00,VWS V14.01,2013-02-25 03:45:00,
2013-02-24 21:46:00,8.6,3.7,28.88,East,90,0.0,0.0,80,0.00,,---,0.00,VWS V14.01,2013-02-25 03:46:00,
2013-02-24 21:47:00,8.6,3.7,28.88,East,90,0.0,0.0,80,0.00,,---,0.00,VWS V14.01,2013-02-25 03:47:00,
2013-02-24 21:48:00,8.6,3.7,28.88,East,90,0.0,0.0,80,0.00,,---,0.00,VWS V14.01,2013-02-25 03:48:00,
2013-02-24 21:49:00,8.4,3.5,28.88,East,90,0.0,0.0,80,0.00,,---,0.00,VWS V14.01,2013-02-25 03:49:00,
2013-02-24 21:50:00,8.6,3.7,28.88,East,90,0.0,0.0,80,0.00,,---,0.00,VWS V14.01,2013-02-25 03:50:00,
2013-02-24 21:51:00,8.6,3.7,28.88,East,90,0.0,0.0,80,0.00,,---,0.00,VWS V14.01,2013-02-25 03:51:00,
2013-02-24 21:52:00,8.4,3.5,28.88,East,90,0.0,0.0,80,0.00,,---,0.00,VWS V14.01,2013-02-25 03:52:00,
2013-02-24 21:53:00,8.4,3.5,28.88,East,90,0.0,0.0,80,0.00,,---,0.00,VWS V14.01,2013-02-25 03:53:00,
2013-02-24 21:54:00,7.9,3.0,28.88,East,90,0.0,0.0,80,0.00,,---,0.00,VWS V14.01,2013-02-25 03:54:00,
2013-02-24 21:55:00,8.4,3.5,28.88,East,90,0.0,0.0,80,0.00,,---,0.00,VWS V14.01,2013-02-25 03:55:00,
2013-02-24 21:56:00,8.4,3.5,28.88,East,90,0.0,0.0,80,0.00,,---,0.00,VWS V14.01,2013-02-25 03:56:00,
2013-02-24 21:57:00,8.1,3.2,28.88,East,90,0.0,0.0,80,0.00,,---,0.00,VWS V14.01,2013-02-25 03:57:00,
2013-02-24 21:58:00,7.9,3.0,28.88,East,90,0.0,0.0,80,0.00,,---,0.00,VWS V14.01,2013-02-25 03:58:00,
2013-02-24 21:59:00,7.7,2.8,28.88,East,90,0.0,0.0,80,0.00,,---,0.00,VWS V14.01,2013-02-25 03:59:00,
2013-02-24 22:00:00,7.9,3.0,28.88,East,90,0.0,0.0,80,0.00,,---,0.00,VWS V14.01,2013-02-25 04:00:00,
2013-02-24 22:01:00,7.7,2.8,28.88,East,90,0.0,0.0,80,0.00,,---,0.00,VWS V14.01,2013-02-25 04:01:00,
2013-02-24 22:02:00,7.7,2.8,28.88,East,90,0.0,0.0,80,0.00,,---,0.00,VWS V14.01,2013-02-25 04:02:00,
2013-02-24 22:03:00,7.7,2.8,28.88,East,90,0.0,0.0,80,0.00,,---,0.00,VWS V14.01,2013-02-25 04:03:00,
2013-02-24 22:04:00,7.5,2.7,28.88,East,90,0.0,0.0,80,0.00,,---,0.00,VWS V14.01,2013-02-25 04:04:00,
2013-02-24 22:05:00,7.7,2.8,28.88,East,90,0.0,0.0,80,0.00,,---,0.00,VWS V14.01,2013-02-25 04:05:00,
2013-02-24 22:06:00,7.7,2.8,28.88,East,90,0.0,0.0,80,0.00,,---,0.00,VWS V14.01,2013-02-25 04:06:00,
2013-02-24 22:07:00,7.5,2.7,28.88,East,90,0.0,0.0,80,0.00,,---,0.00,VWS V14.01,2013-02-25 04:07:00,
2013-02-24 22:08:00,7.5,2.7,28.88,East,90,0.0,0.0,80,0.00,,---,0.00,VWS V14.01,2013-02-25 04:08:00,
2013-02-24 22:09:00,7.0,2.1,28.88,WSW,248,0.0,0.0,80,0.00,,---,0.00,VWS V14.01,2013-02-25 04:09:00,
2013-02-24 22:10:00,7.3,2.5,28.88,WSW,248,0.0,0.0,80,0.00,,---,0.00,VWS V14.01,2013-02-25 04:10:00,
2013-02-24 22:11:00,7.3,2.5,28.88,WSW,248,0.0,0.0,80,0.00,,---,0.00,VWS V14.01,2013-02-25 04:11:00,
2013-02-24 22:12:00,7.2,2.3,28.88,WSW,248,0.0,0.0,80,0.00,,---,0.00,VWS V14.01,2013-02-25 04:12:00,
2013-02-24 22:13:00,7.0,2.1,28.88,WSW,248,0.0,0.0,80,0.00,,---,0.00,VWS V14.01,2013-02-25 04:13:00,
2013-02-24 22:14:00,7.0,2.1,28.88,WSW,248,0.0,0.0,80,0.00,,---,0.00,VWS V14.01,2013-02-25 04:14:00,
2013-02-24 22:15:00,7.0,2.1,28.88,WSW,248,0.0,0.0,80,0.00,,---,0.00,VWS V14.01,2013-02-25 04:15:00,
2013-02-24 22:16:00,7.0,2.1,28.88,WSW,248,0.0,0.0,80,0.00,,---,0.00,VWS V14.01,2013-02-25 04:16:00,
2013-02-24 22:17:00,7.0,2.1,28.88,WSW,248,0.0,0.0,80,0.00,,---,0.00,VWS V14.01,2013-02-25 04:17:00,
2013-02-24 22:18:00,7.0,2.1,28.88,WSW,248,0.0,0.0,80,0.00,,---,0.00,VWS V14.01,2013-02-25 04:18:00,
2013-02-24 22:19:00,7.0,2.1,28.88,WSW,248,0.0,0.0,80,0.00,,---,0.00,VWS V14.01,2013-02-25 04:19:00,
2013-02-24 22:20:00,6.6,1.8,28.88,WNW,292,2.9,2.9,80,0.00,,---,0.00,VWS V14.01,2013-02-25 04:20:00,
2013-02-24 22:21:00,6.8,2.0,28.88,WSW,248,0.0,0.0,80,0.00,,---,0.00,VWS V14.01,2013-02-25 04:21:00,
2013-02-24 22:22:00,6.6,1.8,28.88,West,270,2.5,2.5,80,0.00,,---,0.00,VWS V14.01,2013-02-25 04:22:00,
2013-02-24 22:23:00,6.6,1.8,28.88,WNW,292,2.7,2.9,80,0.00,,---,0.00,VWS V14.01,2013-02-25 04:23:00,
2013-02-24 22:24:00,6.6,1.8,28.88,WNW,292,2.7,2.7,80,0.00,,---,0.00,VWS V14.01,2013-02-25 04:24:00,
2013-02-24 22:25:00,6.3,1.4,28.88,WNW,292,0.0,0.0,80,0.00,,---,0.00,VWS V14.01,2013-02-25 04:25:00,
2013-02-24 22:26:00,6.4,1.6,28.88,WNW,292,1.6,2.7,80,0.00,,---,0.00,VWS V14.01,2013-02-25 04:26:00,
2013-02-24 22:27:00,6.3,1.4,28.88,WNW,292,0.0,1.6,80,0.00,,---,0.00,VWS V14.01,2013-02-25 04:27:00,
2013-02-24 22:28:00,6.3,1.4,28.88,WNW,292,0.0,0.0,80,0.00,,---,0.00,VWS V14.01,2013-02-25 04:28:00,
2013-02-24 22:29:00,6.3,1.4,28.88,WNW,292,0.0,0.0,80,0.00,,---,0.00,VWS V14.01,2013-02-25 04:29:00,
2013-02-24 22:30:00,6.4,1.6,28.88,ESE,112,0.0,0.0,80,0.00,,---,0.00,VWS V14.01,2013-02-25 04:30:00,
2013-02-24 22:31:00,6.3,1.4,28.88,ESE,112,0.0,0.0,80,0.00,,---,0.00,VWS V14.01,2013-02-25 04:31:00,
2013-02-24 22:32:00,6.3,1.4,28.88,ESE,112,0.0,0.0,80,0.00,,---,0.00,VWS V14.01,2013-02-25 04:32:00,
2013-02-24 22:33:00,6.4,1.6,28.88,ESE,112,0.0,0.0,80,0.00,,---,0.00,VWS V14.01,2013-02-25 04:33:00,
2013-02-24 22:34:00,6.4,1.6,28.88,ESE,112,1.6,1.6,80,0.00,,---,0.00,VWS V14.01,2013-02-25 04:34:00,
2013-02-24 22:35:00,6.8,2.0,28.88,ESE,112,0.0,2.0,80,0.00,,---,0.00,VWS V14.01,2013-02-25 04:35:00,
2013-02-24 22:36:00,6.8,2.0,28.88,ESE,112,2.2,2.5,80,0.00,,---,0.00,VWS V14.01,2013-02-25 04:36:00,
2013-02-24 22:37:00,6.8,2.0,28.88,ESE,112,1.6,2.2,80,0.00,,---,0.00,VWS V14.01,2013-02-25 04:37:00,
2013-02-24 22:38:00,6.8,2.0,28.88,ESE,112,0.0,2.0,80,0.00,,---,0.00,VWS V14.01,2013-02-25 04:38:00,
2013-02-24 22:39:00,6.8,2.0,28.88,ESE,112,0.0,0.0,80,0.00,,---,0.00,VWS V14.01,2013-02-25 04:39:00,
2013-02-24 22:40:00,7.0,2.1,28.88,ESE,112,0.0,0.0,80,0.00,,---,0.00,VWS V14.01,2013-02-25 04:40:00,
2013-02-24 22:41:00,7.0,2.1,28.88,ESE,112,0.0,0.0,80,0.00,,---,0.00,VWS V14.01,2013-02-25 04:41:00,
2013-02-24 22:42:00,7.0,2.1,28.88,ESE,112,0.0,0.0,80,0.00,,---,0.00,VWS V14.01,2013-02-25 04:42:00,
2013-02-24 22:43:00,5.0,0.2,28.91,North,0,0.0,0.0,80,0.00,,---,0.00,VWS V14.01,2013-02-25 04:43:00,
2013-02-24 22:44:00,7.0,2.1,28.88,ESE,112,0.0,0.0,80,0.00,,---,0.00,VWS V14.01,2013-02-25 04:44:00,
2013-02-24 22:45:00,6.6,1.8,28.88,ESE,112,0.0,0.0,80,0.00,,---,0.00,VWS V14.01,2013-02-25 04:45:00,
2013-02-24 22:46:00,6.8,2.0,28.88,ESE,112,0.0,0.0,80,0.00,,---,0.00,VWS V14.01,2013-02-25 04:46:00,
2013-02-24 22:47:00,6.8,2.0,28.88,ESE,112,0.0,0.0,80,0.00,,---,0.00,VWS V14.01,2013-02-25 04:47:00,
2013-02-24 22:48:00,6.8,2.0,28.88,ESE,112,0.0,0.0,80,0.00,,---,0.00,VWS V14.01,2013-02-25 04:48:00,
2013-02-24 22:49:00,6.6,1.8,28.88,ESE,112,0.0,0.0,80,0.00,,---,0.00,VWS V14.01,2013-02-25 04:49:00,
2013-02-24 22:50:00,6.3,1.4,28.88,ESE,112,0.0,0.0,80,0.00,,---,0.00,VWS V14.01,2013-02-25 04:50:00,
2013-02-24 22:51:00,6.4,1.6,28.88,ESE,112,0.0,0.0,80,0.00,,---,0.00,VWS V14.01,2013-02-25 04:51:00,
2013-02-24 22:52:00,6.4,1.6,28.88,ESE,112,0.0,0.0,80,0.00,,---,0.00,VWS V14.01,2013-02-25 04:52:00,
2013-02-24 22:53:00,6.3,1.4,28.88,ESE,112,0.0,0.0,80,0.00,,---,0.00,VWS V14.01,2013-02-25 04:53:00,
2013-02-24 22:54:00,6.3,1.4,28.88,ESE,112,0.0,0.0,80,0.00,,---,0.00,VWS V14.01,2013-02-25 04:54:00,
2013-02-24 22:55:00,6.3,1.4,28.88,ESE,112,0.0,0.0,80,0.00,,---,0.00,VWS V14.01,2013-02-25 04:55:00,
2013-02-24 22:56:00,6.3,1.4,28.88,ESE,112,0.0,0.0,80,0.00,,---,0.00,VWS V14.01,2013-02-25 04:56:00,
2013-02-24 22:57:00,6.3,1.4,28.88,ESE,112,0.0,0.0,80,0.00,,---,0.00,VWS V14.01,2013-02-25 04:57:00,
2013-02-24 22:58:00,6.3,1.4,28.88,ESE,112,0.0,0.0,80,0.00,,---,0.00,VWS V14.01,2013-02-25 04:58:00,
2013-02-24 22:59:00,6.3,1.4,28.88,ESE,112,0.0,0.0,80,0.00,,---,0.00,VWS V14.01,2013-02-25 04:59:00,
2013-02-24 23:00:00,6.3,1.4,28.88,ESE,112,0.0,0.0,80,0.00,,---,0.00,VWS V14.01,2013-02-25 05:00:00,
2013-02-24 23:01:00,6.3,1.4,28.88,ESE,112,0.0,0.0,80,0.00,,---,0.00,VWS V14.01,2013-02-25 05:01:00,
2013-02-24 23:02:00,6.3,1.4,28.88,ESE,112,0.0,0.0,80,0.00,,---,0.00,VWS V14.01,2013-02-25 05:02:00,
2013-02-24 23:03:00,6.3,1.4,28.88,ESE,112,0.0,0.0,80,0.00,,---,0.00,VWS V14.01,2013-02-25 05:03:00,
2013-02-24 23:04:00,6.3,1.4,28.88,ESE,112,0.0,0.0,80,0.00,,---,0.00,VWS V14.01,2013-02-25 05:04:00,
2013-02-24 23:05:00,6.1,1.2,28.88,SE,135,0.0,0.0,80,0.00,,---,0.00,VWS V14.01,2013-02-25 05:05:00,
2013-02-24 23:06:00,6.3,1.4,28.88,ESE,112,0.0,0.0,80,0.00,,---,0.00,VWS V14.01,2013-02-25 05:06:00,
2013-02-24 23:07:00,6.3,1.4,28.88,ESE,112,0.0,0.0,80,0.00,,---,0.00,VWS V14.01,2013-02-25 05:07:00,
2013-02-24 23:08:00,6.3,1.4,28.88,ESE,112,0.0,0.0,80,0.00,,---,0.00,VWS V14.01,2013-02-25 05:08:00,
2013-02-24 23:09:00,6.1,1.2,28.88,SE,135,0.0,0.0,80,0.00,,---,0.00,VWS V14.01,2013-02-25 05:09:00,
2013-02-24 23:10:00,5.5,0.7,28.88,SSW,202,0.0,0.0,80,0.00,,---,0.00,VWS V14.01,2013-02-25 05:10:00,
2013-02-24 23:11:00,5.9,1.1,28.88,SSW,202,0.0,0.0,80,0.00,,---,0.00,VWS V14.01,2013-02-25 05:11:00,
2013-02-24 23:12:00,5.9,1.1,28.88,SSW,202,0.0,0.0,80,0.00,,---,0.00,VWS V14.01,2013-02-25 05:12:00,
2013-02-24 23:13:00,5.5,0.7,28.88,SSW,202,0.0,0.0,80,0.00,,---,0.00,VWS V14.01,2013-02-25 05:13:00,
2013-02-24 23:14:00,5.5,0.7,28.88,SSW,202,0.0,0.0,80,0.00,,---,0.00,VWS V14.01,2013-02-25 05:14:00,
2013-02-24 23:15:00,5.4,0.5,28.88,SSW,202,0.0,0.0,80,0.00,,---,0.00,VWS V14.01,2013-02-25 05:15:00,
2013-02-24 23:16:00,5.4,0.5,28.88,SSW,202,0.0,0.0,80,0.00,,---,0.00,VWS V14.01,2013-02-25 05:16:00,
2013-02-24 23:17:00,5.4,0.5,28.88,SSW,202,0.0,0.0,80,0.00,,---,0.00,VWS V14.01,2013-02-25 05:17:00,
2013-02-24 23:18:00,5.4,0.5,28.88,SSW,202,0.0,0.0,80,0.00,,---,0.00,VWS V14.01,2013-02-25 05:18:00,
2013-02-24 23:19:00,5.4,0.5,28.88,SSW,202,0.0,0.0,80,0.00,,---,0.00,VWS V14.01,2013-02-25 05:19:00,
2013-02-24 23:20:00,5.4,0.5,28.88,SSW,202,0.0,0.0,80,0.00,,---,0.00,VWS V14.01,2013-02-25 05:20:00,
2013-02-24 23:21:00,5.4,0.5,28.88,SSW,202,0.0,0.0,80,0.00,,---,0.00,VWS V14.01,2013-02-25 05:21:00,
2013-02-24 23:22:00,5.4,0.5,28.88,SSW,202,0.0,0.0,80,0.00,,---,0.00,VWS V14.01,2013-02-25 05:22:00,
2013-02-24 23:23:00,5.4,0.5,28.88,SSW,202,0.0,0.0,80,0.00,,---,0.00,VWS V14.01,2013-02-25 05:23:00,
2013-02-24 23:24:00,3.2,-1.6,28.88,NNW,338,1.6,2.0,80,0.00,,---,0.00,VWS V14.01,2013-02-25 05:24:00,
2013-02-24 23:25:00,5.0,0.2,28.88,WNW,292,2.0,2.0,80,0.00,,---,0.00,VWS V14.01,2013-02-25 05:25:00,
2013-02-24 23:26:00,5.2,0.4,28.88,WNW,292,0.0,0.0,80,0.00,,---,0.00,VWS V14.01,2013-02-25 05:26:00,
2013-02-24 23:27:00,5.2,0.4,28.88,WNW,292,0.0,0.0,80,0.00,,---,0.00,VWS V14.01,2013-02-25 05:27:00,
2013-02-24 23:28:00,5.0,0.2,28.88,WNW,292,1.6,2.5,80,0.00,,---,0.00,VWS V14.01,2013-02-25 05:28:00,
2013-02-24 23:29:00,5.0,0.2,28.88,WNW,292,2.0,2.0,80,0.00,,---,0.00,VWS V14.01,2013-02-25 05:29:00,
2013-02-24 23:30:00,5.0,0.2,28.91,WNW,292,0.0,0.0,80,0.00,,---,0.00,VWS V14.01,2013-02-25 05:30:00,
2013-02-24 23:31:00,5.0,0.2,28.88,WNW,292,0.0,0.0,80,0.00,,---,0.00,VWS V14.01,2013-02-25 05:31:00,
2013-02-24 23:32:00,5.0,0.2,28.91,WNW,292,0.0,0.0,80,0.00,,---,0.00,VWS V14.01,2013-02-25 05:32:00,
2013-02-24 23:33:00,5.0,0.2,28.91,WNW,292,0.0,0.0,80,0.00,,---,0.00,VWS V14.01,2013-02-25 05:33:00,
2013-02-24 23:34:00,5.0,0.2,28.91,WNW,292,0.0,0.0,80,0.00,,---,0.00,VWS V14.01,2013-02-25 05:34:00,
2013-02-24 23:35:00,5.2,0.4,28.91,North,0,0.0,0.0,80,0.00,,---,0.00,VWS V14.01,2013-02-25 05:35:00,
2013-02-24 23:36:00,5.0,0.2,28.91,WNW,292,0.0,0.0,80,0.00,,---,0.00,VWS V14.01,2013-02-25 05:36:00,
2013-02-24 23:37:00,5.0,0.2,28.91,NNW,338,0.0,0.0,80,0.00,,---,0.00,VWS V14.01,2013-02-25 05:37:00,
2013-02-24 23:38:00,5.2,0.4,28.91,North,0,0.0,0.0,80,0.00,,---,0.00,VWS V14.01,2013-02-25 05:38:00,
2013-02-24 23:39:00,5.2,0.4,28.91,North,0,0.0,0.0,80,0.00,,---,0.00,VWS V14.01,2013-02-25 05:39:00,
2013-02-24 23:40:00,5.0,0.2,28.91,NNE,22,0.0,0.0,80,0.00,,---,0.00,VWS V14.01,2013-02-25 05:40:00,
2013-02-24 23:41:00,5.2,0.4,28.91,North,0,0.0,0.0,80,0.00,,---,0.00,VWS V14.01,2013-02-25 05:41:00,
2013-02-24 23:42:00,5.0,0.2,28.91,North,0,0.0,0.0,80,0.00,,---,0.00,VWS V14.01,2013-02-25 05:42:00,
2013-02-24 23:43:00,5.0,0.2,28.91,North,0,0.0,0.0,80,0.00,,---,0.00,VWS V14.01,2013-02-25 05:43:00,
2013-02-24 23:44:00,5.0,0.2,28.91,NNE,22,0.0,0.0,80,0.00,,---,0.00,VWS V14.01,2013-02-25 05:44:00,
2013-02-24 23:45:00,5.0,0.2,28.88,East,90,0.0,0.0,80,0.00,,---,0.00,VWS V14.01,2013-02-25 05:45:00,
2013-02-24 23:46:00,5.0,0.2,28.91,East,90,0.0,0.0,80,0.00,,---,0.00,VWS V14.01,2013-02-25 05:46:00,
2013-02-24 23:47:00,5.0,0.2,28.88,East,90,0.0,0.0,80,0.00,,---,0.00,VWS V14.01,2013-02-25 05:47:00,
2013-02-24 23:48:00,5.0,0.2,28.88,East,90,0.0,0.0,80,0.00,,---,0.00,VWS V14.01,2013-02-25 05:48:00,
2013-02-24 23:49:00,5.0,0.2,28.88,East,90,0.0,0.0,80,0.00,,---,0.00,VWS V14.01,2013-02-25 05:49:00,
2013-02-24 23:50:00,4.6,-0.2,28.88,East,90,0.0,0.0,80,0.00,,---,0.00,VWS V14.01,2013-02-25 05:50:00,
2013-02-24 23:51:00,4.8,0.0,28.88,East,90,0.0,0.0,80,0.00,,---,0.00,VWS V14.01,2013-02-25 05:51:00,
2013-02-24 23:52:00,4.6,-0.2,28.88,East,90,0.0,0.0,80,0.00,,---,0.00,VWS V14.01,2013-02-25 05:52:00,
2013-02-24 23:53:00,4.6,-0.2,28.88,East,90,0.0,0.0,80,0.00,,---,0.00,VWS V14.01,2013-02-25 05:53:00,
2013-02-24 23:54:00,4.6,-0.2,28.88,East,90,0.0,0.0,80,0.00,,---,0.00,VWS V14.01,2013-02-25 05:54:00,
2013-02-24 23:55:00,4.3,-0.5,28.88,WSW,248,0.0,0.0,80,0.00,,---,0.00,VWS V14.01,2013-02-25 05:55:00,
2013-02-24 23:56:00,4.5,-0.3,28.88,East,90,0.0,0.0,80,0.00,,---,0.00,VWS V14.01,2013-02-25 05:56:00,
2013-02-24 23:57:00,4.5,-0.3,28.88,WSW,248,0.0,0.0,80,0.00,,---,0.00,VWS V14.01,2013-02-25 05:57:00,
2013-02-24 23:58:00,4.3,-0.5,28.88,WSW,248,0.0,0.0,80,0.00,,---,0.00,VWS V14.01,2013-02-25 05:58:00,
2013-02-24 23:59:00,4.3,-0.5,28.88,WSW,248,0.0,0.0,80,0.00,,---,0.00,VWS V14.01,2013-02-25 05:59:00,